<?xml version="1.0" encoding="UTF-8" standalone="no" ?>
<gpx xmlns="http://www.topografix.com/GPX/1/1" xmlns:xsi="http://www.w3.org/2001/XMLSchema-instance" xsi:schemaLocation="http://www.topografix.com/GPX/1/1 http://www.topografix.com/GPX/1/1/gpx.xsd" version="1.1" creator="VisuGPX - https://www.visugpx.com">
  <metadata>
    <name>VTT Grabels</name>
    <desc><![CDATA[Une petite sortie passant au dessus des hauts de Massane, empreintant une nouvelle montée bien raide vers le plateau de Juvignac; puis descente ludique vers la Mosson. retour par le single derrière le cimetière de Grabels et remontée par la draille et pour finir par les sentiers et chemin via euromedecine
]]></desc>
  </metadata>
  <trk>
    <name><![CDATA[VTT Grabels_1]]></name>
    <trkseg>
      <trkpt lat="43.63759" lon="3.82851">
        <ele>142.4</ele>
        <time>2016-05-20T10:23:24Z</time>
      </trkpt>
      <trkpt lat="43.63776" lon="3.82849">
        <ele>124.9</ele>
        <time>2016-05-20T10:27:37Z</time>
      </trkpt>
      <trkpt lat="43.63776" lon="3.82838">
        <ele>124.7</ele>
        <time>2016-05-20T10:27:41Z</time>
      </trkpt>
      <trkpt lat="43.63773" lon="3.82826">
        <ele>124.5</ele>
        <time>2016-05-20T10:27:45Z</time>
      </trkpt>
      <trkpt lat="43.63777" lon="3.82817">
        <ele>124.6</ele>
        <time>2016-05-20T10:27:48Z</time>
      </trkpt>
      <trkpt lat="43.63785" lon="3.82813">
        <ele>124.5</ele>
        <time>2016-05-20T10:27:52Z</time>
      </trkpt>
      <trkpt lat="43.63794" lon="3.82807">
        <ele>124.3</ele>
        <time>2016-05-20T10:27:56Z</time>
      </trkpt>
      <trkpt lat="43.63802" lon="3.82804">
        <ele>124.2</ele>
        <time>2016-05-20T10:27:59Z</time>
      </trkpt>
      <trkpt lat="43.63809" lon="3.82801">
        <ele>124.3</ele>
        <time>2016-05-20T10:28:01Z</time>
      </trkpt>
      <trkpt lat="43.63818" lon="3.82796">
        <ele>124.4</ele>
        <time>2016-05-20T10:28:04Z</time>
      </trkpt>
      <trkpt lat="43.63827" lon="3.82794">
        <ele>124.5</ele>
        <time>2016-05-20T10:28:07Z</time>
      </trkpt>
      <trkpt lat="43.63838" lon="3.82797">
        <ele>124.4</ele>
        <time>2016-05-20T10:28:10Z</time>
      </trkpt>
      <trkpt lat="43.63848" lon="3.82794">
        <ele>124.4</ele>
        <time>2016-05-20T10:28:13Z</time>
      </trkpt>
      <trkpt lat="43.63856" lon="3.8279">
        <ele>124.4</ele>
        <time>2016-05-20T10:28:16Z</time>
      </trkpt>
      <trkpt lat="43.63865" lon="3.82782">
        <ele>124.4</ele>
        <time>2016-05-20T10:28:19Z</time>
      </trkpt>
      <trkpt lat="43.63872" lon="3.82774">
        <ele>124.3</ele>
        <time>2016-05-20T10:28:22Z</time>
      </trkpt>
      <trkpt lat="43.63881" lon="3.82778">
        <ele>124</ele>
        <time>2016-05-20T10:28:25Z</time>
      </trkpt>
      <trkpt lat="43.63886" lon="3.82787">
        <ele>124.1</ele>
        <time>2016-05-20T10:28:27Z</time>
      </trkpt>
      <trkpt lat="43.63892" lon="3.82797">
        <ele>124.3</ele>
        <time>2016-05-20T10:28:29Z</time>
      </trkpt>
      <trkpt lat="43.63901" lon="3.82802">
        <ele>125</ele>
        <time>2016-05-20T10:28:32Z</time>
      </trkpt>
      <trkpt lat="43.63909" lon="3.82801">
        <ele>126.1</ele>
        <time>2016-05-20T10:28:34Z</time>
      </trkpt>
      <trkpt lat="43.63917" lon="3.82803">
        <ele>126.2</ele>
        <time>2016-05-20T10:28:36Z</time>
      </trkpt>
      <trkpt lat="43.63922" lon="3.82811">
        <ele>126.4</ele>
        <time>2016-05-20T10:28:38Z</time>
      </trkpt>
      <trkpt lat="43.63929" lon="3.82816">
        <ele>126.9</ele>
        <time>2016-05-20T10:28:42Z</time>
      </trkpt>
      <trkpt lat="43.63935" lon="3.82812">
        <ele>127.2</ele>
        <time>2016-05-20T10:28:46Z</time>
      </trkpt>
      <trkpt lat="43.63943" lon="3.82811">
        <ele>127.4</ele>
        <time>2016-05-20T10:28:49Z</time>
      </trkpt>
      <trkpt lat="43.63951" lon="3.82806">
        <ele>127.5</ele>
        <time>2016-05-20T10:28:52Z</time>
      </trkpt>
      <trkpt lat="43.63958" lon="3.82802">
        <ele>127.8</ele>
        <time>2016-05-20T10:28:55Z</time>
      </trkpt>
      <trkpt lat="43.63964" lon="3.82795">
        <ele>128.1</ele>
        <time>2016-05-20T10:28:58Z</time>
      </trkpt>
      <trkpt lat="43.63973" lon="3.82792">
        <ele>128.2</ele>
        <time>2016-05-20T10:29:01Z</time>
      </trkpt>
      <trkpt lat="43.63981" lon="3.82789">
        <ele>128.5</ele>
        <time>2016-05-20T10:29:03Z</time>
      </trkpt>
      <trkpt lat="43.63991" lon="3.82787">
        <ele>130</ele>
        <time>2016-05-20T10:29:05Z</time>
      </trkpt>
      <trkpt lat="43.64001" lon="3.82787">
        <ele>130.2</ele>
        <time>2016-05-20T10:29:07Z</time>
      </trkpt>
      <trkpt lat="43.64007" lon="3.82781">
        <ele>130.3</ele>
        <time>2016-05-20T10:29:09Z</time>
      </trkpt>
      <trkpt lat="43.64013" lon="3.82771">
        <ele>130.4</ele>
        <time>2016-05-20T10:29:12Z</time>
      </trkpt>
      <trkpt lat="43.64019" lon="3.82766">
        <ele>130.5</ele>
        <time>2016-05-20T10:29:15Z</time>
      </trkpt>
      <trkpt lat="43.64027" lon="3.82761">
        <ele>130.7</ele>
        <time>2016-05-20T10:29:18Z</time>
      </trkpt>
      <trkpt lat="43.64036" lon="3.82756">
        <ele>130.8</ele>
        <time>2016-05-20T10:29:21Z</time>
      </trkpt>
      <trkpt lat="43.64042" lon="3.82749">
        <ele>130.9</ele>
        <time>2016-05-20T10:29:23Z</time>
      </trkpt>
      <trkpt lat="43.6405" lon="3.82741">
        <ele>131</ele>
        <time>2016-05-20T10:29:26Z</time>
      </trkpt>
      <trkpt lat="43.64057" lon="3.82735">
        <ele>131.1</ele>
        <time>2016-05-20T10:29:29Z</time>
      </trkpt>
      <trkpt lat="43.64065" lon="3.82729">
        <ele>131.3</ele>
        <time>2016-05-20T10:29:32Z</time>
      </trkpt>
      <trkpt lat="43.64072" lon="3.82723">
        <ele>131.4</ele>
        <time>2016-05-20T10:29:34Z</time>
      </trkpt>
      <trkpt lat="43.64078" lon="3.82718">
        <ele>131.5</ele>
        <time>2016-05-20T10:29:36Z</time>
      </trkpt>
      <trkpt lat="43.64087" lon="3.82714">
        <ele>131.7</ele>
        <time>2016-05-20T10:29:39Z</time>
      </trkpt>
      <trkpt lat="43.64095" lon="3.82705">
        <ele>131.8</ele>
        <time>2016-05-20T10:29:42Z</time>
      </trkpt>
      <trkpt lat="43.64104" lon="3.82695">
        <ele>132.1</ele>
        <time>2016-05-20T10:29:45Z</time>
      </trkpt>
      <trkpt lat="43.64113" lon="3.82687">
        <ele>132.3</ele>
        <time>2016-05-20T10:29:48Z</time>
      </trkpt>
      <trkpt lat="43.64122" lon="3.8268">
        <ele>132.4</ele>
        <time>2016-05-20T10:29:51Z</time>
      </trkpt>
      <trkpt lat="43.64128" lon="3.82674">
        <ele>132.4</ele>
        <time>2016-05-20T10:29:53Z</time>
      </trkpt>
      <trkpt lat="43.64133" lon="3.82668">
        <ele>132.4</ele>
        <time>2016-05-20T10:29:55Z</time>
      </trkpt>
      <trkpt lat="43.64141" lon="3.82659">
        <ele>132.6</ele>
        <time>2016-05-20T10:29:58Z</time>
      </trkpt>
      <trkpt lat="43.64148" lon="3.82652">
        <ele>132.8</ele>
        <time>2016-05-20T10:30:00Z</time>
      </trkpt>
      <trkpt lat="43.64153" lon="3.82644">
        <ele>133</ele>
        <time>2016-05-20T10:30:02Z</time>
      </trkpt>
      <trkpt lat="43.64159" lon="3.82638">
        <ele>133.2</ele>
        <time>2016-05-20T10:30:04Z</time>
      </trkpt>
      <trkpt lat="43.64167" lon="3.82627">
        <ele>133.6</ele>
        <time>2016-05-20T10:30:07Z</time>
      </trkpt>
      <trkpt lat="43.64175" lon="3.82616">
        <ele>134</ele>
        <time>2016-05-20T10:30:10Z</time>
      </trkpt>
      <trkpt lat="43.6418" lon="3.82609">
        <ele>134.3</ele>
        <time>2016-05-20T10:30:12Z</time>
      </trkpt>
      <trkpt lat="43.64187" lon="3.826">
        <ele>134.8</ele>
        <time>2016-05-20T10:30:15Z</time>
      </trkpt>
      <trkpt lat="43.64193" lon="3.82593">
        <ele>137</ele>
        <time>2016-05-20T10:30:17Z</time>
      </trkpt>
      <trkpt lat="43.64198" lon="3.82584">
        <ele>137.1</ele>
        <time>2016-05-20T10:30:19Z</time>
      </trkpt>
      <trkpt lat="43.64202" lon="3.82576">
        <ele>137.4</ele>
        <time>2016-05-20T10:30:21Z</time>
      </trkpt>
      <trkpt lat="43.64208" lon="3.82566">
        <ele>137.8</ele>
        <time>2016-05-20T10:30:23Z</time>
      </trkpt>
      <trkpt lat="43.64213" lon="3.82557">
        <ele>138.1</ele>
        <time>2016-05-20T10:30:25Z</time>
      </trkpt>
      <trkpt lat="43.64217" lon="3.82546">
        <ele>138.4</ele>
        <time>2016-05-20T10:30:28Z</time>
      </trkpt>
      <trkpt lat="43.64223" lon="3.82534">
        <ele>138.8</ele>
        <time>2016-05-20T10:30:31Z</time>
      </trkpt>
      <trkpt lat="43.64227" lon="3.82525">
        <ele>138.9</ele>
        <time>2016-05-20T10:30:33Z</time>
      </trkpt>
      <trkpt lat="43.64231" lon="3.82516">
        <ele>139.1</ele>
        <time>2016-05-20T10:30:35Z</time>
      </trkpt>
      <trkpt lat="43.64236" lon="3.82508">
        <ele>139.2</ele>
        <time>2016-05-20T10:30:37Z</time>
      </trkpt>
      <trkpt lat="43.64242" lon="3.82496">
        <ele>139.3</ele>
        <time>2016-05-20T10:30:40Z</time>
      </trkpt>
      <trkpt lat="43.64246" lon="3.82487">
        <ele>139.4</ele>
        <time>2016-05-20T10:30:42Z</time>
      </trkpt>
      <trkpt lat="43.64249" lon="3.82477">
        <ele>139.6</ele>
        <time>2016-05-20T10:30:44Z</time>
      </trkpt>
      <trkpt lat="43.64253" lon="3.82468">
        <ele>139.8</ele>
        <time>2016-05-20T10:30:46Z</time>
      </trkpt>
      <trkpt lat="43.64259" lon="3.82456">
        <ele>140.1</ele>
        <time>2016-05-20T10:30:49Z</time>
      </trkpt>
      <trkpt lat="43.64262" lon="3.82447">
        <ele>140.2</ele>
        <time>2016-05-20T10:30:51Z</time>
      </trkpt>
      <trkpt lat="43.64266" lon="3.82437">
        <ele>140.1</ele>
        <time>2016-05-20T10:30:53Z</time>
      </trkpt>
      <trkpt lat="43.64268" lon="3.82426">
        <ele>140.1</ele>
        <time>2016-05-20T10:30:55Z</time>
      </trkpt>
      <trkpt lat="43.64273" lon="3.82416">
        <ele>140.1</ele>
        <time>2016-05-20T10:30:58Z</time>
      </trkpt>
      <trkpt lat="43.64277" lon="3.82407">
        <ele>140.2</ele>
        <time>2016-05-20T10:31:00Z</time>
      </trkpt>
      <trkpt lat="43.64284" lon="3.82396">
        <ele>140.4</ele>
        <time>2016-05-20T10:31:03Z</time>
      </trkpt>
      <trkpt lat="43.6429" lon="3.82389">
        <ele>140.5</ele>
        <time>2016-05-20T10:31:05Z</time>
      </trkpt>
      <trkpt lat="43.64297" lon="3.82385">
        <ele>140.6</ele>
        <time>2016-05-20T10:31:08Z</time>
      </trkpt>
      <trkpt lat="43.64303" lon="3.82375">
        <ele>140.7</ele>
        <time>2016-05-20T10:31:11Z</time>
      </trkpt>
      <trkpt lat="43.64306" lon="3.82364">
        <ele>140.9</ele>
        <time>2016-05-20T10:31:14Z</time>
      </trkpt>
      <trkpt lat="43.6431" lon="3.82354">
        <ele>141</ele>
        <time>2016-05-20T10:31:16Z</time>
      </trkpt>
      <trkpt lat="43.64315" lon="3.82344">
        <ele>141</ele>
        <time>2016-05-20T10:31:18Z</time>
      </trkpt>
      <trkpt lat="43.6432" lon="3.82335">
        <ele>141</ele>
        <time>2016-05-20T10:31:20Z</time>
      </trkpt>
      <trkpt lat="43.64323" lon="3.82326">
        <ele>141.1</ele>
        <time>2016-05-20T10:31:22Z</time>
      </trkpt>
      <trkpt lat="43.64327" lon="3.82318">
        <ele>141.2</ele>
        <time>2016-05-20T10:31:24Z</time>
      </trkpt>
      <trkpt lat="43.6433" lon="3.82307">
        <ele>141.4</ele>
        <time>2016-05-20T10:31:26Z</time>
      </trkpt>
      <trkpt lat="43.64335" lon="3.82295">
        <ele>141.7</ele>
        <time>2016-05-20T10:31:29Z</time>
      </trkpt>
      <trkpt lat="43.64339" lon="3.82283">
        <ele>141.8</ele>
        <time>2016-05-20T10:31:31Z</time>
      </trkpt>
      <trkpt lat="43.64346" lon="3.82273">
        <ele>142.9</ele>
        <time>2016-05-20T10:31:34Z</time>
      </trkpt>
      <trkpt lat="43.64352" lon="3.82265">
        <ele>143</ele>
        <time>2016-05-20T10:31:36Z</time>
      </trkpt>
      <trkpt lat="43.64359" lon="3.82262">
        <ele>143.4</ele>
        <time>2016-05-20T10:31:38Z</time>
      </trkpt>
      <trkpt lat="43.64367" lon="3.82263">
        <ele>143.4</ele>
        <time>2016-05-20T10:31:40Z</time>
      </trkpt>
      <trkpt lat="43.64369" lon="3.82253">
        <ele>143.5</ele>
        <time>2016-05-20T10:31:44Z</time>
      </trkpt>
      <trkpt lat="43.64364" lon="3.82245">
        <ele>143.4</ele>
        <time>2016-05-20T10:31:48Z</time>
      </trkpt>
      <trkpt lat="43.64364" lon="3.82233">
        <ele>143.5</ele>
        <time>2016-05-20T10:31:51Z</time>
      </trkpt>
      <trkpt lat="43.64363" lon="3.82221">
        <ele>143.5</ele>
        <time>2016-05-20T10:31:54Z</time>
      </trkpt>
      <trkpt lat="43.6436" lon="3.82211">
        <ele>143.6</ele>
        <time>2016-05-20T10:31:57Z</time>
      </trkpt>
      <trkpt lat="43.64353" lon="3.82203">
        <ele>143.8</ele>
        <time>2016-05-20T10:32:01Z</time>
      </trkpt>
      <trkpt lat="43.64348" lon="3.82196">
        <ele>143.9</ele>
        <time>2016-05-20T10:32:04Z</time>
      </trkpt>
      <trkpt lat="43.64347" lon="3.82193">
        <ele>143.7</ele>
        <time>2016-05-20T10:32:11Z</time>
      </trkpt>
      <trkpt lat="43.64345" lon="3.82188">
        <ele>143.4</ele>
        <time>2016-05-20T10:32:18Z</time>
      </trkpt>
      <trkpt lat="43.64341" lon="3.82178">
        <ele>143.4</ele>
        <time>2016-05-20T10:32:24Z</time>
      </trkpt>
      <trkpt lat="43.64337" lon="3.82166">
        <ele>143.6</ele>
        <time>2016-05-20T10:32:27Z</time>
      </trkpt>
      <trkpt lat="43.64334" lon="3.82151">
        <ele>143.9</ele>
        <time>2016-05-20T10:32:31Z</time>
      </trkpt>
      <trkpt lat="43.64335" lon="3.82138">
        <ele>144.1</ele>
        <time>2016-05-20T10:32:33Z</time>
      </trkpt>
      <trkpt lat="43.64335" lon="3.82125">
        <ele>144.6</ele>
        <time>2016-05-20T10:32:36Z</time>
      </trkpt>
      <trkpt lat="43.64335" lon="3.82115">
        <ele>144.9</ele>
        <time>2016-05-20T10:32:38Z</time>
      </trkpt>
      <trkpt lat="43.64336" lon="3.82104">
        <ele>145.1</ele>
        <time>2016-05-20T10:32:40Z</time>
      </trkpt>
      <trkpt lat="43.64338" lon="3.82093">
        <ele>145.4</ele>
        <time>2016-05-20T10:32:43Z</time>
      </trkpt>
      <trkpt lat="43.64339" lon="3.82081">
        <ele>145.8</ele>
        <time>2016-05-20T10:32:46Z</time>
      </trkpt>
      <trkpt lat="43.64344" lon="3.82072">
        <ele>146.2</ele>
        <time>2016-05-20T10:32:49Z</time>
      </trkpt>
      <trkpt lat="43.64349" lon="3.82063">
        <ele>146.8</ele>
        <time>2016-05-20T10:32:52Z</time>
      </trkpt>
      <trkpt lat="43.64354" lon="3.82052">
        <ele>147</ele>
        <time>2016-05-20T10:32:55Z</time>
      </trkpt>
      <trkpt lat="43.64358" lon="3.82042">
        <ele>147.2</ele>
        <time>2016-05-20T10:32:58Z</time>
      </trkpt>
      <trkpt lat="43.64361" lon="3.82033">
        <ele>147.3</ele>
        <time>2016-05-20T10:33:01Z</time>
      </trkpt>
      <trkpt lat="43.64365" lon="3.82023">
        <ele>147.7</ele>
        <time>2016-05-20T10:33:04Z</time>
      </trkpt>
      <trkpt lat="43.64372" lon="3.82012">
        <ele>148</ele>
        <time>2016-05-20T10:33:07Z</time>
      </trkpt>
      <trkpt lat="43.64377" lon="3.82">
        <ele>148.5</ele>
        <time>2016-05-20T10:33:10Z</time>
      </trkpt>
      <trkpt lat="43.64382" lon="3.81989">
        <ele>149</ele>
        <time>2016-05-20T10:33:13Z</time>
      </trkpt>
      <trkpt lat="43.64384" lon="3.81978">
        <ele>149.5</ele>
        <time>2016-05-20T10:33:17Z</time>
      </trkpt>
      <trkpt lat="43.64388" lon="3.81969">
        <ele>150.1</ele>
        <time>2016-05-20T10:33:21Z</time>
      </trkpt>
      <trkpt lat="43.64392" lon="3.8196">
        <ele>150.6</ele>
        <time>2016-05-20T10:33:24Z</time>
      </trkpt>
      <trkpt lat="43.64398" lon="3.81949">
        <ele>151.4</ele>
        <time>2016-05-20T10:33:27Z</time>
      </trkpt>
      <trkpt lat="43.64401" lon="3.81938">
        <ele>152.1</ele>
        <time>2016-05-20T10:33:32Z</time>
      </trkpt>
      <trkpt lat="43.64403" lon="3.81925">
        <ele>153</ele>
        <time>2016-05-20T10:33:37Z</time>
      </trkpt>
      <trkpt lat="43.64406" lon="3.81912">
        <ele>153.6</ele>
        <time>2016-05-20T10:33:41Z</time>
      </trkpt>
      <trkpt lat="43.64409" lon="3.81902">
        <ele>153.9</ele>
        <time>2016-05-20T10:33:44Z</time>
      </trkpt>
      <trkpt lat="43.64411" lon="3.81891">
        <ele>154.6</ele>
        <time>2016-05-20T10:33:49Z</time>
      </trkpt>
      <trkpt lat="43.64411" lon="3.81879">
        <ele>155</ele>
        <time>2016-05-20T10:33:52Z</time>
      </trkpt>
      <trkpt lat="43.64411" lon="3.8187">
        <ele>155.6</ele>
        <time>2016-05-20T10:33:55Z</time>
      </trkpt>
      <trkpt lat="43.64411" lon="3.81857">
        <ele>156.2</ele>
        <time>2016-05-20T10:33:59Z</time>
      </trkpt>
      <trkpt lat="43.64411" lon="3.81847">
        <ele>156.9</ele>
        <time>2016-05-20T10:34:03Z</time>
      </trkpt>
      <trkpt lat="43.64409" lon="3.81837">
        <ele>157.4</ele>
        <time>2016-05-20T10:34:06Z</time>
      </trkpt>
      <trkpt lat="43.64411" lon="3.81822">
        <ele>157.7</ele>
        <time>2016-05-20T10:34:09Z</time>
      </trkpt>
      <trkpt lat="43.64414" lon="3.8181">
        <ele>157.8</ele>
        <time>2016-05-20T10:34:12Z</time>
      </trkpt>
      <trkpt lat="43.64421" lon="3.81799">
        <ele>158.4</ele>
        <time>2016-05-20T10:34:15Z</time>
      </trkpt>
      <trkpt lat="43.64417" lon="3.81789">
        <ele>158.6</ele>
        <time>2016-05-20T10:34:20Z</time>
      </trkpt>
      <trkpt lat="43.64412" lon="3.81779">
        <ele>158.7</ele>
        <time>2016-05-20T10:34:23Z</time>
      </trkpt>
      <trkpt lat="43.64406" lon="3.8177">
        <ele>158.9</ele>
        <time>2016-05-20T10:34:26Z</time>
      </trkpt>
      <trkpt lat="43.64402" lon="3.81762">
        <ele>158.9</ele>
        <time>2016-05-20T10:34:29Z</time>
      </trkpt>
      <trkpt lat="43.64396" lon="3.81753">
        <ele>159.1</ele>
        <time>2016-05-20T10:34:32Z</time>
      </trkpt>
      <trkpt lat="43.64392" lon="3.81744">
        <ele>159.2</ele>
        <time>2016-05-20T10:34:34Z</time>
      </trkpt>
      <trkpt lat="43.64387" lon="3.81735">
        <ele>159.3</ele>
        <time>2016-05-20T10:34:36Z</time>
      </trkpt>
      <trkpt lat="43.64381" lon="3.81724">
        <ele>159.4</ele>
        <time>2016-05-20T10:34:39Z</time>
      </trkpt>
      <trkpt lat="43.64378" lon="3.81715">
        <ele>159.6</ele>
        <time>2016-05-20T10:34:42Z</time>
      </trkpt>
      <trkpt lat="43.64375" lon="3.81705">
        <ele>159.8</ele>
        <time>2016-05-20T10:34:45Z</time>
      </trkpt>
      <trkpt lat="43.64372" lon="3.81694">
        <ele>160</ele>
        <time>2016-05-20T10:34:48Z</time>
      </trkpt>
      <trkpt lat="43.64368" lon="3.81683">
        <ele>160.2</ele>
        <time>2016-05-20T10:34:51Z</time>
      </trkpt>
      <trkpt lat="43.64364" lon="3.81671">
        <ele>160.2</ele>
        <time>2016-05-20T10:34:54Z</time>
      </trkpt>
      <trkpt lat="43.6436" lon="3.81659">
        <ele>160.1</ele>
        <time>2016-05-20T10:34:57Z</time>
      </trkpt>
      <trkpt lat="43.64356" lon="3.81648">
        <ele>160.2</ele>
        <time>2016-05-20T10:35:00Z</time>
      </trkpt>
      <trkpt lat="43.64351" lon="3.81635">
        <ele>160.1</ele>
        <time>2016-05-20T10:35:03Z</time>
      </trkpt>
      <trkpt lat="43.64346" lon="3.81626">
        <ele>160.2</ele>
        <time>2016-05-20T10:35:05Z</time>
      </trkpt>
      <trkpt lat="43.64342" lon="3.81617">
        <ele>160</ele>
        <time>2016-05-20T10:35:07Z</time>
      </trkpt>
      <trkpt lat="43.64339" lon="3.81607">
        <ele>159.9</ele>
        <time>2016-05-20T10:35:09Z</time>
      </trkpt>
      <trkpt lat="43.64335" lon="3.81594">
        <ele>160.1</ele>
        <time>2016-05-20T10:35:12Z</time>
      </trkpt>
      <trkpt lat="43.6433" lon="3.81584">
        <ele>162.2</ele>
        <time>2016-05-20T10:35:15Z</time>
      </trkpt>
      <trkpt lat="43.64327" lon="3.81574">
        <ele>163</ele>
        <time>2016-05-20T10:35:17Z</time>
      </trkpt>
      <trkpt lat="43.64325" lon="3.81562">
        <ele>164.8</ele>
        <time>2016-05-20T10:35:19Z</time>
      </trkpt>
      <trkpt lat="43.64323" lon="3.81551">
        <ele>164.9</ele>
        <time>2016-05-20T10:35:21Z</time>
      </trkpt>
      <trkpt lat="43.64321" lon="3.81539">
        <ele>165.4</ele>
        <time>2016-05-20T10:35:23Z</time>
      </trkpt>
      <trkpt lat="43.64318" lon="3.81526">
        <ele>166.2</ele>
        <time>2016-05-20T10:35:25Z</time>
      </trkpt>
      <trkpt lat="43.64315" lon="3.81512">
        <ele>166.7</ele>
        <time>2016-05-20T10:35:27Z</time>
      </trkpt>
      <trkpt lat="43.64311" lon="3.81498">
        <ele>167.6</ele>
        <time>2016-05-20T10:35:29Z</time>
      </trkpt>
      <trkpt lat="43.64306" lon="3.81481">
        <ele>166.3</ele>
        <time>2016-05-20T10:35:31Z</time>
      </trkpt>
      <trkpt lat="43.64302" lon="3.81466">
        <ele>166.1</ele>
        <time>2016-05-20T10:35:33Z</time>
      </trkpt>
      <trkpt lat="43.64297" lon="3.81451">
        <ele>165.8</ele>
        <time>2016-05-20T10:35:35Z</time>
      </trkpt>
      <trkpt lat="43.64294" lon="3.81437">
        <ele>164.6</ele>
        <time>2016-05-20T10:35:37Z</time>
      </trkpt>
      <trkpt lat="43.64289" lon="3.81424">
        <ele>164.2</ele>
        <time>2016-05-20T10:35:39Z</time>
      </trkpt>
      <trkpt lat="43.64284" lon="3.81409">
        <ele>164.3</ele>
        <time>2016-05-20T10:35:41Z</time>
      </trkpt>
      <trkpt lat="43.64281" lon="3.81399">
        <ele>164.6</ele>
        <time>2016-05-20T10:35:42Z</time>
      </trkpt>
      <trkpt lat="43.64277" lon="3.81389">
        <ele>164.8</ele>
        <time>2016-05-20T10:35:43Z</time>
      </trkpt>
      <trkpt lat="43.64274" lon="3.8138">
        <ele>165.4</ele>
        <time>2016-05-20T10:35:44Z</time>
      </trkpt>
      <trkpt lat="43.64267" lon="3.81362">
        <ele>166.3</ele>
        <time>2016-05-20T10:35:46Z</time>
      </trkpt>
      <trkpt lat="43.64263" lon="3.81353">
        <ele>166.6</ele>
        <time>2016-05-20T10:35:47Z</time>
      </trkpt>
      <trkpt lat="43.64259" lon="3.81343">
        <ele>166.9</ele>
        <time>2016-05-20T10:35:48Z</time>
      </trkpt>
      <trkpt lat="43.64255" lon="3.81335">
        <ele>166.7</ele>
        <time>2016-05-20T10:35:49Z</time>
      </trkpt>
      <trkpt lat="43.64246" lon="3.81319">
        <ele>167.2</ele>
        <time>2016-05-20T10:35:51Z</time>
      </trkpt>
      <trkpt lat="43.64237" lon="3.81306">
        <ele>167.4</ele>
        <time>2016-05-20T10:35:53Z</time>
      </trkpt>
      <trkpt lat="43.64229" lon="3.81294">
        <ele>167</ele>
        <time>2016-05-20T10:35:55Z</time>
      </trkpt>
      <trkpt lat="43.64221" lon="3.81281">
        <ele>166</ele>
        <time>2016-05-20T10:35:57Z</time>
      </trkpt>
      <trkpt lat="43.64217" lon="3.81274">
        <ele>166</ele>
        <time>2016-05-20T10:35:58Z</time>
      </trkpt>
      <trkpt lat="43.64209" lon="3.8126">
        <ele>164.4</ele>
        <time>2016-05-20T10:36:00Z</time>
      </trkpt>
      <trkpt lat="43.64202" lon="3.81246">
        <ele>164</ele>
        <time>2016-05-20T10:36:02Z</time>
      </trkpt>
      <trkpt lat="43.64193" lon="3.81233">
        <ele>164.2</ele>
        <time>2016-05-20T10:36:04Z</time>
      </trkpt>
      <trkpt lat="43.64188" lon="3.81223">
        <ele>165.5</ele>
        <time>2016-05-20T10:36:06Z</time>
      </trkpt>
      <trkpt lat="43.64182" lon="3.81211">
        <ele>167.7</ele>
        <time>2016-05-20T10:36:08Z</time>
      </trkpt>
      <trkpt lat="43.64174" lon="3.81198">
        <ele>168.2</ele>
        <time>2016-05-20T10:36:10Z</time>
      </trkpt>
      <trkpt lat="43.64166" lon="3.81189">
        <ele>167.9</ele>
        <time>2016-05-20T10:36:12Z</time>
      </trkpt>
      <trkpt lat="43.64157" lon="3.8118">
        <ele>167.6</ele>
        <time>2016-05-20T10:36:14Z</time>
      </trkpt>
      <trkpt lat="43.64148" lon="3.81171">
        <ele>166.6</ele>
        <time>2016-05-20T10:36:16Z</time>
      </trkpt>
      <trkpt lat="43.64138" lon="3.81161">
        <ele>167.1</ele>
        <time>2016-05-20T10:36:18Z</time>
      </trkpt>
      <trkpt lat="43.64129" lon="3.81151">
        <ele>167.2</ele>
        <time>2016-05-20T10:36:20Z</time>
      </trkpt>
      <trkpt lat="43.64118" lon="3.81141">
        <ele>167.4</ele>
        <time>2016-05-20T10:36:22Z</time>
      </trkpt>
      <trkpt lat="43.6411" lon="3.8113">
        <ele>167.4</ele>
        <time>2016-05-20T10:36:24Z</time>
      </trkpt>
      <trkpt lat="43.64102" lon="3.81119">
        <ele>166.7</ele>
        <time>2016-05-20T10:36:26Z</time>
      </trkpt>
      <trkpt lat="43.64095" lon="3.8111">
        <ele>165.9</ele>
        <time>2016-05-20T10:36:28Z</time>
      </trkpt>
      <trkpt lat="43.64087" lon="3.811">
        <ele>165.8</ele>
        <time>2016-05-20T10:36:30Z</time>
      </trkpt>
      <trkpt lat="43.64085" lon="3.81087">
        <ele>166</ele>
        <time>2016-05-20T10:36:33Z</time>
      </trkpt>
      <trkpt lat="43.6409" lon="3.81075">
        <ele>165.6</ele>
        <time>2016-05-20T10:36:35Z</time>
      </trkpt>
      <trkpt lat="43.64098" lon="3.8106">
        <ele>164.2</ele>
        <time>2016-05-20T10:36:37Z</time>
      </trkpt>
      <trkpt lat="43.64102" lon="3.81051">
        <ele>163.3</ele>
        <time>2016-05-20T10:36:38Z</time>
      </trkpt>
      <trkpt lat="43.64106" lon="3.81042">
        <ele>162.4</ele>
        <time>2016-05-20T10:36:39Z</time>
      </trkpt>
      <trkpt lat="43.6411" lon="3.81025">
        <ele>161</ele>
        <time>2016-05-20T10:36:41Z</time>
      </trkpt>
      <trkpt lat="43.64113" lon="3.81015">
        <ele>160.3</ele>
        <time>2016-05-20T10:36:42Z</time>
      </trkpt>
      <trkpt lat="43.64118" lon="3.81006">
        <ele>159</ele>
        <time>2016-05-20T10:36:43Z</time>
      </trkpt>
      <trkpt lat="43.64128" lon="3.80993">
        <ele>156.5</ele>
        <time>2016-05-20T10:36:45Z</time>
      </trkpt>
      <trkpt lat="43.64133" lon="3.80986">
        <ele>154.9</ele>
        <time>2016-05-20T10:36:46Z</time>
      </trkpt>
      <trkpt lat="43.64136" lon="3.80977">
        <ele>153.2</ele>
        <time>2016-05-20T10:36:47Z</time>
      </trkpt>
      <trkpt lat="43.64141" lon="3.80968">
        <ele>151.7</ele>
        <time>2016-05-20T10:36:48Z</time>
      </trkpt>
      <trkpt lat="43.64145" lon="3.80959">
        <ele>150.7</ele>
        <time>2016-05-20T10:36:49Z</time>
      </trkpt>
      <trkpt lat="43.64151" lon="3.80949">
        <ele>150.7</ele>
        <time>2016-05-20T10:36:52Z</time>
      </trkpt>
      <trkpt lat="43.64155" lon="3.80939">
        <ele>150.7</ele>
        <time>2016-05-20T10:36:54Z</time>
      </trkpt>
      <trkpt lat="43.6416" lon="3.80933">
        <ele>150.6</ele>
        <time>2016-05-20T10:36:57Z</time>
      </trkpt>
      <trkpt lat="43.64167" lon="3.80927">
        <ele>150.8</ele>
        <time>2016-05-20T10:37:00Z</time>
      </trkpt>
      <trkpt lat="43.64174" lon="3.80917">
        <ele>150.8</ele>
        <time>2016-05-20T10:37:03Z</time>
      </trkpt>
      <trkpt lat="43.64179" lon="3.8091">
        <ele>150.8</ele>
        <time>2016-05-20T10:37:05Z</time>
      </trkpt>
      <trkpt lat="43.64182" lon="3.809">
        <ele>151</ele>
        <time>2016-05-20T10:37:08Z</time>
      </trkpt>
      <trkpt lat="43.6418" lon="3.80891">
        <ele>150.4</ele>
        <time>2016-05-20T10:37:10Z</time>
      </trkpt>
      <trkpt lat="43.64176" lon="3.80881">
        <ele>149.8</ele>
        <time>2016-05-20T10:37:12Z</time>
      </trkpt>
      <trkpt lat="43.6417" lon="3.80864">
        <ele>148.6</ele>
        <time>2016-05-20T10:37:14Z</time>
      </trkpt>
      <trkpt lat="43.64167" lon="3.80846">
        <ele>147.7</ele>
        <time>2016-05-20T10:37:16Z</time>
      </trkpt>
      <trkpt lat="43.64164" lon="3.80828">
        <ele>145.8</ele>
        <time>2016-05-20T10:37:18Z</time>
      </trkpt>
      <trkpt lat="43.64163" lon="3.8081">
        <ele>146</ele>
        <time>2016-05-20T10:37:20Z</time>
      </trkpt>
      <trkpt lat="43.64162" lon="3.80794">
        <ele>145.8</ele>
        <time>2016-05-20T10:37:22Z</time>
      </trkpt>
      <trkpt lat="43.64161" lon="3.80782">
        <ele>145.2</ele>
        <time>2016-05-20T10:37:24Z</time>
      </trkpt>
      <trkpt lat="43.6416" lon="3.80764">
        <ele>143.4</ele>
        <time>2016-05-20T10:37:26Z</time>
      </trkpt>
      <trkpt lat="43.64161" lon="3.80753">
        <ele>142.2</ele>
        <time>2016-05-20T10:37:27Z</time>
      </trkpt>
      <trkpt lat="43.6416" lon="3.80737">
        <ele>140.9</ele>
        <time>2016-05-20T10:37:29Z</time>
      </trkpt>
      <trkpt lat="43.64158" lon="3.80717">
        <ele>139.4</ele>
        <time>2016-05-20T10:37:31Z</time>
      </trkpt>
      <trkpt lat="43.64157" lon="3.80706">
        <ele>139</ele>
        <time>2016-05-20T10:37:32Z</time>
      </trkpt>
      <trkpt lat="43.64155" lon="3.80695">
        <ele>137.6</ele>
        <time>2016-05-20T10:37:33Z</time>
      </trkpt>
      <trkpt lat="43.64153" lon="3.8068">
        <ele>135.9</ele>
        <time>2016-05-20T10:37:34Z</time>
      </trkpt>
      <trkpt lat="43.64151" lon="3.80667">
        <ele>134.4</ele>
        <time>2016-05-20T10:37:35Z</time>
      </trkpt>
      <trkpt lat="43.6415" lon="3.80654">
        <ele>133.1</ele>
        <time>2016-05-20T10:37:36Z</time>
      </trkpt>
      <trkpt lat="43.64149" lon="3.80644">
        <ele>131.3</ele>
        <time>2016-05-20T10:37:37Z</time>
      </trkpt>
      <trkpt lat="43.64144" lon="3.80636">
        <ele>129.8</ele>
        <time>2016-05-20T10:37:39Z</time>
      </trkpt>
      <trkpt lat="43.64143" lon="3.80637">
        <ele>129.6</ele>
        <time>2016-05-20T10:37:46Z</time>
      </trkpt>
      <trkpt lat="43.64136" lon="3.80632">
        <ele>129.5</ele>
        <time>2016-05-20T10:37:57Z</time>
      </trkpt>
      <trkpt lat="43.64131" lon="3.80624">
        <ele>129.6</ele>
        <time>2016-05-20T10:37:59Z</time>
      </trkpt>
      <trkpt lat="43.64123" lon="3.80616">
        <ele>129.2</ele>
        <time>2016-05-20T10:38:02Z</time>
      </trkpt>
      <trkpt lat="43.64115" lon="3.80612">
        <ele>128.5</ele>
        <time>2016-05-20T10:38:05Z</time>
      </trkpt>
      <trkpt lat="43.64105" lon="3.80614">
        <ele>127.8</ele>
        <time>2016-05-20T10:38:09Z</time>
      </trkpt>
      <trkpt lat="43.64096" lon="3.80617">
        <ele>123.9</ele>
        <time>2016-05-20T10:38:11Z</time>
      </trkpt>
      <trkpt lat="43.64087" lon="3.80617">
        <ele>120</ele>
        <time>2016-05-20T10:38:13Z</time>
      </trkpt>
      <trkpt lat="43.64079" lon="3.80617">
        <ele>119.3</ele>
        <time>2016-05-20T10:38:16Z</time>
      </trkpt>
      <trkpt lat="43.6407" lon="3.80615">
        <ele>118</ele>
        <time>2016-05-20T10:38:26Z</time>
      </trkpt>
      <trkpt lat="43.64061" lon="3.8062">
        <ele>115.5</ele>
        <time>2016-05-20T10:38:30Z</time>
      </trkpt>
      <trkpt lat="43.64053" lon="3.80624">
        <ele>115.3</ele>
        <time>2016-05-20T10:38:32Z</time>
      </trkpt>
      <trkpt lat="43.64045" lon="3.80624">
        <ele>114.9</ele>
        <time>2016-05-20T10:38:35Z</time>
      </trkpt>
      <trkpt lat="43.64037" lon="3.80629">
        <ele>114.2</ele>
        <time>2016-05-20T10:38:40Z</time>
      </trkpt>
      <trkpt lat="43.64025" lon="3.80633">
        <ele>113.8</ele>
        <time>2016-05-20T10:38:43Z</time>
      </trkpt>
      <trkpt lat="43.64016" lon="3.80637">
        <ele>110.5</ele>
        <time>2016-05-20T10:38:45Z</time>
      </trkpt>
      <trkpt lat="43.64007" lon="3.80641">
        <ele>108.4</ele>
        <time>2016-05-20T10:38:47Z</time>
      </trkpt>
      <trkpt lat="43.63998" lon="3.80644">
        <ele>108.2</ele>
        <time>2016-05-20T10:38:49Z</time>
      </trkpt>
      <trkpt lat="43.6399" lon="3.80649">
        <ele>106.3</ele>
        <time>2016-05-20T10:38:51Z</time>
      </trkpt>
      <trkpt lat="43.63977" lon="3.80653">
        <ele>104.6</ele>
        <time>2016-05-20T10:38:53Z</time>
      </trkpt>
      <trkpt lat="43.63964" lon="3.80658">
        <ele>102.2</ele>
        <time>2016-05-20T10:38:55Z</time>
      </trkpt>
      <trkpt lat="43.63953" lon="3.80662">
        <ele>99.5</ele>
        <time>2016-05-20T10:38:57Z</time>
      </trkpt>
      <trkpt lat="43.63947" lon="3.80666">
        <ele>99.4</ele>
        <time>2016-05-20T10:38:59Z</time>
      </trkpt>
      <trkpt lat="43.63939" lon="3.8067">
        <ele>96.4</ele>
        <time>2016-05-20T10:39:02Z</time>
      </trkpt>
      <trkpt lat="43.63929" lon="3.80671">
        <ele>94.3</ele>
        <time>2016-05-20T10:39:04Z</time>
      </trkpt>
      <trkpt lat="43.63921" lon="3.80672">
        <ele>94.7</ele>
        <time>2016-05-20T10:39:06Z</time>
      </trkpt>
      <trkpt lat="43.63913" lon="3.80675">
        <ele>94.8</ele>
        <time>2016-05-20T10:39:09Z</time>
      </trkpt>
      <trkpt lat="43.63908" lon="3.80682">
        <ele>95</ele>
        <time>2016-05-20T10:39:12Z</time>
      </trkpt>
      <trkpt lat="43.63906" lon="3.80695">
        <ele>95.1</ele>
        <time>2016-05-20T10:39:15Z</time>
      </trkpt>
      <trkpt lat="43.63903" lon="3.80705">
        <ele>95.3</ele>
        <time>2016-05-20T10:39:18Z</time>
      </trkpt>
      <trkpt lat="43.63896" lon="3.80711">
        <ele>95.1</ele>
        <time>2016-05-20T10:39:20Z</time>
      </trkpt>
      <trkpt lat="43.63889" lon="3.80717">
        <ele>94.9</ele>
        <time>2016-05-20T10:39:23Z</time>
      </trkpt>
      <trkpt lat="43.63884" lon="3.80719">
        <ele>94.6</ele>
        <time>2016-05-20T10:39:30Z</time>
      </trkpt>
      <trkpt lat="43.63865" lon="3.80732">
        <ele>91.3</ele>
        <time>2016-05-20T10:40:19Z</time>
      </trkpt>
      <trkpt lat="43.63858" lon="3.80735">
        <ele>91.4</ele>
        <time>2016-05-20T10:40:25Z</time>
      </trkpt>
      <trkpt lat="43.63853" lon="3.80736">
        <ele>91.4</ele>
        <time>2016-05-20T10:40:32Z</time>
      </trkpt>
      <trkpt lat="43.63846" lon="3.80733">
        <ele>91.4</ele>
        <time>2016-05-20T10:40:43Z</time>
      </trkpt>
      <trkpt lat="43.63838" lon="3.80729">
        <ele>91.3</ele>
        <time>2016-05-20T10:40:48Z</time>
      </trkpt>
      <trkpt lat="43.63829" lon="3.80731">
        <ele>91.2</ele>
        <time>2016-05-20T10:40:52Z</time>
      </trkpt>
      <trkpt lat="43.6382" lon="3.80733">
        <ele>91.2</ele>
        <time>2016-05-20T10:40:56Z</time>
      </trkpt>
      <trkpt lat="43.63811" lon="3.80736">
        <ele>91.2</ele>
        <time>2016-05-20T10:41:00Z</time>
      </trkpt>
      <trkpt lat="43.63801" lon="3.8074">
        <ele>91.2</ele>
        <time>2016-05-20T10:41:03Z</time>
      </trkpt>
      <trkpt lat="43.63792" lon="3.80742">
        <ele>91.3</ele>
        <time>2016-05-20T10:41:06Z</time>
      </trkpt>
      <trkpt lat="43.63789" lon="3.80744">
        <ele>91.5</ele>
        <time>2016-05-20T10:41:13Z</time>
      </trkpt>
      <trkpt lat="43.6379" lon="3.80735">
        <ele>92.1</ele>
        <time>2016-05-20T10:41:20Z</time>
      </trkpt>
      <trkpt lat="43.63786" lon="3.80723">
        <ele>92.5</ele>
        <time>2016-05-20T10:41:24Z</time>
      </trkpt>
      <trkpt lat="43.63785" lon="3.80711">
        <ele>93.1</ele>
        <time>2016-05-20T10:41:28Z</time>
      </trkpt>
      <trkpt lat="43.63782" lon="3.80699">
        <ele>93.9</ele>
        <time>2016-05-20T10:41:32Z</time>
      </trkpt>
      <trkpt lat="43.63777" lon="3.8069">
        <ele>95.7</ele>
        <time>2016-05-20T10:41:38Z</time>
      </trkpt>
      <trkpt lat="43.63771" lon="3.80683">
        <ele>96.7</ele>
        <time>2016-05-20T10:41:42Z</time>
      </trkpt>
      <trkpt lat="43.63766" lon="3.80672">
        <ele>97.8</ele>
        <time>2016-05-20T10:41:46Z</time>
      </trkpt>
      <trkpt lat="43.63763" lon="3.80663">
        <ele>98.5</ele>
        <time>2016-05-20T10:41:50Z</time>
      </trkpt>
      <trkpt lat="43.63758" lon="3.80655">
        <ele>99.3</ele>
        <time>2016-05-20T10:41:55Z</time>
      </trkpt>
      <trkpt lat="43.63754" lon="3.80647">
        <ele>100.1</ele>
        <time>2016-05-20T10:41:59Z</time>
      </trkpt>
      <trkpt lat="43.63747" lon="3.80637">
        <ele>101.1</ele>
        <time>2016-05-20T10:42:04Z</time>
      </trkpt>
      <trkpt lat="43.63742" lon="3.80628">
        <ele>102.7</ele>
        <time>2016-05-20T10:42:09Z</time>
      </trkpt>
      <trkpt lat="43.63738" lon="3.80618">
        <ele>104.3</ele>
        <time>2016-05-20T10:42:14Z</time>
      </trkpt>
      <trkpt lat="43.63735" lon="3.80608">
        <ele>105.9</ele>
        <time>2016-05-20T10:42:19Z</time>
      </trkpt>
      <trkpt lat="43.63731" lon="3.80598">
        <ele>107.5</ele>
        <time>2016-05-20T10:42:24Z</time>
      </trkpt>
      <trkpt lat="43.63726" lon="3.80589">
        <ele>109.5</ele>
        <time>2016-05-20T10:42:30Z</time>
      </trkpt>
      <trkpt lat="43.63723" lon="3.80578">
        <ele>110.9</ele>
        <time>2016-05-20T10:42:34Z</time>
      </trkpt>
      <trkpt lat="43.63718" lon="3.80568">
        <ele>112.8</ele>
        <time>2016-05-20T10:42:40Z</time>
      </trkpt>
      <trkpt lat="43.63715" lon="3.80558">
        <ele>114.3</ele>
        <time>2016-05-20T10:42:45Z</time>
      </trkpt>
      <trkpt lat="43.63712" lon="3.80548">
        <ele>115.5</ele>
        <time>2016-05-20T10:42:50Z</time>
      </trkpt>
      <trkpt lat="43.63712" lon="3.80544">
        <ele>117.6</ele>
        <time>2016-05-20T10:42:57Z</time>
      </trkpt>
      <trkpt lat="43.63709" lon="3.80536">
        <ele>119.6</ele>
        <time>2016-05-20T10:43:04Z</time>
      </trkpt>
      <trkpt lat="43.63706" lon="3.8053">
        <ele>121</ele>
        <time>2016-05-20T10:43:11Z</time>
      </trkpt>
      <trkpt lat="43.63705" lon="3.80528">
        <ele>121.9</ele>
        <time>2016-05-20T10:43:18Z</time>
      </trkpt>
      <trkpt lat="43.63702" lon="3.80522">
        <ele>123</ele>
        <time>2016-05-20T10:43:25Z</time>
      </trkpt>
      <trkpt lat="43.63701" lon="3.80516">
        <ele>124.3</ele>
        <time>2016-05-20T10:43:32Z</time>
      </trkpt>
      <trkpt lat="43.63698" lon="3.80507">
        <ele>125.5</ele>
        <time>2016-05-20T10:43:39Z</time>
      </trkpt>
      <trkpt lat="43.63696" lon="3.805">
        <ele>126.8</ele>
        <time>2016-05-20T10:43:46Z</time>
      </trkpt>
      <trkpt lat="43.63692" lon="3.80491">
        <ele>127.7</ele>
        <time>2016-05-20T10:43:52Z</time>
      </trkpt>
      <trkpt lat="43.6369" lon="3.8049">
        <ele>128.6</ele>
        <time>2016-05-20T10:43:59Z</time>
      </trkpt>
      <trkpt lat="43.63689" lon="3.80482">
        <ele>131.4</ele>
        <time>2016-05-20T10:43:28Z</time>
      </trkpt>
      <trkpt lat="43.63685" lon="3.80473">
        <ele>132.2</ele>
        <time>2016-05-20T10:44:39Z</time>
      </trkpt>
      <trkpt lat="43.63679" lon="3.80465">
        <ele>133</ele>
        <time>2016-05-20T10:44:44Z</time>
      </trkpt>
      <trkpt lat="43.63673" lon="3.80456">
        <ele>133.6</ele>
        <time>2016-05-20T10:44:48Z</time>
      </trkpt>
      <trkpt lat="43.63669" lon="3.80447">
        <ele>134.5</ele>
        <time>2016-05-20T10:44:53Z</time>
      </trkpt>
      <trkpt lat="43.63666" lon="3.80439">
        <ele>135.3</ele>
        <time>2016-05-20T10:44:57Z</time>
      </trkpt>
      <trkpt lat="43.63659" lon="3.80432">
        <ele>136.1</ele>
        <time>2016-05-20T10:45:02Z</time>
      </trkpt>
      <trkpt lat="43.63655" lon="3.80421">
        <ele>137.4</ele>
        <time>2016-05-20T10:45:07Z</time>
      </trkpt>
      <trkpt lat="43.63649" lon="3.80412">
        <ele>138.8</ele>
        <time>2016-05-20T10:45:13Z</time>
      </trkpt>
      <trkpt lat="43.63644" lon="3.80405">
        <ele>140.3</ele>
        <time>2016-05-20T10:45:19Z</time>
      </trkpt>
      <trkpt lat="43.6364" lon="3.80396">
        <ele>141.5</ele>
        <time>2016-05-20T10:45:24Z</time>
      </trkpt>
      <trkpt lat="43.63638" lon="3.80386">
        <ele>142.3</ele>
        <time>2016-05-20T10:45:28Z</time>
      </trkpt>
      <trkpt lat="43.63631" lon="3.80378">
        <ele>142.9</ele>
        <time>2016-05-20T10:45:33Z</time>
      </trkpt>
      <trkpt lat="43.63625" lon="3.80372">
        <ele>144.4</ele>
        <time>2016-05-20T10:45:38Z</time>
      </trkpt>
      <trkpt lat="43.63618" lon="3.80365">
        <ele>146</ele>
        <time>2016-05-20T10:45:44Z</time>
      </trkpt>
      <trkpt lat="43.63612" lon="3.80359">
        <ele>146.9</ele>
        <time>2016-05-20T10:45:49Z</time>
      </trkpt>
      <trkpt lat="43.63607" lon="3.80351">
        <ele>147.5</ele>
        <time>2016-05-20T10:45:53Z</time>
      </trkpt>
      <trkpt lat="43.63602" lon="3.80343">
        <ele>148.2</ele>
        <time>2016-05-20T10:45:57Z</time>
      </trkpt>
      <trkpt lat="43.63596" lon="3.80335">
        <ele>149.1</ele>
        <time>2016-05-20T10:46:02Z</time>
      </trkpt>
      <trkpt lat="43.63595" lon="3.80324">
        <ele>150.6</ele>
        <time>2016-05-20T10:46:08Z</time>
      </trkpt>
      <trkpt lat="43.63596" lon="3.80314">
        <ele>151.3</ele>
        <time>2016-05-20T10:46:12Z</time>
      </trkpt>
      <trkpt lat="43.63597" lon="3.80302">
        <ele>152.3</ele>
        <time>2016-05-20T10:46:16Z</time>
      </trkpt>
      <trkpt lat="43.63598" lon="3.80291">
        <ele>153.4</ele>
        <time>2016-05-20T10:46:21Z</time>
      </trkpt>
      <trkpt lat="43.63599" lon="3.8028">
        <ele>154.3</ele>
        <time>2016-05-20T10:46:25Z</time>
      </trkpt>
      <trkpt lat="43.636" lon="3.8027">
        <ele>154.7</ele>
        <time>2016-05-20T10:46:28Z</time>
      </trkpt>
      <trkpt lat="43.63601" lon="3.80258">
        <ele>155.4</ele>
        <time>2016-05-20T10:46:32Z</time>
      </trkpt>
      <trkpt lat="43.63603" lon="3.80245">
        <ele>155.8</ele>
        <time>2016-05-20T10:46:36Z</time>
      </trkpt>
      <trkpt lat="43.63602" lon="3.80233">
        <ele>156.3</ele>
        <time>2016-05-20T10:46:39Z</time>
      </trkpt>
      <trkpt lat="43.63597" lon="3.80221">
        <ele>156.6</ele>
        <time>2016-05-20T10:46:42Z</time>
      </trkpt>
      <trkpt lat="43.63591" lon="3.80212">
        <ele>156.9</ele>
        <time>2016-05-20T10:46:45Z</time>
      </trkpt>
      <trkpt lat="43.63586" lon="3.80202">
        <ele>157.1</ele>
        <time>2016-05-20T10:46:48Z</time>
      </trkpt>
      <trkpt lat="43.63579" lon="3.80192">
        <ele>157.3</ele>
        <time>2016-05-20T10:46:51Z</time>
      </trkpt>
      <trkpt lat="43.63574" lon="3.80184">
        <ele>157.3</ele>
        <time>2016-05-20T10:46:53Z</time>
      </trkpt>
      <trkpt lat="43.63569" lon="3.80177">
        <ele>157.4</ele>
        <time>2016-05-20T10:46:55Z</time>
      </trkpt>
      <trkpt lat="43.63563" lon="3.80166">
        <ele>157.5</ele>
        <time>2016-05-20T10:46:58Z</time>
      </trkpt>
      <trkpt lat="43.63559" lon="3.80151">
        <ele>158.1</ele>
        <time>2016-05-20T10:47:01Z</time>
      </trkpt>
      <trkpt lat="43.63556" lon="3.80141">
        <ele>158</ele>
        <time>2016-05-20T10:47:03Z</time>
      </trkpt>
      <trkpt lat="43.63552" lon="3.8013">
        <ele>157.3</ele>
        <time>2016-05-20T10:47:05Z</time>
      </trkpt>
      <trkpt lat="43.63547" lon="3.80114">
        <ele>156.9</ele>
        <time>2016-05-20T10:47:07Z</time>
      </trkpt>
      <trkpt lat="43.63547" lon="3.80094">
        <ele>156.3</ele>
        <time>2016-05-20T10:47:09Z</time>
      </trkpt>
      <trkpt lat="43.6355" lon="3.80085">
        <ele>155.9</ele>
        <time>2016-05-20T10:47:10Z</time>
      </trkpt>
      <trkpt lat="43.63559" lon="3.80073">
        <ele>155.8</ele>
        <time>2016-05-20T10:47:12Z</time>
      </trkpt>
      <trkpt lat="43.63566" lon="3.80059">
        <ele>155.7</ele>
        <time>2016-05-20T10:47:14Z</time>
      </trkpt>
      <trkpt lat="43.63572" lon="3.80047">
        <ele>154.6</ele>
        <time>2016-05-20T10:47:16Z</time>
      </trkpt>
      <trkpt lat="43.63577" lon="3.80037">
        <ele>154.7</ele>
        <time>2016-05-20T10:47:18Z</time>
      </trkpt>
      <trkpt lat="43.63581" lon="3.80024">
        <ele>155.3</ele>
        <time>2016-05-20T10:47:20Z</time>
      </trkpt>
      <trkpt lat="43.63585" lon="3.80011">
        <ele>155.4</ele>
        <time>2016-05-20T10:47:23Z</time>
      </trkpt>
      <trkpt lat="43.63591" lon="3.79999">
        <ele>155.2</ele>
        <time>2016-05-20T10:47:26Z</time>
      </trkpt>
      <trkpt lat="43.63595" lon="3.79988">
        <ele>156.5</ele>
        <time>2016-05-20T10:47:28Z</time>
      </trkpt>
      <trkpt lat="43.63601" lon="3.79979">
        <ele>156.6</ele>
        <time>2016-05-20T10:47:31Z</time>
      </trkpt>
      <trkpt lat="43.63607" lon="3.79969">
        <ele>156.7</ele>
        <time>2016-05-20T10:47:33Z</time>
      </trkpt>
      <trkpt lat="43.63613" lon="3.7996">
        <ele>157</ele>
        <time>2016-05-20T10:47:36Z</time>
      </trkpt>
      <trkpt lat="43.63618" lon="3.7995">
        <ele>157.2</ele>
        <time>2016-05-20T10:47:39Z</time>
      </trkpt>
      <trkpt lat="43.63625" lon="3.79941">
        <ele>157.3</ele>
        <time>2016-05-20T10:47:42Z</time>
      </trkpt>
      <trkpt lat="43.63631" lon="3.79935">
        <ele>157.6</ele>
        <time>2016-05-20T10:47:45Z</time>
      </trkpt>
      <trkpt lat="43.63639" lon="3.79922">
        <ele>157.8</ele>
        <time>2016-05-20T10:47:48Z</time>
      </trkpt>
      <trkpt lat="43.63644" lon="3.79913">
        <ele>158.1</ele>
        <time>2016-05-20T10:47:51Z</time>
      </trkpt>
      <trkpt lat="43.6365" lon="3.79902">
        <ele>158.5</ele>
        <time>2016-05-20T10:47:54Z</time>
      </trkpt>
      <trkpt lat="43.63656" lon="3.79894">
        <ele>158.7</ele>
        <time>2016-05-20T10:47:57Z</time>
      </trkpt>
      <trkpt lat="43.63661" lon="3.79884">
        <ele>159.1</ele>
        <time>2016-05-20T10:48:00Z</time>
      </trkpt>
      <trkpt lat="43.63667" lon="3.79875">
        <ele>159.3</ele>
        <time>2016-05-20T10:48:03Z</time>
      </trkpt>
      <trkpt lat="43.63673" lon="3.79865">
        <ele>159.4</ele>
        <time>2016-05-20T10:48:06Z</time>
      </trkpt>
      <trkpt lat="43.63679" lon="3.79852">
        <ele>159.5</ele>
        <time>2016-05-20T10:48:09Z</time>
      </trkpt>
      <trkpt lat="43.63684" lon="3.79841">
        <ele>159.7</ele>
        <time>2016-05-20T10:48:12Z</time>
      </trkpt>
      <trkpt lat="43.63691" lon="3.79832">
        <ele>160</ele>
        <time>2016-05-20T10:48:15Z</time>
      </trkpt>
      <trkpt lat="43.63698" lon="3.79824">
        <ele>161</ele>
        <time>2016-05-20T10:48:17Z</time>
      </trkpt>
      <trkpt lat="43.63704" lon="3.79817">
        <ele>161.1</ele>
        <time>2016-05-20T10:48:19Z</time>
      </trkpt>
      <trkpt lat="43.63708" lon="3.79806">
        <ele>161.4</ele>
        <time>2016-05-20T10:48:22Z</time>
      </trkpt>
      <trkpt lat="43.63711" lon="3.79797">
        <ele>161.5</ele>
        <time>2016-05-20T10:48:24Z</time>
      </trkpt>
      <trkpt lat="43.63715" lon="3.79788">
        <ele>161.7</ele>
        <time>2016-05-20T10:48:26Z</time>
      </trkpt>
      <trkpt lat="43.63721" lon="3.79776">
        <ele>162.1</ele>
        <time>2016-05-20T10:48:29Z</time>
      </trkpt>
      <trkpt lat="43.63728" lon="3.79764">
        <ele>162.4</ele>
        <time>2016-05-20T10:48:32Z</time>
      </trkpt>
      <trkpt lat="43.63734" lon="3.79757">
        <ele>162.7</ele>
        <time>2016-05-20T10:48:34Z</time>
      </trkpt>
      <trkpt lat="43.63741" lon="3.79749">
        <ele>162.8</ele>
        <time>2016-05-20T10:48:37Z</time>
      </trkpt>
      <trkpt lat="43.63747" lon="3.79742">
        <ele>162.9</ele>
        <time>2016-05-20T10:48:39Z</time>
      </trkpt>
      <trkpt lat="43.63753" lon="3.79736">
        <ele>163</ele>
        <time>2016-05-20T10:48:41Z</time>
      </trkpt>
      <trkpt lat="43.63761" lon="3.79731">
        <ele>163.7</ele>
        <time>2016-05-20T10:48:44Z</time>
      </trkpt>
      <trkpt lat="43.63767" lon="3.79726">
        <ele>163.9</ele>
        <time>2016-05-20T10:48:46Z</time>
      </trkpt>
      <trkpt lat="43.63776" lon="3.79722">
        <ele>164.2</ele>
        <time>2016-05-20T10:48:48Z</time>
      </trkpt>
      <trkpt lat="43.63783" lon="3.79717">
        <ele>164.3</ele>
        <time>2016-05-20T10:48:50Z</time>
      </trkpt>
      <trkpt lat="43.63792" lon="3.79711">
        <ele>166</ele>
        <time>2016-05-20T10:48:52Z</time>
      </trkpt>
      <trkpt lat="43.63801" lon="3.79702">
        <ele>166.3</ele>
        <time>2016-05-20T10:48:54Z</time>
      </trkpt>
      <trkpt lat="43.63808" lon="3.79696">
        <ele>166.2</ele>
        <time>2016-05-20T10:48:56Z</time>
      </trkpt>
      <trkpt lat="43.63819" lon="3.79688">
        <ele>165.8</ele>
        <time>2016-05-20T10:48:58Z</time>
      </trkpt>
      <trkpt lat="43.63828" lon="3.7968">
        <ele>166.1</ele>
        <time>2016-05-20T10:49:00Z</time>
      </trkpt>
      <trkpt lat="43.63836" lon="3.79673">
        <ele>165.9</ele>
        <time>2016-05-20T10:49:02Z</time>
      </trkpt>
      <trkpt lat="43.63845" lon="3.79668">
        <ele>166</ele>
        <time>2016-05-20T10:49:04Z</time>
      </trkpt>
      <trkpt lat="43.63854" lon="3.79668">
        <ele>166.6</ele>
        <time>2016-05-20T10:49:07Z</time>
      </trkpt>
      <trkpt lat="43.6386" lon="3.79661">
        <ele>166.7</ele>
        <time>2016-05-20T10:49:12Z</time>
      </trkpt>
      <trkpt lat="43.63868" lon="3.79658">
        <ele>166.7</ele>
        <time>2016-05-20T10:49:16Z</time>
      </trkpt>
      <trkpt lat="43.63876" lon="3.79657">
        <ele>166.7</ele>
        <time>2016-05-20T10:49:20Z</time>
      </trkpt>
      <trkpt lat="43.63883" lon="3.79653">
        <ele>166.6</ele>
        <time>2016-05-20T10:49:23Z</time>
      </trkpt>
      <trkpt lat="43.63889" lon="3.79644">
        <ele>166</ele>
        <time>2016-05-20T10:49:25Z</time>
      </trkpt>
      <trkpt lat="43.63895" lon="3.79634">
        <ele>164.8</ele>
        <time>2016-05-20T10:49:27Z</time>
      </trkpt>
      <trkpt lat="43.63901" lon="3.79625">
        <ele>163.9</ele>
        <time>2016-05-20T10:49:29Z</time>
      </trkpt>
      <trkpt lat="43.63906" lon="3.79617">
        <ele>163.8</ele>
        <time>2016-05-20T10:49:31Z</time>
      </trkpt>
      <trkpt lat="43.63911" lon="3.79607">
        <ele>163.6</ele>
        <time>2016-05-20T10:49:33Z</time>
      </trkpt>
      <trkpt lat="43.63915" lon="3.79597">
        <ele>163.7</ele>
        <time>2016-05-20T10:49:35Z</time>
      </trkpt>
      <trkpt lat="43.63919" lon="3.79588">
        <ele>163.6</ele>
        <time>2016-05-20T10:49:37Z</time>
      </trkpt>
      <trkpt lat="43.63925" lon="3.79575">
        <ele>163.5</ele>
        <time>2016-05-20T10:49:40Z</time>
      </trkpt>
      <trkpt lat="43.6393" lon="3.79563">
        <ele>163.7</ele>
        <time>2016-05-20T10:49:43Z</time>
      </trkpt>
      <trkpt lat="43.63935" lon="3.7955">
        <ele>163.1</ele>
        <time>2016-05-20T10:49:46Z</time>
      </trkpt>
      <trkpt lat="43.63939" lon="3.79539">
        <ele>163.2</ele>
        <time>2016-05-20T10:49:48Z</time>
      </trkpt>
      <trkpt lat="43.63942" lon="3.79528">
        <ele>163.1</ele>
        <time>2016-05-20T10:49:50Z</time>
      </trkpt>
      <trkpt lat="43.63943" lon="3.79517">
        <ele>162.4</ele>
        <time>2016-05-20T10:49:52Z</time>
      </trkpt>
      <trkpt lat="43.63944" lon="3.79508">
        <ele>162.4</ele>
        <time>2016-05-20T10:49:54Z</time>
      </trkpt>
      <trkpt lat="43.63948" lon="3.79499">
        <ele>162.5</ele>
        <time>2016-05-20T10:49:56Z</time>
      </trkpt>
      <trkpt lat="43.63953" lon="3.79487">
        <ele>162.7</ele>
        <time>2016-05-20T10:49:59Z</time>
      </trkpt>
      <trkpt lat="43.63957" lon="3.79475">
        <ele>162.9</ele>
        <time>2016-05-20T10:50:01Z</time>
      </trkpt>
      <trkpt lat="43.6396" lon="3.79465">
        <ele>163.1</ele>
        <time>2016-05-20T10:50:03Z</time>
      </trkpt>
      <trkpt lat="43.63962" lon="3.79453">
        <ele>163.6</ele>
        <time>2016-05-20T10:50:06Z</time>
      </trkpt>
      <trkpt lat="43.63962" lon="3.79439">
        <ele>164.8</ele>
        <time>2016-05-20T10:50:09Z</time>
      </trkpt>
      <trkpt lat="43.63968" lon="3.79428">
        <ele>165.2</ele>
        <time>2016-05-20T10:50:12Z</time>
      </trkpt>
      <trkpt lat="43.63973" lon="3.79416">
        <ele>165.9</ele>
        <time>2016-05-20T10:50:14Z</time>
      </trkpt>
      <trkpt lat="43.63978" lon="3.79407">
        <ele>166.4</ele>
        <time>2016-05-20T10:50:16Z</time>
      </trkpt>
      <trkpt lat="43.63984" lon="3.79394">
        <ele>167.1</ele>
        <time>2016-05-20T10:50:19Z</time>
      </trkpt>
      <trkpt lat="43.63989" lon="3.79384">
        <ele>167.2</ele>
        <time>2016-05-20T10:50:21Z</time>
      </trkpt>
      <trkpt lat="43.63995" lon="3.79374">
        <ele>168.9</ele>
        <time>2016-05-20T10:50:23Z</time>
      </trkpt>
      <trkpt lat="43.64002" lon="3.79362">
        <ele>169.7</ele>
        <time>2016-05-20T10:50:25Z</time>
      </trkpt>
      <trkpt lat="43.64009" lon="3.79349">
        <ele>169.7</ele>
        <time>2016-05-20T10:50:27Z</time>
      </trkpt>
      <trkpt lat="43.64014" lon="3.79337">
        <ele>169.3</ele>
        <time>2016-05-20T10:50:29Z</time>
      </trkpt>
      <trkpt lat="43.6402" lon="3.79325">
        <ele>169.7</ele>
        <time>2016-05-20T10:50:31Z</time>
      </trkpt>
      <trkpt lat="43.64028" lon="3.79314">
        <ele>170.8</ele>
        <time>2016-05-20T10:50:33Z</time>
      </trkpt>
      <trkpt lat="43.64034" lon="3.79303">
        <ele>171.6</ele>
        <time>2016-05-20T10:50:35Z</time>
      </trkpt>
      <trkpt lat="43.64039" lon="3.79292">
        <ele>171.7</ele>
        <time>2016-05-20T10:50:37Z</time>
      </trkpt>
      <trkpt lat="43.64043" lon="3.79282">
        <ele>170.7</ele>
        <time>2016-05-20T10:50:39Z</time>
      </trkpt>
      <trkpt lat="43.64048" lon="3.79273">
        <ele>168.8</ele>
        <time>2016-05-20T10:50:41Z</time>
      </trkpt>
      <trkpt lat="43.64054" lon="3.79261">
        <ele>168.6</ele>
        <time>2016-05-20T10:50:43Z</time>
      </trkpt>
      <trkpt lat="43.6406" lon="3.79247">
        <ele>170</ele>
        <time>2016-05-20T10:50:45Z</time>
      </trkpt>
      <trkpt lat="43.64071" lon="3.79236">
        <ele>171.5</ele>
        <time>2016-05-20T10:50:47Z</time>
      </trkpt>
      <trkpt lat="43.64082" lon="3.79225">
        <ele>171.6</ele>
        <time>2016-05-20T10:50:49Z</time>
      </trkpt>
      <trkpt lat="43.64095" lon="3.79213">
        <ele>171.2</ele>
        <time>2016-05-20T10:50:51Z</time>
      </trkpt>
      <trkpt lat="43.64101" lon="3.79208">
        <ele>170.9</ele>
        <time>2016-05-20T10:50:52Z</time>
      </trkpt>
      <trkpt lat="43.64113" lon="3.79198">
        <ele>170.4</ele>
        <time>2016-05-20T10:50:54Z</time>
      </trkpt>
      <trkpt lat="43.64124" lon="3.79188">
        <ele>169.2</ele>
        <time>2016-05-20T10:50:56Z</time>
      </trkpt>
      <trkpt lat="43.64133" lon="3.79178">
        <ele>168.6</ele>
        <time>2016-05-20T10:50:58Z</time>
      </trkpt>
      <trkpt lat="43.64143" lon="3.79168">
        <ele>167.5</ele>
        <time>2016-05-20T10:51:00Z</time>
      </trkpt>
      <trkpt lat="43.64154" lon="3.79158">
        <ele>165.4</ele>
        <time>2016-05-20T10:51:02Z</time>
      </trkpt>
      <trkpt lat="43.64162" lon="3.79149">
        <ele>164.9</ele>
        <time>2016-05-20T10:51:04Z</time>
      </trkpt>
      <trkpt lat="43.64171" lon="3.7914">
        <ele>166.1</ele>
        <time>2016-05-20T10:51:06Z</time>
      </trkpt>
      <trkpt lat="43.64179" lon="3.79127">
        <ele>166.2</ele>
        <time>2016-05-20T10:51:09Z</time>
      </trkpt>
      <trkpt lat="43.64184" lon="3.79118">
        <ele>166.8</ele>
        <time>2016-05-20T10:51:11Z</time>
      </trkpt>
      <trkpt lat="43.64188" lon="3.79108">
        <ele>168.6</ele>
        <time>2016-05-20T10:51:13Z</time>
      </trkpt>
      <trkpt lat="43.64195" lon="3.79097">
        <ele>169.3</ele>
        <time>2016-05-20T10:51:16Z</time>
      </trkpt>
      <trkpt lat="43.64198" lon="3.79088">
        <ele>169.7</ele>
        <time>2016-05-20T10:51:18Z</time>
      </trkpt>
      <trkpt lat="43.64201" lon="3.79077">
        <ele>170</ele>
        <time>2016-05-20T10:51:20Z</time>
      </trkpt>
      <trkpt lat="43.64205" lon="3.79064">
        <ele>170.8</ele>
        <time>2016-05-20T10:51:22Z</time>
      </trkpt>
      <trkpt lat="43.6421" lon="3.79054">
        <ele>171.4</ele>
        <time>2016-05-20T10:51:24Z</time>
      </trkpt>
      <trkpt lat="43.64217" lon="3.79046">
        <ele>171.9</ele>
        <time>2016-05-20T10:51:26Z</time>
      </trkpt>
      <trkpt lat="43.64225" lon="3.79039">
        <ele>171.4</ele>
        <time>2016-05-20T10:51:28Z</time>
      </trkpt>
      <trkpt lat="43.64232" lon="3.79033">
        <ele>171.4</ele>
        <time>2016-05-20T10:51:30Z</time>
      </trkpt>
      <trkpt lat="43.64238" lon="3.79027">
        <ele>172.1</ele>
        <time>2016-05-20T10:51:32Z</time>
      </trkpt>
      <trkpt lat="43.64244" lon="3.79018">
        <ele>172.1</ele>
        <time>2016-05-20T10:51:34Z</time>
      </trkpt>
      <trkpt lat="43.64251" lon="3.79014">
        <ele>172.2</ele>
        <time>2016-05-20T10:51:38Z</time>
      </trkpt>
      <trkpt lat="43.64259" lon="3.79019">
        <ele>172.3</ele>
        <time>2016-05-20T10:51:41Z</time>
      </trkpt>
      <trkpt lat="43.64265" lon="3.79032">
        <ele>172.8</ele>
        <time>2016-05-20T10:51:44Z</time>
      </trkpt>
      <trkpt lat="43.64267" lon="3.79045">
        <ele>173.3</ele>
        <time>2016-05-20T10:51:46Z</time>
      </trkpt>
      <trkpt lat="43.64273" lon="3.79058">
        <ele>173.6</ele>
        <time>2016-05-20T10:51:48Z</time>
      </trkpt>
      <trkpt lat="43.64278" lon="3.79071">
        <ele>172.7</ele>
        <time>2016-05-20T10:51:50Z</time>
      </trkpt>
      <trkpt lat="43.64281" lon="3.79085">
        <ele>173</ele>
        <time>2016-05-20T10:51:52Z</time>
      </trkpt>
      <trkpt lat="43.64283" lon="3.79097">
        <ele>172.8</ele>
        <time>2016-05-20T10:51:54Z</time>
      </trkpt>
      <trkpt lat="43.64285" lon="3.7911">
        <ele>171.7</ele>
        <time>2016-05-20T10:51:56Z</time>
      </trkpt>
      <trkpt lat="43.64287" lon="3.79123">
        <ele>169.5</ele>
        <time>2016-05-20T10:51:58Z</time>
      </trkpt>
      <trkpt lat="43.64287" lon="3.79137">
        <ele>168.4</ele>
        <time>2016-05-20T10:52:00Z</time>
      </trkpt>
      <trkpt lat="43.64286" lon="3.79149">
        <ele>167.6</ele>
        <time>2016-05-20T10:52:02Z</time>
      </trkpt>
      <trkpt lat="43.64285" lon="3.79163">
        <ele>167.1</ele>
        <time>2016-05-20T10:52:04Z</time>
      </trkpt>
      <trkpt lat="43.64284" lon="3.79176">
        <ele>167.1</ele>
        <time>2016-05-20T10:52:06Z</time>
      </trkpt>
      <trkpt lat="43.64284" lon="3.79188">
        <ele>168.4</ele>
        <time>2016-05-20T10:52:08Z</time>
      </trkpt>
      <trkpt lat="43.64285" lon="3.792">
        <ele>168.6</ele>
        <time>2016-05-20T10:52:11Z</time>
      </trkpt>
      <trkpt lat="43.64288" lon="3.79211">
        <ele>168.9</ele>
        <time>2016-05-20T10:52:16Z</time>
      </trkpt>
      <trkpt lat="43.64291" lon="3.79221">
        <ele>169.5</ele>
        <time>2016-05-20T10:52:21Z</time>
      </trkpt>
      <trkpt lat="43.64293" lon="3.79232">
        <ele>169.7</ele>
        <time>2016-05-20T10:52:25Z</time>
      </trkpt>
      <trkpt lat="43.64293" lon="3.79242">
        <ele>169.7</ele>
        <time>2016-05-20T10:52:28Z</time>
      </trkpt>
      <trkpt lat="43.64293" lon="3.79256">
        <ele>169.7</ele>
        <time>2016-05-20T10:52:32Z</time>
      </trkpt>
      <trkpt lat="43.64295" lon="3.79268">
        <ele>169.4</ele>
        <time>2016-05-20T10:52:35Z</time>
      </trkpt>
      <trkpt lat="43.64299" lon="3.79279">
        <ele>168.9</ele>
        <time>2016-05-20T10:52:39Z</time>
      </trkpt>
      <trkpt lat="43.64304" lon="3.79287">
        <ele>168.4</ele>
        <time>2016-05-20T10:52:45Z</time>
      </trkpt>
      <trkpt lat="43.64314" lon="3.79288">
        <ele>166.3</ele>
        <time>2016-05-20T10:52:47Z</time>
      </trkpt>
      <trkpt lat="43.64325" lon="3.7929">
        <ele>165</ele>
        <time>2016-05-20T10:52:49Z</time>
      </trkpt>
      <trkpt lat="43.64332" lon="3.79294">
        <ele>164.2</ele>
        <time>2016-05-20T10:52:50Z</time>
      </trkpt>
      <trkpt lat="43.64338" lon="3.79302">
        <ele>164.1</ele>
        <time>2016-05-20T10:52:51Z</time>
      </trkpt>
      <trkpt lat="43.64338" lon="3.79312">
        <ele>161.5</ele>
        <time>2016-05-20T10:52:52Z</time>
      </trkpt>
      <trkpt lat="43.64343" lon="3.79327">
        <ele>161.1</ele>
        <time>2016-05-20T10:52:54Z</time>
      </trkpt>
      <trkpt lat="43.64344" lon="3.79339">
        <ele>160.6</ele>
        <time>2016-05-20T10:52:56Z</time>
      </trkpt>
      <trkpt lat="43.64348" lon="3.79351">
        <ele>156.6</ele>
        <time>2016-05-20T10:52:59Z</time>
      </trkpt>
      <trkpt lat="43.64354" lon="3.79363">
        <ele>153.3</ele>
        <time>2016-05-20T10:53:01Z</time>
      </trkpt>
      <trkpt lat="43.64359" lon="3.79376">
        <ele>148.7</ele>
        <time>2016-05-20T10:53:03Z</time>
      </trkpt>
      <trkpt lat="43.64364" lon="3.79384">
        <ele>148.3</ele>
        <time>2016-05-20T10:53:05Z</time>
      </trkpt>
      <trkpt lat="43.64372" lon="3.79389">
        <ele>146.2</ele>
        <time>2016-05-20T10:53:07Z</time>
      </trkpt>
      <trkpt lat="43.6438" lon="3.79394">
        <ele>143.4</ele>
        <time>2016-05-20T10:53:09Z</time>
      </trkpt>
      <trkpt lat="43.64389" lon="3.79394">
        <ele>141.3</ele>
        <time>2016-05-20T10:53:11Z</time>
      </trkpt>
      <trkpt lat="43.64398" lon="3.79394">
        <ele>140.8</ele>
        <time>2016-05-20T10:53:13Z</time>
      </trkpt>
      <trkpt lat="43.64401" lon="3.79394">
        <ele>140.5</ele>
        <time>2016-05-20T10:53:20Z</time>
      </trkpt>
      <trkpt lat="43.64406" lon="3.79404">
        <ele>140.3</ele>
        <time>2016-05-20T10:53:41Z</time>
      </trkpt>
      <trkpt lat="43.64404" lon="3.79417">
        <ele>140.2</ele>
        <time>2016-05-20T10:53:45Z</time>
      </trkpt>
      <trkpt lat="43.64399" lon="3.79425">
        <ele>140.1</ele>
        <time>2016-05-20T10:53:47Z</time>
      </trkpt>
      <trkpt lat="43.64394" lon="3.79434">
        <ele>139.9</ele>
        <time>2016-05-20T10:53:50Z</time>
      </trkpt>
      <trkpt lat="43.64399" lon="3.79442">
        <ele>139</ele>
        <time>2016-05-20T10:53:57Z</time>
      </trkpt>
      <trkpt lat="43.64408" lon="3.79446">
        <ele>138.2</ele>
        <time>2016-05-20T10:54:01Z</time>
      </trkpt>
      <trkpt lat="43.64417" lon="3.79443">
        <ele>137.2</ele>
        <time>2016-05-20T10:54:05Z</time>
      </trkpt>
      <trkpt lat="43.64426" lon="3.79445">
        <ele>136.2</ele>
        <time>2016-05-20T10:54:09Z</time>
      </trkpt>
      <trkpt lat="43.64434" lon="3.79443">
        <ele>135.3</ele>
        <time>2016-05-20T10:54:13Z</time>
      </trkpt>
      <trkpt lat="43.64443" lon="3.7944">
        <ele>134.4</ele>
        <time>2016-05-20T10:54:16Z</time>
      </trkpt>
      <trkpt lat="43.64451" lon="3.79438">
        <ele>133.1</ele>
        <time>2016-05-20T10:54:20Z</time>
      </trkpt>
      <trkpt lat="43.6446" lon="3.79438">
        <ele>132.2</ele>
        <time>2016-05-20T10:54:23Z</time>
      </trkpt>
      <trkpt lat="43.64464" lon="3.7944">
        <ele>131.2</ele>
        <time>2016-05-20T10:54:30Z</time>
      </trkpt>
      <trkpt lat="43.6447" lon="3.79442">
        <ele>130.9</ele>
        <time>2016-05-20T10:54:40Z</time>
      </trkpt>
      <trkpt lat="43.64479" lon="3.79442">
        <ele>129.9</ele>
        <time>2016-05-20T10:54:50Z</time>
      </trkpt>
      <trkpt lat="43.64487" lon="3.79438">
        <ele>128.8</ele>
        <time>2016-05-20T10:54:54Z</time>
      </trkpt>
      <trkpt lat="43.64495" lon="3.79438">
        <ele>127.8</ele>
        <time>2016-05-20T10:54:57Z</time>
      </trkpt>
      <trkpt lat="43.64506" lon="3.79433">
        <ele>126.7</ele>
        <time>2016-05-20T10:55:00Z</time>
      </trkpt>
      <trkpt lat="43.64514" lon="3.79431">
        <ele>125.6</ele>
        <time>2016-05-20T10:55:03Z</time>
      </trkpt>
      <trkpt lat="43.64526" lon="3.79428">
        <ele>120.5</ele>
        <time>2016-05-20T10:55:06Z</time>
      </trkpt>
      <trkpt lat="43.64535" lon="3.79429">
        <ele>119.8</ele>
        <time>2016-05-20T10:55:08Z</time>
      </trkpt>
      <trkpt lat="43.64543" lon="3.79431">
        <ele>116.1</ele>
        <time>2016-05-20T10:55:10Z</time>
      </trkpt>
      <trkpt lat="43.64552" lon="3.79428">
        <ele>110.1</ele>
        <time>2016-05-20T10:55:12Z</time>
      </trkpt>
      <trkpt lat="43.64561" lon="3.79424">
        <ele>108.2</ele>
        <time>2016-05-20T10:55:14Z</time>
      </trkpt>
      <trkpt lat="43.64571" lon="3.79427">
        <ele>107.8</ele>
        <time>2016-05-20T10:55:16Z</time>
      </trkpt>
      <trkpt lat="43.64578" lon="3.79432">
        <ele>107.7</ele>
        <time>2016-05-20T10:55:18Z</time>
      </trkpt>
      <trkpt lat="43.64593" lon="3.79435">
        <ele>106.9</ele>
        <time>2016-05-20T10:55:25Z</time>
      </trkpt>
      <trkpt lat="43.64599" lon="3.79427">
        <ele>106.1</ele>
        <time>2016-05-20T10:55:30Z</time>
      </trkpt>
      <trkpt lat="43.64606" lon="3.79418">
        <ele>105.7</ele>
        <time>2016-05-20T10:55:34Z</time>
      </trkpt>
      <trkpt lat="43.64612" lon="3.79408">
        <ele>105.6</ele>
        <time>2016-05-20T10:55:39Z</time>
      </trkpt>
      <trkpt lat="43.64617" lon="3.794">
        <ele>105.7</ele>
        <time>2016-05-20T10:55:42Z</time>
      </trkpt>
      <trkpt lat="43.64622" lon="3.79392">
        <ele>105.9</ele>
        <time>2016-05-20T10:55:45Z</time>
      </trkpt>
      <trkpt lat="43.6463" lon="3.79383">
        <ele>105.8</ele>
        <time>2016-05-20T10:55:48Z</time>
      </trkpt>
      <trkpt lat="43.64633" lon="3.79372">
        <ele>105.7</ele>
        <time>2016-05-20T10:55:51Z</time>
      </trkpt>
      <trkpt lat="43.64637" lon="3.7936">
        <ele>105.7</ele>
        <time>2016-05-20T10:55:54Z</time>
      </trkpt>
      <trkpt lat="43.64643" lon="3.79349">
        <ele>105.7</ele>
        <time>2016-05-20T10:55:57Z</time>
      </trkpt>
      <trkpt lat="43.64646" lon="3.79338">
        <ele>105.7</ele>
        <time>2016-05-20T10:56:00Z</time>
      </trkpt>
      <trkpt lat="43.64648" lon="3.79328">
        <ele>105.7</ele>
        <time>2016-05-20T10:56:03Z</time>
      </trkpt>
      <trkpt lat="43.64651" lon="3.79315">
        <ele>106</ele>
        <time>2016-05-20T10:56:06Z</time>
      </trkpt>
      <trkpt lat="43.64655" lon="3.79302">
        <ele>106.2</ele>
        <time>2016-05-20T10:56:09Z</time>
      </trkpt>
      <trkpt lat="43.64659" lon="3.79287">
        <ele>106.5</ele>
        <time>2016-05-20T10:56:12Z</time>
      </trkpt>
      <trkpt lat="43.64665" lon="3.7928">
        <ele>106.8</ele>
        <time>2016-05-20T10:56:15Z</time>
      </trkpt>
      <trkpt lat="43.64674" lon="3.7928">
        <ele>106.8</ele>
        <time>2016-05-20T10:56:18Z</time>
      </trkpt>
      <trkpt lat="43.64683" lon="3.79273">
        <ele>106.9</ele>
        <time>2016-05-20T10:56:22Z</time>
      </trkpt>
      <trkpt lat="43.64689" lon="3.79264">
        <ele>107</ele>
        <time>2016-05-20T10:56:25Z</time>
      </trkpt>
      <trkpt lat="43.64694" lon="3.79256">
        <ele>106.7</ele>
        <time>2016-05-20T10:56:28Z</time>
      </trkpt>
      <trkpt lat="43.647" lon="3.79246">
        <ele>106.6</ele>
        <time>2016-05-20T10:56:31Z</time>
      </trkpt>
      <trkpt lat="43.64703" lon="3.79236">
        <ele>106.5</ele>
        <time>2016-05-20T10:56:34Z</time>
      </trkpt>
      <trkpt lat="43.64705" lon="3.79224">
        <ele>106.6</ele>
        <time>2016-05-20T10:56:37Z</time>
      </trkpt>
      <trkpt lat="43.64706" lon="3.79214">
        <ele>106.8</ele>
        <time>2016-05-20T10:56:40Z</time>
      </trkpt>
      <trkpt lat="43.64706" lon="3.79201">
        <ele>107.3</ele>
        <time>2016-05-20T10:56:44Z</time>
      </trkpt>
      <trkpt lat="43.64711" lon="3.79191">
        <ele>108.1</ele>
        <time>2016-05-20T10:56:47Z</time>
      </trkpt>
      <trkpt lat="43.64718" lon="3.79182">
        <ele>109.1</ele>
        <time>2016-05-20T10:56:50Z</time>
      </trkpt>
      <trkpt lat="43.64726" lon="3.79173">
        <ele>109.9</ele>
        <time>2016-05-20T10:56:53Z</time>
      </trkpt>
      <trkpt lat="43.64736" lon="3.79164">
        <ele>110.5</ele>
        <time>2016-05-20T10:56:56Z</time>
      </trkpt>
      <trkpt lat="43.64745" lon="3.79158">
        <ele>110.9</ele>
        <time>2016-05-20T10:56:59Z</time>
      </trkpt>
      <trkpt lat="43.64754" lon="3.79149">
        <ele>111.4</ele>
        <time>2016-05-20T10:57:02Z</time>
      </trkpt>
      <trkpt lat="43.6476" lon="3.79141">
        <ele>112</ele>
        <time>2016-05-20T10:57:05Z</time>
      </trkpt>
      <trkpt lat="43.64765" lon="3.79133">
        <ele>112.6</ele>
        <time>2016-05-20T10:57:09Z</time>
      </trkpt>
      <trkpt lat="43.6477" lon="3.79125">
        <ele>112.9</ele>
        <time>2016-05-20T10:57:13Z</time>
      </trkpt>
      <trkpt lat="43.64779" lon="3.7912">
        <ele>113.1</ele>
        <time>2016-05-20T10:57:18Z</time>
      </trkpt>
      <trkpt lat="43.64786" lon="3.79118">
        <ele>113.3</ele>
        <time>2016-05-20T10:57:20Z</time>
      </trkpt>
      <trkpt lat="43.64793" lon="3.79113">
        <ele>113.5</ele>
        <time>2016-05-20T10:57:22Z</time>
      </trkpt>
      <trkpt lat="43.64803" lon="3.79108">
        <ele>113.5</ele>
        <time>2016-05-20T10:57:24Z</time>
      </trkpt>
      <trkpt lat="43.64813" lon="3.79102">
        <ele>113.1</ele>
        <time>2016-05-20T10:57:26Z</time>
      </trkpt>
      <trkpt lat="43.64823" lon="3.79091">
        <ele>113.4</ele>
        <time>2016-05-20T10:57:28Z</time>
      </trkpt>
      <trkpt lat="43.6483" lon="3.79081">
        <ele>113.9</ele>
        <time>2016-05-20T10:57:30Z</time>
      </trkpt>
      <trkpt lat="43.64841" lon="3.79075">
        <ele>113.8</ele>
        <time>2016-05-20T10:57:32Z</time>
      </trkpt>
      <trkpt lat="43.6485" lon="3.7907">
        <ele>113.4</ele>
        <time>2016-05-20T10:57:34Z</time>
      </trkpt>
      <trkpt lat="43.64858" lon="3.79063">
        <ele>112.5</ele>
        <time>2016-05-20T10:57:36Z</time>
      </trkpt>
      <trkpt lat="43.64865" lon="3.79054">
        <ele>112</ele>
        <time>2016-05-20T10:57:38Z</time>
      </trkpt>
      <trkpt lat="43.64872" lon="3.7905">
        <ele>112</ele>
        <time>2016-05-20T10:57:40Z</time>
      </trkpt>
      <trkpt lat="43.64879" lon="3.79044">
        <ele>112.1</ele>
        <time>2016-05-20T10:57:42Z</time>
      </trkpt>
      <trkpt lat="43.64886" lon="3.79039">
        <ele>112.1</ele>
        <time>2016-05-20T10:57:44Z</time>
      </trkpt>
      <trkpt lat="43.64895" lon="3.79034">
        <ele>111.9</ele>
        <time>2016-05-20T10:57:47Z</time>
      </trkpt>
      <trkpt lat="43.64901" lon="3.79029">
        <ele>111.9</ele>
        <time>2016-05-20T10:57:49Z</time>
      </trkpt>
      <trkpt lat="43.64909" lon="3.79024">
        <ele>111.9</ele>
        <time>2016-05-20T10:57:51Z</time>
      </trkpt>
      <trkpt lat="43.64917" lon="3.7902">
        <ele>112</ele>
        <time>2016-05-20T10:57:53Z</time>
      </trkpt>
      <trkpt lat="43.64924" lon="3.79015">
        <ele>112.1</ele>
        <time>2016-05-20T10:57:55Z</time>
      </trkpt>
      <trkpt lat="43.64931" lon="3.7901">
        <ele>112.3</ele>
        <time>2016-05-20T10:57:57Z</time>
      </trkpt>
      <trkpt lat="43.64938" lon="3.79006">
        <ele>111.1</ele>
        <time>2016-05-20T10:57:59Z</time>
      </trkpt>
      <trkpt lat="43.64947" lon="3.78999">
        <ele>110.9</ele>
        <time>2016-05-20T10:58:01Z</time>
      </trkpt>
      <trkpt lat="43.64956" lon="3.78993">
        <ele>111</ele>
        <time>2016-05-20T10:58:03Z</time>
      </trkpt>
      <trkpt lat="43.64965" lon="3.78984">
        <ele>110.3</ele>
        <time>2016-05-20T10:58:05Z</time>
      </trkpt>
      <trkpt lat="43.64973" lon="3.78979">
        <ele>110.2</ele>
        <time>2016-05-20T10:58:07Z</time>
      </trkpt>
      <trkpt lat="43.6498" lon="3.78973">
        <ele>109.4</ele>
        <time>2016-05-20T10:58:09Z</time>
      </trkpt>
      <trkpt lat="43.64988" lon="3.78967">
        <ele>109.5</ele>
        <time>2016-05-20T10:58:11Z</time>
      </trkpt>
      <trkpt lat="43.64996" lon="3.78962">
        <ele>109.4</ele>
        <time>2016-05-20T10:58:13Z</time>
      </trkpt>
      <trkpt lat="43.65003" lon="3.78955">
        <ele>109.4</ele>
        <time>2016-05-20T10:58:15Z</time>
      </trkpt>
      <trkpt lat="43.65011" lon="3.78947">
        <ele>110.2</ele>
        <time>2016-05-20T10:58:17Z</time>
      </trkpt>
      <trkpt lat="43.65018" lon="3.78942">
        <ele>110.2</ele>
        <time>2016-05-20T10:58:19Z</time>
      </trkpt>
      <trkpt lat="43.65026" lon="3.78937">
        <ele>110.1</ele>
        <time>2016-05-20T10:58:21Z</time>
      </trkpt>
      <trkpt lat="43.65032" lon="3.78929">
        <ele>109.8</ele>
        <time>2016-05-20T10:58:23Z</time>
      </trkpt>
      <trkpt lat="43.65039" lon="3.78922">
        <ele>109.6</ele>
        <time>2016-05-20T10:58:25Z</time>
      </trkpt>
      <trkpt lat="43.65047" lon="3.78915">
        <ele>109.5</ele>
        <time>2016-05-20T10:58:28Z</time>
      </trkpt>
      <trkpt lat="43.65054" lon="3.78906">
        <ele>109.5</ele>
        <time>2016-05-20T10:58:31Z</time>
      </trkpt>
      <trkpt lat="43.65061" lon="3.78896">
        <ele>109.6</ele>
        <time>2016-05-20T10:58:34Z</time>
      </trkpt>
      <trkpt lat="43.65068" lon="3.78901">
        <ele>109.7</ele>
        <time>2016-05-20T10:58:38Z</time>
      </trkpt>
      <trkpt lat="43.65073" lon="3.7891">
        <ele>109.6</ele>
        <time>2016-05-20T10:58:41Z</time>
      </trkpt>
      <trkpt lat="43.65077" lon="3.78919">
        <ele>109.4</ele>
        <time>2016-05-20T10:58:44Z</time>
      </trkpt>
      <trkpt lat="43.6508" lon="3.78928">
        <ele>109.3</ele>
        <time>2016-05-20T10:58:46Z</time>
      </trkpt>
      <trkpt lat="43.65084" lon="3.78939">
        <ele>109.3</ele>
        <time>2016-05-20T10:58:48Z</time>
      </trkpt>
      <trkpt lat="43.65088" lon="3.78947">
        <ele>109.4</ele>
        <time>2016-05-20T10:58:50Z</time>
      </trkpt>
      <trkpt lat="43.65091" lon="3.78958">
        <ele>109.5</ele>
        <time>2016-05-20T10:58:52Z</time>
      </trkpt>
      <trkpt lat="43.65094" lon="3.78968">
        <ele>112</ele>
        <time>2016-05-20T10:58:54Z</time>
      </trkpt>
      <trkpt lat="43.65097" lon="3.78979">
        <ele>112.8</ele>
        <time>2016-05-20T10:58:56Z</time>
      </trkpt>
      <trkpt lat="43.651" lon="3.78992">
        <ele>112.4</ele>
        <time>2016-05-20T10:58:58Z</time>
      </trkpt>
      <trkpt lat="43.65102" lon="3.79005">
        <ele>112.6</ele>
        <time>2016-05-20T10:59:00Z</time>
      </trkpt>
      <trkpt lat="43.651" lon="3.79017">
        <ele>112.4</ele>
        <time>2016-05-20T10:59:02Z</time>
      </trkpt>
      <trkpt lat="43.65098" lon="3.79027">
        <ele>112.8</ele>
        <time>2016-05-20T10:59:04Z</time>
      </trkpt>
      <trkpt lat="43.65094" lon="3.79038">
        <ele>112.8</ele>
        <time>2016-05-20T10:59:06Z</time>
      </trkpt>
      <trkpt lat="43.65088" lon="3.79047">
        <ele>113.7</ele>
        <time>2016-05-20T10:59:08Z</time>
      </trkpt>
      <trkpt lat="43.65083" lon="3.79054">
        <ele>113.6</ele>
        <time>2016-05-20T10:59:10Z</time>
      </trkpt>
      <trkpt lat="43.65077" lon="3.79065">
        <ele>113.5</ele>
        <time>2016-05-20T10:59:13Z</time>
      </trkpt>
      <trkpt lat="43.65075" lon="3.79076">
        <ele>113.4</ele>
        <time>2016-05-20T10:59:16Z</time>
      </trkpt>
      <trkpt lat="43.65082" lon="3.79078">
        <ele>113.1</ele>
        <time>2016-05-20T10:59:22Z</time>
      </trkpt>
      <trkpt lat="43.65092" lon="3.79073">
        <ele>113.2</ele>
        <time>2016-05-20T10:59:26Z</time>
      </trkpt>
      <trkpt lat="43.65099" lon="3.79069">
        <ele>113.2</ele>
        <time>2016-05-20T10:59:29Z</time>
      </trkpt>
      <trkpt lat="43.65107" lon="3.79062">
        <ele>111.5</ele>
        <time>2016-05-20T10:59:31Z</time>
      </trkpt>
      <trkpt lat="43.65116" lon="3.79056">
        <ele>111.5</ele>
        <time>2016-05-20T10:59:34Z</time>
      </trkpt>
      <trkpt lat="43.65124" lon="3.79054">
        <ele>111.4</ele>
        <time>2016-05-20T10:59:36Z</time>
      </trkpt>
      <trkpt lat="43.65133" lon="3.79052">
        <ele>110.5</ele>
        <time>2016-05-20T10:59:38Z</time>
      </trkpt>
      <trkpt lat="43.65142" lon="3.7905">
        <ele>109.8</ele>
        <time>2016-05-20T10:59:40Z</time>
      </trkpt>
      <trkpt lat="43.65152" lon="3.79049">
        <ele>109.4</ele>
        <time>2016-05-20T10:59:42Z</time>
      </trkpt>
      <trkpt lat="43.65162" lon="3.79047">
        <ele>108.9</ele>
        <time>2016-05-20T10:59:44Z</time>
      </trkpt>
      <trkpt lat="43.65172" lon="3.79047">
        <ele>109.6</ele>
        <time>2016-05-20T10:59:46Z</time>
      </trkpt>
      <trkpt lat="43.65181" lon="3.79047">
        <ele>111.3</ele>
        <time>2016-05-20T10:59:48Z</time>
      </trkpt>
      <trkpt lat="43.65192" lon="3.79048">
        <ele>111.5</ele>
        <time>2016-05-20T10:59:51Z</time>
      </trkpt>
      <trkpt lat="43.652" lon="3.79052">
        <ele>111.7</ele>
        <time>2016-05-20T10:59:55Z</time>
      </trkpt>
      <trkpt lat="43.65202" lon="3.79064">
        <ele>111.8</ele>
        <time>2016-05-20T10:59:58Z</time>
      </trkpt>
      <trkpt lat="43.65209" lon="3.79067">
        <ele>112.1</ele>
        <time>2016-05-20T11:00:02Z</time>
      </trkpt>
      <trkpt lat="43.65217" lon="3.7907">
        <ele>112.8</ele>
        <time>2016-05-20T11:00:06Z</time>
      </trkpt>
      <trkpt lat="43.65227" lon="3.79073">
        <ele>112.8</ele>
        <time>2016-05-20T11:00:09Z</time>
      </trkpt>
      <trkpt lat="43.65236" lon="3.79077">
        <ele>112.9</ele>
        <time>2016-05-20T11:00:12Z</time>
      </trkpt>
      <trkpt lat="43.65242" lon="3.79083">
        <ele>113.2</ele>
        <time>2016-05-20T11:00:15Z</time>
      </trkpt>
      <trkpt lat="43.65249" lon="3.79089">
        <ele>113.3</ele>
        <time>2016-05-20T11:00:18Z</time>
      </trkpt>
      <trkpt lat="43.65254" lon="3.79097">
        <ele>113.3</ele>
        <time>2016-05-20T11:00:22Z</time>
      </trkpt>
      <trkpt lat="43.65262" lon="3.79104">
        <ele>113.9</ele>
        <time>2016-05-20T11:00:27Z</time>
      </trkpt>
      <trkpt lat="43.6527" lon="3.79102">
        <ele>114.4</ele>
        <time>2016-05-20T11:00:30Z</time>
      </trkpt>
      <trkpt lat="43.6528" lon="3.791">
        <ele>115</ele>
        <time>2016-05-20T11:00:33Z</time>
      </trkpt>
      <trkpt lat="43.6529" lon="3.791">
        <ele>115.5</ele>
        <time>2016-05-20T11:00:36Z</time>
      </trkpt>
      <trkpt lat="43.65299" lon="3.79102">
        <ele>116.1</ele>
        <time>2016-05-20T11:00:39Z</time>
      </trkpt>
      <trkpt lat="43.65307" lon="3.79105">
        <ele>116.6</ele>
        <time>2016-05-20T11:00:42Z</time>
      </trkpt>
      <trkpt lat="43.65314" lon="3.79113">
        <ele>117.4</ele>
        <time>2016-05-20T11:00:46Z</time>
      </trkpt>
      <trkpt lat="43.65321" lon="3.79122">
        <ele>118.1</ele>
        <time>2016-05-20T11:00:50Z</time>
      </trkpt>
      <trkpt lat="43.65329" lon="3.79125">
        <ele>118.8</ele>
        <time>2016-05-20T11:00:54Z</time>
      </trkpt>
      <trkpt lat="43.65337" lon="3.79127">
        <ele>119.8</ele>
        <time>2016-05-20T11:00:58Z</time>
      </trkpt>
      <trkpt lat="43.65346" lon="3.79128">
        <ele>120.4</ele>
        <time>2016-05-20T11:01:01Z</time>
      </trkpt>
      <trkpt lat="43.65355" lon="3.79128">
        <ele>121.2</ele>
        <time>2016-05-20T11:01:04Z</time>
      </trkpt>
      <trkpt lat="43.65361" lon="3.7913">
        <ele>123</ele>
        <time>2016-05-20T11:01:06Z</time>
      </trkpt>
      <trkpt lat="43.6537" lon="3.79129">
        <ele>123.4</ele>
        <time>2016-05-20T11:01:08Z</time>
      </trkpt>
      <trkpt lat="43.65379" lon="3.79131">
        <ele>125.2</ele>
        <time>2016-05-20T11:01:10Z</time>
      </trkpt>
      <trkpt lat="43.65388" lon="3.79132">
        <ele>127.6</ele>
        <time>2016-05-20T11:01:12Z</time>
      </trkpt>
      <trkpt lat="43.65398" lon="3.79135">
        <ele>128.9</ele>
        <time>2016-05-20T11:01:14Z</time>
      </trkpt>
      <trkpt lat="43.65409" lon="3.79138">
        <ele>129.7</ele>
        <time>2016-05-20T11:01:16Z</time>
      </trkpt>
      <trkpt lat="43.65417" lon="3.79139">
        <ele>129.5</ele>
        <time>2016-05-20T11:01:18Z</time>
      </trkpt>
      <trkpt lat="43.65425" lon="3.79143">
        <ele>129.9</ele>
        <time>2016-05-20T11:01:20Z</time>
      </trkpt>
      <trkpt lat="43.65434" lon="3.79144">
        <ele>129.7</ele>
        <time>2016-05-20T11:01:22Z</time>
      </trkpt>
      <trkpt lat="43.65443" lon="3.79144">
        <ele>129.5</ele>
        <time>2016-05-20T11:01:24Z</time>
      </trkpt>
      <trkpt lat="43.65454" lon="3.79148">
        <ele>129.6</ele>
        <time>2016-05-20T11:01:26Z</time>
      </trkpt>
      <trkpt lat="43.65463" lon="3.79149">
        <ele>129.6</ele>
        <time>2016-05-20T11:01:28Z</time>
      </trkpt>
      <trkpt lat="43.65471" lon="3.79146">
        <ele>130</ele>
        <time>2016-05-20T11:01:31Z</time>
      </trkpt>
      <trkpt lat="43.6548" lon="3.79146">
        <ele>130.4</ele>
        <time>2016-05-20T11:01:34Z</time>
      </trkpt>
      <trkpt lat="43.65489" lon="3.79148">
        <ele>130.4</ele>
        <time>2016-05-20T11:01:36Z</time>
      </trkpt>
      <trkpt lat="43.65497" lon="3.79152">
        <ele>130.3</ele>
        <time>2016-05-20T11:01:38Z</time>
      </trkpt>
      <trkpt lat="43.65505" lon="3.79155">
        <ele>128.5</ele>
        <time>2016-05-20T11:01:40Z</time>
      </trkpt>
      <trkpt lat="43.65513" lon="3.79157">
        <ele>128.5</ele>
        <time>2016-05-20T11:01:42Z</time>
      </trkpt>
      <trkpt lat="43.65522" lon="3.7916">
        <ele>128.7</ele>
        <time>2016-05-20T11:01:56Z</time>
      </trkpt>
      <trkpt lat="43.65526" lon="3.79163">
        <ele>129</ele>
        <time>2016-05-20T11:02:03Z</time>
      </trkpt>
      <trkpt lat="43.65533" lon="3.79162">
        <ele>128.8</ele>
        <time>2016-05-20T11:02:10Z</time>
      </trkpt>
      <trkpt lat="43.65542" lon="3.79161">
        <ele>128.6</ele>
        <time>2016-05-20T11:02:13Z</time>
      </trkpt>
      <trkpt lat="43.65553" lon="3.79164">
        <ele>127.8</ele>
        <time>2016-05-20T11:02:16Z</time>
      </trkpt>
      <trkpt lat="43.65559" lon="3.7917">
        <ele>127.9</ele>
        <time>2016-05-20T11:02:18Z</time>
      </trkpt>
      <trkpt lat="43.65564" lon="3.7918">
        <ele>128.3</ele>
        <time>2016-05-20T11:02:22Z</time>
      </trkpt>
      <trkpt lat="43.65572" lon="3.79187">
        <ele>128.7</ele>
        <time>2016-05-20T11:02:26Z</time>
      </trkpt>
      <trkpt lat="43.65581" lon="3.79195">
        <ele>129.2</ele>
        <time>2016-05-20T11:02:30Z</time>
      </trkpt>
      <trkpt lat="43.65584" lon="3.79204">
        <ele>129.3</ele>
        <time>2016-05-20T11:02:32Z</time>
      </trkpt>
      <trkpt lat="43.65591" lon="3.79209">
        <ele>129.5</ele>
        <time>2016-05-20T11:02:35Z</time>
      </trkpt>
      <trkpt lat="43.65598" lon="3.79215">
        <ele>129.6</ele>
        <time>2016-05-20T11:02:37Z</time>
      </trkpt>
      <trkpt lat="43.65605" lon="3.79219">
        <ele>129.9</ele>
        <time>2016-05-20T11:02:40Z</time>
      </trkpt>
      <trkpt lat="43.65612" lon="3.79226">
        <ele>130.1</ele>
        <time>2016-05-20T11:02:43Z</time>
      </trkpt>
      <trkpt lat="43.65618" lon="3.79233">
        <ele>130.1</ele>
        <time>2016-05-20T11:02:46Z</time>
      </trkpt>
      <trkpt lat="43.65627" lon="3.79236">
        <ele>130.2</ele>
        <time>2016-05-20T11:02:50Z</time>
      </trkpt>
      <trkpt lat="43.65634" lon="3.7924">
        <ele>130.5</ele>
        <time>2016-05-20T11:02:54Z</time>
      </trkpt>
      <trkpt lat="43.65641" lon="3.79248">
        <ele>131.1</ele>
        <time>2016-05-20T11:02:59Z</time>
      </trkpt>
      <trkpt lat="43.65641" lon="3.79259">
        <ele>131.7</ele>
        <time>2016-05-20T11:03:03Z</time>
      </trkpt>
      <trkpt lat="43.65643" lon="3.7927">
        <ele>132</ele>
        <time>2016-05-20T11:03:06Z</time>
      </trkpt>
      <trkpt lat="43.65654" lon="3.79273">
        <ele>132.6</ele>
        <time>2016-05-20T11:03:10Z</time>
      </trkpt>
      <trkpt lat="43.65662" lon="3.79281">
        <ele>132.7</ele>
        <time>2016-05-20T11:03:13Z</time>
      </trkpt>
      <trkpt lat="43.6567" lon="3.79286">
        <ele>133</ele>
        <time>2016-05-20T11:03:16Z</time>
      </trkpt>
      <trkpt lat="43.65676" lon="3.7929">
        <ele>133.4</ele>
        <time>2016-05-20T11:03:19Z</time>
      </trkpt>
      <trkpt lat="43.65684" lon="3.79294">
        <ele>133.7</ele>
        <time>2016-05-20T11:03:22Z</time>
      </trkpt>
      <trkpt lat="43.65693" lon="3.79296">
        <ele>134</ele>
        <time>2016-05-20T11:03:26Z</time>
      </trkpt>
      <trkpt lat="43.657" lon="3.793">
        <ele>134.4</ele>
        <time>2016-05-20T11:03:29Z</time>
      </trkpt>
      <trkpt lat="43.65707" lon="3.79302">
        <ele>134.7</ele>
        <time>2016-05-20T11:03:32Z</time>
      </trkpt>
      <trkpt lat="43.65715" lon="3.79303">
        <ele>136.2</ele>
        <time>2016-05-20T11:03:34Z</time>
      </trkpt>
      <trkpt lat="43.65723" lon="3.79307">
        <ele>136.3</ele>
        <time>2016-05-20T11:03:36Z</time>
      </trkpt>
      <trkpt lat="43.65728" lon="3.79317">
        <ele>136.3</ele>
        <time>2016-05-20T11:03:38Z</time>
      </trkpt>
      <trkpt lat="43.65736" lon="3.79328">
        <ele>136.8</ele>
        <time>2016-05-20T11:03:40Z</time>
      </trkpt>
      <trkpt lat="43.65747" lon="3.79338">
        <ele>138.4</ele>
        <time>2016-05-20T11:03:42Z</time>
      </trkpt>
      <trkpt lat="43.65757" lon="3.79349">
        <ele>138.7</ele>
        <time>2016-05-20T11:03:44Z</time>
      </trkpt>
      <trkpt lat="43.65762" lon="3.7936">
        <ele>138</ele>
        <time>2016-05-20T11:03:46Z</time>
      </trkpt>
      <trkpt lat="43.65769" lon="3.79372">
        <ele>137.4</ele>
        <time>2016-05-20T11:03:48Z</time>
      </trkpt>
      <trkpt lat="43.65776" lon="3.79379">
        <ele>135.7</ele>
        <time>2016-05-20T11:03:50Z</time>
      </trkpt>
      <trkpt lat="43.65785" lon="3.79391">
        <ele>135.9</ele>
        <time>2016-05-20T11:03:52Z</time>
      </trkpt>
      <trkpt lat="43.65792" lon="3.79395">
        <ele>135.5</ele>
        <time>2016-05-20T11:03:54Z</time>
      </trkpt>
      <trkpt lat="43.658" lon="3.79405">
        <ele>135.5</ele>
        <time>2016-05-20T11:03:57Z</time>
      </trkpt>
      <trkpt lat="43.65808" lon="3.79414">
        <ele>135.6</ele>
        <time>2016-05-20T11:04:00Z</time>
      </trkpt>
      <trkpt lat="43.65812" lon="3.79425">
        <ele>135.5</ele>
        <time>2016-05-20T11:04:02Z</time>
      </trkpt>
      <trkpt lat="43.65821" lon="3.79422">
        <ele>135.6</ele>
        <time>2016-05-20T11:04:09Z</time>
      </trkpt>
      <trkpt lat="43.65828" lon="3.79417">
        <ele>134.6</ele>
        <time>2016-05-20T11:04:11Z</time>
      </trkpt>
      <trkpt lat="43.65833" lon="3.79408">
        <ele>133.4</ele>
        <time>2016-05-20T11:04:13Z</time>
      </trkpt>
      <trkpt lat="43.65838" lon="3.79398">
        <ele>133.2</ele>
        <time>2016-05-20T11:04:15Z</time>
      </trkpt>
      <trkpt lat="43.65843" lon="3.79389">
        <ele>131.9</ele>
        <time>2016-05-20T11:04:17Z</time>
      </trkpt>
      <trkpt lat="43.6585" lon="3.79383">
        <ele>131.7</ele>
        <time>2016-05-20T11:04:19Z</time>
      </trkpt>
      <trkpt lat="43.65855" lon="3.79375">
        <ele>131.2</ele>
        <time>2016-05-20T11:04:21Z</time>
      </trkpt>
      <trkpt lat="43.65863" lon="3.79364">
        <ele>130.3</ele>
        <time>2016-05-20T11:04:23Z</time>
      </trkpt>
      <trkpt lat="43.65872" lon="3.79357">
        <ele>129</ele>
        <time>2016-05-20T11:04:25Z</time>
      </trkpt>
      <trkpt lat="43.65881" lon="3.79351">
        <ele>129.2</ele>
        <time>2016-05-20T11:04:27Z</time>
      </trkpt>
      <trkpt lat="43.65887" lon="3.79342">
        <ele>129.4</ele>
        <time>2016-05-20T11:04:30Z</time>
      </trkpt>
      <trkpt lat="43.65897" lon="3.79336">
        <ele>131.3</ele>
        <time>2016-05-20T11:04:33Z</time>
      </trkpt>
      <trkpt lat="43.65907" lon="3.79334">
        <ele>132.2</ele>
        <time>2016-05-20T11:04:35Z</time>
      </trkpt>
      <trkpt lat="43.65917" lon="3.79329">
        <ele>132.3</ele>
        <time>2016-05-20T11:04:37Z</time>
      </trkpt>
      <trkpt lat="43.65926" lon="3.79327">
        <ele>132.3</ele>
        <time>2016-05-20T11:04:39Z</time>
      </trkpt>
      <trkpt lat="43.65936" lon="3.79329">
        <ele>132.6</ele>
        <time>2016-05-20T11:04:41Z</time>
      </trkpt>
      <trkpt lat="43.65944" lon="3.79329">
        <ele>132.6</ele>
        <time>2016-05-20T11:04:43Z</time>
      </trkpt>
      <trkpt lat="43.65952" lon="3.7933">
        <ele>132.3</ele>
        <time>2016-05-20T11:04:45Z</time>
      </trkpt>
      <trkpt lat="43.6596" lon="3.79333">
        <ele>131.2</ele>
        <time>2016-05-20T11:04:47Z</time>
      </trkpt>
      <trkpt lat="43.6597" lon="3.79337">
        <ele>130.8</ele>
        <time>2016-05-20T11:04:49Z</time>
      </trkpt>
      <trkpt lat="43.6598" lon="3.79341">
        <ele>131.3</ele>
        <time>2016-05-20T11:04:51Z</time>
      </trkpt>
      <trkpt lat="43.65988" lon="3.79343">
        <ele>130.6</ele>
        <time>2016-05-20T11:04:53Z</time>
      </trkpt>
      <trkpt lat="43.66013" lon="3.79355">
        <ele>129.9</ele>
        <time>2016-05-20T11:04:59Z</time>
      </trkpt>
      <trkpt lat="43.66019" lon="3.79368">
        <ele>129.9</ele>
        <time>2016-05-20T11:05:01Z</time>
      </trkpt>
      <trkpt lat="43.6602" lon="3.79377">
        <ele>129.9</ele>
        <time>2016-05-20T11:05:04Z</time>
      </trkpt>
      <trkpt lat="43.66023" lon="3.79388">
        <ele>130.1</ele>
        <time>2016-05-20T11:05:07Z</time>
      </trkpt>
      <trkpt lat="43.66025" lon="3.79398">
        <ele>130.1</ele>
        <time>2016-05-20T11:05:10Z</time>
      </trkpt>
      <trkpt lat="43.66025" lon="3.7941">
        <ele>129.7</ele>
        <time>2016-05-20T11:05:14Z</time>
      </trkpt>
      <trkpt lat="43.66026" lon="3.7942">
        <ele>129.4</ele>
        <time>2016-05-20T11:05:18Z</time>
      </trkpt>
      <trkpt lat="43.66027" lon="3.79432">
        <ele>128.8</ele>
        <time>2016-05-20T11:05:23Z</time>
      </trkpt>
      <trkpt lat="43.66028" lon="3.79444">
        <ele>128.6</ele>
        <time>2016-05-20T11:05:27Z</time>
      </trkpt>
      <trkpt lat="43.66029" lon="3.79456">
        <ele>128.4</ele>
        <time>2016-05-20T11:05:31Z</time>
      </trkpt>
      <trkpt lat="43.66029" lon="3.79466">
        <ele>128.4</ele>
        <time>2016-05-20T11:05:34Z</time>
      </trkpt>
      <trkpt lat="43.66028" lon="3.79477">
        <ele>128.3</ele>
        <time>2016-05-20T11:05:37Z</time>
      </trkpt>
      <trkpt lat="43.66028" lon="3.7949">
        <ele>127.9</ele>
        <time>2016-05-20T11:05:41Z</time>
      </trkpt>
      <trkpt lat="43.66029" lon="3.79501">
        <ele>127.7</ele>
        <time>2016-05-20T11:05:45Z</time>
      </trkpt>
      <trkpt lat="43.66029" lon="3.79512">
        <ele>127.7</ele>
        <time>2016-05-20T11:05:49Z</time>
      </trkpt>
      <trkpt lat="43.66031" lon="3.79523">
        <ele>127.8</ele>
        <time>2016-05-20T11:05:53Z</time>
      </trkpt>
      <trkpt lat="43.66032" lon="3.79535">
        <ele>128.1</ele>
        <time>2016-05-20T11:05:56Z</time>
      </trkpt>
      <trkpt lat="43.66034" lon="3.79544">
        <ele>128.2</ele>
        <time>2016-05-20T11:05:59Z</time>
      </trkpt>
      <trkpt lat="43.66036" lon="3.79556">
        <ele>128.3</ele>
        <time>2016-05-20T11:06:03Z</time>
      </trkpt>
      <trkpt lat="43.66037" lon="3.79568">
        <ele>128.2</ele>
        <time>2016-05-20T11:06:07Z</time>
      </trkpt>
      <trkpt lat="43.66039" lon="3.79581">
        <ele>128.5</ele>
        <time>2016-05-20T11:06:11Z</time>
      </trkpt>
      <trkpt lat="43.66039" lon="3.79591">
        <ele>129</ele>
        <time>2016-05-20T11:06:14Z</time>
      </trkpt>
      <trkpt lat="43.6604" lon="3.79603">
        <ele>129.4</ele>
        <time>2016-05-20T11:06:18Z</time>
      </trkpt>
      <trkpt lat="43.66038" lon="3.79615">
        <ele>129.7</ele>
        <time>2016-05-20T11:06:22Z</time>
      </trkpt>
      <trkpt lat="43.66035" lon="3.79626">
        <ele>130.2</ele>
        <time>2016-05-20T11:06:26Z</time>
      </trkpt>
      <trkpt lat="43.66033" lon="3.79637">
        <ele>130.7</ele>
        <time>2016-05-20T11:06:29Z</time>
      </trkpt>
      <trkpt lat="43.6603" lon="3.79648">
        <ele>130.9</ele>
        <time>2016-05-20T11:06:32Z</time>
      </trkpt>
      <trkpt lat="43.66028" lon="3.79659">
        <ele>131.2</ele>
        <time>2016-05-20T11:06:36Z</time>
      </trkpt>
      <trkpt lat="43.66027" lon="3.7967">
        <ele>131.7</ele>
        <time>2016-05-20T11:06:40Z</time>
      </trkpt>
      <trkpt lat="43.66025" lon="3.79682">
        <ele>132.3</ele>
        <time>2016-05-20T11:06:44Z</time>
      </trkpt>
      <trkpt lat="43.66023" lon="3.79692">
        <ele>132.7</ele>
        <time>2016-05-20T11:06:47Z</time>
      </trkpt>
      <trkpt lat="43.66021" lon="3.79702">
        <ele>133</ele>
        <time>2016-05-20T11:06:50Z</time>
      </trkpt>
      <trkpt lat="43.66018" lon="3.79712">
        <ele>133.6</ele>
        <time>2016-05-20T11:06:54Z</time>
      </trkpt>
      <trkpt lat="43.66015" lon="3.79722">
        <ele>133.9</ele>
        <time>2016-05-20T11:06:57Z</time>
      </trkpt>
      <trkpt lat="43.66012" lon="3.79733">
        <ele>134.7</ele>
        <time>2016-05-20T11:07:01Z</time>
      </trkpt>
      <trkpt lat="43.66008" lon="3.79743">
        <ele>135.2</ele>
        <time>2016-05-20T11:07:05Z</time>
      </trkpt>
      <trkpt lat="43.66005" lon="3.79753">
        <ele>135.8</ele>
        <time>2016-05-20T11:07:09Z</time>
      </trkpt>
      <trkpt lat="43.66003" lon="3.79763">
        <ele>136.6</ele>
        <time>2016-05-20T11:07:13Z</time>
      </trkpt>
      <trkpt lat="43.66002" lon="3.79773">
        <ele>137.4</ele>
        <time>2016-05-20T11:07:17Z</time>
      </trkpt>
      <trkpt lat="43.66001" lon="3.79785">
        <ele>138.3</ele>
        <time>2016-05-20T11:07:21Z</time>
      </trkpt>
      <trkpt lat="43.66001" lon="3.79795">
        <ele>139.2</ele>
        <time>2016-05-20T11:07:25Z</time>
      </trkpt>
      <trkpt lat="43.66002" lon="3.79807">
        <ele>139.9</ele>
        <time>2016-05-20T11:07:29Z</time>
      </trkpt>
      <trkpt lat="43.66003" lon="3.7982">
        <ele>140.6</ele>
        <time>2016-05-20T11:07:34Z</time>
      </trkpt>
      <trkpt lat="43.66003" lon="3.79833">
        <ele>141.5</ele>
        <time>2016-05-20T11:07:39Z</time>
      </trkpt>
      <trkpt lat="43.66002" lon="3.79845">
        <ele>142</ele>
        <time>2016-05-20T11:07:43Z</time>
      </trkpt>
      <trkpt lat="43.66001" lon="3.79857">
        <ele>142.9</ele>
        <time>2016-05-20T11:07:47Z</time>
      </trkpt>
      <trkpt lat="43.65998" lon="3.79869">
        <ele>143.7</ele>
        <time>2016-05-20T11:07:51Z</time>
      </trkpt>
      <trkpt lat="43.65995" lon="3.79879">
        <ele>144.5</ele>
        <time>2016-05-20T11:07:55Z</time>
      </trkpt>
      <trkpt lat="43.65992" lon="3.79889">
        <ele>145.4</ele>
        <time>2016-05-20T11:07:59Z</time>
      </trkpt>
      <trkpt lat="43.65986" lon="3.79897">
        <ele>146.3</ele>
        <time>2016-05-20T11:08:03Z</time>
      </trkpt>
      <trkpt lat="43.65981" lon="3.79905">
        <ele>146.9</ele>
        <time>2016-05-20T11:08:07Z</time>
      </trkpt>
      <trkpt lat="43.65974" lon="3.79912">
        <ele>147.5</ele>
        <time>2016-05-20T11:08:11Z</time>
      </trkpt>
      <trkpt lat="43.65968" lon="3.79919">
        <ele>148.1</ele>
        <time>2016-05-20T11:08:15Z</time>
      </trkpt>
      <trkpt lat="43.65961" lon="3.79926">
        <ele>148.6</ele>
        <time>2016-05-20T11:08:19Z</time>
      </trkpt>
      <trkpt lat="43.65955" lon="3.79934">
        <ele>149.2</ele>
        <time>2016-05-20T11:08:23Z</time>
      </trkpt>
      <trkpt lat="43.65949" lon="3.79942">
        <ele>149.9</ele>
        <time>2016-05-20T11:08:27Z</time>
      </trkpt>
      <trkpt lat="43.65944" lon="3.79951">
        <ele>150.4</ele>
        <time>2016-05-20T11:08:31Z</time>
      </trkpt>
      <trkpt lat="43.65939" lon="3.7996">
        <ele>151.2</ele>
        <time>2016-05-20T11:08:35Z</time>
      </trkpt>
      <trkpt lat="43.65933" lon="3.79969">
        <ele>152.1</ele>
        <time>2016-05-20T11:08:39Z</time>
      </trkpt>
      <trkpt lat="43.65927" lon="3.79978">
        <ele>152.7</ele>
        <time>2016-05-20T11:08:43Z</time>
      </trkpt>
      <trkpt lat="43.65921" lon="3.79986">
        <ele>153.6</ele>
        <time>2016-05-20T11:08:47Z</time>
      </trkpt>
      <trkpt lat="43.65915" lon="3.79994">
        <ele>154.3</ele>
        <time>2016-05-20T11:08:51Z</time>
      </trkpt>
      <trkpt lat="43.65906" lon="3.79999">
        <ele>155</ele>
        <time>2016-05-20T11:08:55Z</time>
      </trkpt>
      <trkpt lat="43.65899" lon="3.80002">
        <ele>155.7</ele>
        <time>2016-05-20T11:08:58Z</time>
      </trkpt>
      <trkpt lat="43.65891" lon="3.80005">
        <ele>156.5</ele>
        <time>2016-05-20T11:09:02Z</time>
      </trkpt>
      <trkpt lat="43.65883" lon="3.80007">
        <ele>157</ele>
        <time>2016-05-20T11:09:05Z</time>
      </trkpt>
      <trkpt lat="43.65875" lon="3.8001">
        <ele>157.7</ele>
        <time>2016-05-20T11:09:09Z</time>
      </trkpt>
      <trkpt lat="43.65866" lon="3.80014">
        <ele>158.3</ele>
        <time>2016-05-20T11:09:13Z</time>
      </trkpt>
      <trkpt lat="43.65858" lon="3.80017">
        <ele>159.3</ele>
        <time>2016-05-20T11:09:17Z</time>
      </trkpt>
      <trkpt lat="43.65851" lon="3.80019">
        <ele>160.1</ele>
        <time>2016-05-20T11:09:21Z</time>
      </trkpt>
      <trkpt lat="43.65843" lon="3.80019">
        <ele>160.8</ele>
        <time>2016-05-20T11:09:24Z</time>
      </trkpt>
      <trkpt lat="43.65836" lon="3.8002">
        <ele>161.5</ele>
        <time>2016-05-20T11:09:27Z</time>
      </trkpt>
      <trkpt lat="43.65828" lon="3.8002">
        <ele>162.2</ele>
        <time>2016-05-20T11:09:30Z</time>
      </trkpt>
      <trkpt lat="43.65819" lon="3.8002">
        <ele>163.5</ele>
        <time>2016-05-20T11:09:35Z</time>
      </trkpt>
      <trkpt lat="43.65812" lon="3.80021">
        <ele>164.3</ele>
        <time>2016-05-20T11:09:38Z</time>
      </trkpt>
      <trkpt lat="43.65802" lon="3.80022">
        <ele>165.3</ele>
        <time>2016-05-20T11:09:42Z</time>
      </trkpt>
      <trkpt lat="43.65795" lon="3.80023">
        <ele>166.4</ele>
        <time>2016-05-20T11:09:46Z</time>
      </trkpt>
      <trkpt lat="43.65786" lon="3.80024">
        <ele>167.3</ele>
        <time>2016-05-20T11:09:50Z</time>
      </trkpt>
      <trkpt lat="43.65778" lon="3.80025">
        <ele>168</ele>
        <time>2016-05-20T11:09:53Z</time>
      </trkpt>
      <trkpt lat="43.6577" lon="3.80027">
        <ele>168.8</ele>
        <time>2016-05-20T11:09:57Z</time>
      </trkpt>
      <trkpt lat="43.65761" lon="3.80031">
        <ele>169.7</ele>
        <time>2016-05-20T11:10:01Z</time>
      </trkpt>
      <trkpt lat="43.65754" lon="3.80034">
        <ele>170.6</ele>
        <time>2016-05-20T11:10:04Z</time>
      </trkpt>
      <trkpt lat="43.65745" lon="3.80037">
        <ele>171.8</ele>
        <time>2016-05-20T11:10:08Z</time>
      </trkpt>
      <trkpt lat="43.65738" lon="3.80038">
        <ele>172.7</ele>
        <time>2016-05-20T11:10:12Z</time>
      </trkpt>
      <trkpt lat="43.6573" lon="3.80042">
        <ele>173.7</ele>
        <time>2016-05-20T11:10:16Z</time>
      </trkpt>
      <trkpt lat="43.65723" lon="3.80047">
        <ele>174.8</ele>
        <time>2016-05-20T11:10:20Z</time>
      </trkpt>
      <trkpt lat="43.65715" lon="3.80054">
        <ele>175.6</ele>
        <time>2016-05-20T11:10:24Z</time>
      </trkpt>
      <trkpt lat="43.65709" lon="3.80061">
        <ele>176.3</ele>
        <time>2016-05-20T11:10:27Z</time>
      </trkpt>
      <trkpt lat="43.65702" lon="3.80067">
        <ele>176.9</ele>
        <time>2016-05-20T11:10:30Z</time>
      </trkpt>
      <trkpt lat="43.65695" lon="3.80075">
        <ele>177.6</ele>
        <time>2016-05-20T11:10:34Z</time>
      </trkpt>
      <trkpt lat="43.65688" lon="3.80083">
        <ele>178.4</ele>
        <time>2016-05-20T11:10:38Z</time>
      </trkpt>
      <trkpt lat="43.65682" lon="3.80088">
        <ele>179.3</ele>
        <time>2016-05-20T11:10:42Z</time>
      </trkpt>
      <trkpt lat="43.65677" lon="3.80095">
        <ele>179.9</ele>
        <time>2016-05-20T11:10:45Z</time>
      </trkpt>
      <trkpt lat="43.6567" lon="3.80102">
        <ele>180.9</ele>
        <time>2016-05-20T11:10:49Z</time>
      </trkpt>
      <trkpt lat="43.65663" lon="3.80107">
        <ele>181.3</ele>
        <time>2016-05-20T11:10:52Z</time>
      </trkpt>
      <trkpt lat="43.65656" lon="3.80113">
        <ele>181.7</ele>
        <time>2016-05-20T11:10:56Z</time>
      </trkpt>
      <trkpt lat="43.65648" lon="3.80118">
        <ele>182.3</ele>
        <time>2016-05-20T11:11:00Z</time>
      </trkpt>
      <trkpt lat="43.65641" lon="3.80123">
        <ele>182.8</ele>
        <time>2016-05-20T11:11:03Z</time>
      </trkpt>
      <trkpt lat="43.65634" lon="3.80131">
        <ele>183.5</ele>
        <time>2016-05-20T11:11:06Z</time>
      </trkpt>
      <trkpt lat="43.65628" lon="3.80137">
        <ele>183.9</ele>
        <time>2016-05-20T11:11:09Z</time>
      </trkpt>
      <trkpt lat="43.65622" lon="3.80145">
        <ele>184.3</ele>
        <time>2016-05-20T11:11:12Z</time>
      </trkpt>
      <trkpt lat="43.65615" lon="3.80154">
        <ele>184.5</ele>
        <time>2016-05-20T11:11:15Z</time>
      </trkpt>
      <trkpt lat="43.65608" lon="3.80163">
        <ele>184.9</ele>
        <time>2016-05-20T11:11:19Z</time>
      </trkpt>
      <trkpt lat="43.65602" lon="3.80171">
        <ele>185.1</ele>
        <time>2016-05-20T11:11:22Z</time>
      </trkpt>
      <trkpt lat="43.65596" lon="3.8018">
        <ele>185.4</ele>
        <time>2016-05-20T11:11:25Z</time>
      </trkpt>
      <trkpt lat="43.6559" lon="3.80188">
        <ele>185.8</ele>
        <time>2016-05-20T11:11:28Z</time>
      </trkpt>
      <trkpt lat="43.65584" lon="3.80197">
        <ele>186.2</ele>
        <time>2016-05-20T11:11:31Z</time>
      </trkpt>
      <trkpt lat="43.65577" lon="3.80207">
        <ele>186.5</ele>
        <time>2016-05-20T11:11:34Z</time>
      </trkpt>
      <trkpt lat="43.6557" lon="3.80214">
        <ele>186.9</ele>
        <time>2016-05-20T11:11:37Z</time>
      </trkpt>
      <trkpt lat="43.65562" lon="3.80219">
        <ele>187.4</ele>
        <time>2016-05-20T11:11:40Z</time>
      </trkpt>
      <trkpt lat="43.65555" lon="3.80223">
        <ele>188.1</ele>
        <time>2016-05-20T11:11:43Z</time>
      </trkpt>
      <trkpt lat="43.65545" lon="3.80228">
        <ele>188.7</ele>
        <time>2016-05-20T11:11:46Z</time>
      </trkpt>
      <trkpt lat="43.65535" lon="3.80232">
        <ele>189.3</ele>
        <time>2016-05-20T11:11:49Z</time>
      </trkpt>
      <trkpt lat="43.65528" lon="3.80235">
        <ele>189.5</ele>
        <time>2016-05-20T11:11:51Z</time>
      </trkpt>
      <trkpt lat="43.65519" lon="3.80239">
        <ele>190.2</ele>
        <time>2016-05-20T11:11:53Z</time>
      </trkpt>
      <trkpt lat="43.65509" lon="3.80247">
        <ele>190.1</ele>
        <time>2016-05-20T11:11:55Z</time>
      </trkpt>
      <trkpt lat="43.65499" lon="3.80255">
        <ele>190.6</ele>
        <time>2016-05-20T11:11:57Z</time>
      </trkpt>
      <trkpt lat="43.6549" lon="3.80263">
        <ele>191.5</ele>
        <time>2016-05-20T11:11:59Z</time>
      </trkpt>
      <trkpt lat="43.65485" lon="3.80275">
        <ele>191.8</ele>
        <time>2016-05-20T11:12:01Z</time>
      </trkpt>
      <trkpt lat="43.65487" lon="3.80289">
        <ele>190.8</ele>
        <time>2016-05-20T11:12:03Z</time>
      </trkpt>
      <trkpt lat="43.65491" lon="3.80301">
        <ele>190</ele>
        <time>2016-05-20T11:12:05Z</time>
      </trkpt>
      <trkpt lat="43.65499" lon="3.80309">
        <ele>190.6</ele>
        <time>2016-05-20T11:12:08Z</time>
      </trkpt>
      <trkpt lat="43.65505" lon="3.80316">
        <ele>191.2</ele>
        <time>2016-05-20T11:12:11Z</time>
      </trkpt>
      <trkpt lat="43.65504" lon="3.80326">
        <ele>191.2</ele>
        <time>2016-05-20T11:12:14Z</time>
      </trkpt>
      <trkpt lat="43.65502" lon="3.80336">
        <ele>191.3</ele>
        <time>2016-05-20T11:12:18Z</time>
      </trkpt>
      <trkpt lat="43.65508" lon="3.80343">
        <ele>191.5</ele>
        <time>2016-05-20T11:12:22Z</time>
      </trkpt>
      <trkpt lat="43.65513" lon="3.80353">
        <ele>191.7</ele>
        <time>2016-05-20T11:12:25Z</time>
      </trkpt>
      <trkpt lat="43.65522" lon="3.80363">
        <ele>192</ele>
        <time>2016-05-20T11:12:28Z</time>
      </trkpt>
      <trkpt lat="43.6553" lon="3.80367">
        <ele>192.1</ele>
        <time>2016-05-20T11:12:30Z</time>
      </trkpt>
      <trkpt lat="43.65537" lon="3.80372">
        <ele>193.4</ele>
        <time>2016-05-20T11:12:32Z</time>
      </trkpt>
      <trkpt lat="43.65546" lon="3.80376">
        <ele>194.2</ele>
        <time>2016-05-20T11:12:34Z</time>
      </trkpt>
      <trkpt lat="43.65555" lon="3.80379">
        <ele>193.5</ele>
        <time>2016-05-20T11:12:36Z</time>
      </trkpt>
      <trkpt lat="43.65565" lon="3.80382">
        <ele>194.6</ele>
        <time>2016-05-20T11:12:38Z</time>
      </trkpt>
      <trkpt lat="43.65577" lon="3.80387">
        <ele>195</ele>
        <time>2016-05-20T11:12:40Z</time>
      </trkpt>
      <trkpt lat="43.65586" lon="3.8039">
        <ele>194</ele>
        <time>2016-05-20T11:12:42Z</time>
      </trkpt>
      <trkpt lat="43.65595" lon="3.80395">
        <ele>192.7</ele>
        <time>2016-05-20T11:12:44Z</time>
      </trkpt>
      <trkpt lat="43.65604" lon="3.80399">
        <ele>192.5</ele>
        <time>2016-05-20T11:12:46Z</time>
      </trkpt>
      <trkpt lat="43.65612" lon="3.80406">
        <ele>193.1</ele>
        <time>2016-05-20T11:12:48Z</time>
      </trkpt>
      <trkpt lat="43.65618" lon="3.80412">
        <ele>192.9</ele>
        <time>2016-05-20T11:12:49Z</time>
      </trkpt>
      <trkpt lat="43.65625" lon="3.80416">
        <ele>192.6</ele>
        <time>2016-05-20T11:12:50Z</time>
      </trkpt>
      <trkpt lat="43.65639" lon="3.80418">
        <ele>190.6</ele>
        <time>2016-05-20T11:12:52Z</time>
      </trkpt>
      <trkpt lat="43.6565" lon="3.80425">
        <ele>189.4</ele>
        <time>2016-05-20T11:12:54Z</time>
      </trkpt>
      <trkpt lat="43.65661" lon="3.80428">
        <ele>187.3</ele>
        <time>2016-05-20T11:12:56Z</time>
      </trkpt>
      <trkpt lat="43.65671" lon="3.80433">
        <ele>186.5</ele>
        <time>2016-05-20T11:12:58Z</time>
      </trkpt>
      <trkpt lat="43.65683" lon="3.80436">
        <ele>185.3</ele>
        <time>2016-05-20T11:13:00Z</time>
      </trkpt>
      <trkpt lat="43.65692" lon="3.80441">
        <ele>184.8</ele>
        <time>2016-05-20T11:13:02Z</time>
      </trkpt>
      <trkpt lat="43.65701" lon="3.80444">
        <ele>184.6</ele>
        <time>2016-05-20T11:13:04Z</time>
      </trkpt>
      <trkpt lat="43.6571" lon="3.8045">
        <ele>184.3</ele>
        <time>2016-05-20T11:13:07Z</time>
      </trkpt>
      <trkpt lat="43.65718" lon="3.80453">
        <ele>184.7</ele>
        <time>2016-05-20T11:13:09Z</time>
      </trkpt>
      <trkpt lat="43.65726" lon="3.80461">
        <ele>184.6</ele>
        <time>2016-05-20T11:13:12Z</time>
      </trkpt>
      <trkpt lat="43.65734" lon="3.80464">
        <ele>185.4</ele>
        <time>2016-05-20T11:13:14Z</time>
      </trkpt>
      <trkpt lat="43.65743" lon="3.80463">
        <ele>186.2</ele>
        <time>2016-05-20T11:13:16Z</time>
      </trkpt>
      <trkpt lat="43.65752" lon="3.80468">
        <ele>187.2</ele>
        <time>2016-05-20T11:13:18Z</time>
      </trkpt>
      <trkpt lat="43.65764" lon="3.80469">
        <ele>188.9</ele>
        <time>2016-05-20T11:13:20Z</time>
      </trkpt>
      <trkpt lat="43.65773" lon="3.80471">
        <ele>189.5</ele>
        <time>2016-05-20T11:13:22Z</time>
      </trkpt>
      <trkpt lat="43.65782" lon="3.80475">
        <ele>189.5</ele>
        <time>2016-05-20T11:13:24Z</time>
      </trkpt>
      <trkpt lat="43.6579" lon="3.80482">
        <ele>190.1</ele>
        <time>2016-05-20T11:13:26Z</time>
      </trkpt>
      <trkpt lat="43.65801" lon="3.80484">
        <ele>190.8</ele>
        <time>2016-05-20T11:13:28Z</time>
      </trkpt>
      <trkpt lat="43.65813" lon="3.80485">
        <ele>191.3</ele>
        <time>2016-05-20T11:13:30Z</time>
      </trkpt>
      <trkpt lat="43.65821" lon="3.80487">
        <ele>191.3</ele>
        <time>2016-05-20T11:13:32Z</time>
      </trkpt>
      <trkpt lat="43.65831" lon="3.80493">
        <ele>191.8</ele>
        <time>2016-05-20T11:13:34Z</time>
      </trkpt>
      <trkpt lat="43.65841" lon="3.80503">
        <ele>191.4</ele>
        <time>2016-05-20T11:13:36Z</time>
      </trkpt>
      <trkpt lat="43.6585" lon="3.80507">
        <ele>190.9</ele>
        <time>2016-05-20T11:13:38Z</time>
      </trkpt>
      <trkpt lat="43.65858" lon="3.80512">
        <ele>190.9</ele>
        <time>2016-05-20T11:13:40Z</time>
      </trkpt>
      <trkpt lat="43.65867" lon="3.80519">
        <ele>190.9</ele>
        <time>2016-05-20T11:13:42Z</time>
      </trkpt>
      <trkpt lat="43.65875" lon="3.80524">
        <ele>191</ele>
        <time>2016-05-20T11:13:44Z</time>
      </trkpt>
      <trkpt lat="43.65883" lon="3.80529">
        <ele>191</ele>
        <time>2016-05-20T11:13:46Z</time>
      </trkpt>
      <trkpt lat="43.65893" lon="3.80531">
        <ele>190.9</ele>
        <time>2016-05-20T11:13:49Z</time>
      </trkpt>
      <trkpt lat="43.659" lon="3.80535">
        <ele>190.7</ele>
        <time>2016-05-20T11:13:51Z</time>
      </trkpt>
      <trkpt lat="43.65908" lon="3.80539">
        <ele>190.6</ele>
        <time>2016-05-20T11:13:53Z</time>
      </trkpt>
      <trkpt lat="43.65916" lon="3.80545">
        <ele>190.3</ele>
        <time>2016-05-20T11:13:55Z</time>
      </trkpt>
      <trkpt lat="43.65921" lon="3.80551">
        <ele>190</ele>
        <time>2016-05-20T11:13:57Z</time>
      </trkpt>
      <trkpt lat="43.65929" lon="3.8056">
        <ele>189.7</ele>
        <time>2016-05-20T11:14:00Z</time>
      </trkpt>
      <trkpt lat="43.6593" lon="3.80568">
        <ele>189.3</ele>
        <time>2016-05-20T11:14:07Z</time>
      </trkpt>
      <trkpt lat="43.65933" lon="3.80572">
        <ele>188.5</ele>
        <time>2016-05-20T11:14:17Z</time>
      </trkpt>
      <trkpt lat="43.65928" lon="3.80572">
        <ele>187.7</ele>
        <time>2016-05-20T11:14:31Z</time>
      </trkpt>
      <trkpt lat="43.65924" lon="3.80575">
        <ele>187.5</ele>
        <time>2016-05-20T11:14:38Z</time>
      </trkpt>
      <trkpt lat="43.65921" lon="3.80587">
        <ele>186</ele>
        <time>2016-05-20T11:14:52Z</time>
      </trkpt>
      <trkpt lat="43.65926" lon="3.80595">
        <ele>185.1</ele>
        <time>2016-05-20T11:14:56Z</time>
      </trkpt>
      <trkpt lat="43.65931" lon="3.80602">
        <ele>184.5</ele>
        <time>2016-05-20T11:14:59Z</time>
      </trkpt>
      <trkpt lat="43.65932" lon="3.80613">
        <ele>183.1</ele>
        <time>2016-05-20T11:15:03Z</time>
      </trkpt>
      <trkpt lat="43.6593" lon="3.80624">
        <ele>182.1</ele>
        <time>2016-05-20T11:15:06Z</time>
      </trkpt>
      <trkpt lat="43.65925" lon="3.80634">
        <ele>180.9</ele>
        <time>2016-05-20T11:15:09Z</time>
      </trkpt>
      <trkpt lat="43.65916" lon="3.80638">
        <ele>173.5</ele>
        <time>2016-05-20T11:15:11Z</time>
      </trkpt>
      <trkpt lat="43.65909" lon="3.80646">
        <ele>170.9</ele>
        <time>2016-05-20T11:15:13Z</time>
      </trkpt>
      <trkpt lat="43.65909" lon="3.80657">
        <ele>167.8</ele>
        <time>2016-05-20T11:15:16Z</time>
      </trkpt>
      <trkpt lat="43.65913" lon="3.80668">
        <ele>167.1</ele>
        <time>2016-05-20T11:15:19Z</time>
      </trkpt>
      <trkpt lat="43.65913" lon="3.80671">
        <ele>165.5</ele>
        <time>2016-05-20T11:15:26Z</time>
      </trkpt>
      <trkpt lat="43.65911" lon="3.8067">
        <ele>165.4</ele>
        <time>2016-05-20T11:15:33Z</time>
      </trkpt>
      <trkpt lat="43.65916" lon="3.80679">
        <ele>165.2</ele>
        <time>2016-05-20T11:15:38Z</time>
      </trkpt>
      <trkpt lat="43.65921" lon="3.80688">
        <ele>163.5</ele>
        <time>2016-05-20T11:15:40Z</time>
      </trkpt>
      <trkpt lat="43.65927" lon="3.80702">
        <ele>160.8</ele>
        <time>2016-05-20T11:15:42Z</time>
      </trkpt>
      <trkpt lat="43.65928" lon="3.80718">
        <ele>158.8</ele>
        <time>2016-05-20T11:15:44Z</time>
      </trkpt>
      <trkpt lat="43.65921" lon="3.80732">
        <ele>156.7</ele>
        <time>2016-05-20T11:15:46Z</time>
      </trkpt>
      <trkpt lat="43.65915" lon="3.80746">
        <ele>153.3</ele>
        <time>2016-05-20T11:15:48Z</time>
      </trkpt>
      <trkpt lat="43.65909" lon="3.80759">
        <ele>150.2</ele>
        <time>2016-05-20T11:15:50Z</time>
      </trkpt>
      <trkpt lat="43.65902" lon="3.80772">
        <ele>147.3</ele>
        <time>2016-05-20T11:15:52Z</time>
      </trkpt>
      <trkpt lat="43.6589" lon="3.80776">
        <ele>145.4</ele>
        <time>2016-05-20T11:15:54Z</time>
      </trkpt>
      <trkpt lat="43.65879" lon="3.80774">
        <ele>144</ele>
        <time>2016-05-20T11:15:56Z</time>
      </trkpt>
      <trkpt lat="43.65871" lon="3.80772">
        <ele>142.8</ele>
        <time>2016-05-20T11:15:58Z</time>
      </trkpt>
      <trkpt lat="43.65863" lon="3.80769">
        <ele>142.1</ele>
        <time>2016-05-20T11:16:00Z</time>
      </trkpt>
      <trkpt lat="43.65855" lon="3.80768">
        <ele>141.9</ele>
        <time>2016-05-20T11:16:02Z</time>
      </trkpt>
      <trkpt lat="43.65847" lon="3.8076">
        <ele>140.6</ele>
        <time>2016-05-20T11:16:04Z</time>
      </trkpt>
      <trkpt lat="43.6584" lon="3.80757">
        <ele>139.6</ele>
        <time>2016-05-20T11:16:06Z</time>
      </trkpt>
      <trkpt lat="43.65831" lon="3.80753">
        <ele>138</ele>
        <time>2016-05-20T11:16:08Z</time>
      </trkpt>
      <trkpt lat="43.65823" lon="3.80749">
        <ele>137.8</ele>
        <time>2016-05-20T11:16:10Z</time>
      </trkpt>
      <trkpt lat="43.65815" lon="3.8074">
        <ele>138.7</ele>
        <time>2016-05-20T11:16:12Z</time>
      </trkpt>
      <trkpt lat="43.65804" lon="3.80733">
        <ele>139.8</ele>
        <time>2016-05-20T11:16:14Z</time>
      </trkpt>
      <trkpt lat="43.65793" lon="3.8073">
        <ele>140.9</ele>
        <time>2016-05-20T11:16:16Z</time>
      </trkpt>
      <trkpt lat="43.65782" lon="3.80729">
        <ele>140.6</ele>
        <time>2016-05-20T11:16:18Z</time>
      </trkpt>
      <trkpt lat="43.65773" lon="3.80728">
        <ele>140.4</ele>
        <time>2016-05-20T11:16:20Z</time>
      </trkpt>
      <trkpt lat="43.65763" lon="3.80725">
        <ele>139.8</ele>
        <time>2016-05-20T11:16:22Z</time>
      </trkpt>
      <trkpt lat="43.65754" lon="3.80723">
        <ele>139.8</ele>
        <time>2016-05-20T11:16:24Z</time>
      </trkpt>
      <trkpt lat="43.65747" lon="3.80722">
        <ele>139.9</ele>
        <time>2016-05-20T11:16:26Z</time>
      </trkpt>
      <trkpt lat="43.65739" lon="3.80718">
        <ele>141.1</ele>
        <time>2016-05-20T11:16:28Z</time>
      </trkpt>
      <trkpt lat="43.65729" lon="3.80711">
        <ele>141.6</ele>
        <time>2016-05-20T11:16:30Z</time>
      </trkpt>
      <trkpt lat="43.65719" lon="3.80704">
        <ele>141.6</ele>
        <time>2016-05-20T11:16:32Z</time>
      </trkpt>
      <trkpt lat="43.65709" lon="3.80699">
        <ele>142.5</ele>
        <time>2016-05-20T11:16:34Z</time>
      </trkpt>
      <trkpt lat="43.65698" lon="3.80699">
        <ele>142.8</ele>
        <time>2016-05-20T11:16:36Z</time>
      </trkpt>
      <trkpt lat="43.65686" lon="3.80703">
        <ele>142.5</ele>
        <time>2016-05-20T11:16:38Z</time>
      </trkpt>
      <trkpt lat="43.65673" lon="3.80709">
        <ele>141.6</ele>
        <time>2016-05-20T11:16:40Z</time>
      </trkpt>
      <trkpt lat="43.65666" lon="3.80712">
        <ele>141.5</ele>
        <time>2016-05-20T11:16:41Z</time>
      </trkpt>
      <trkpt lat="43.65659" lon="3.80716">
        <ele>141.2</ele>
        <time>2016-05-20T11:16:42Z</time>
      </trkpt>
      <trkpt lat="43.65652" lon="3.8072">
        <ele>141.2</ele>
        <time>2016-05-20T11:16:43Z</time>
      </trkpt>
      <trkpt lat="43.65639" lon="3.80728">
        <ele>140.5</ele>
        <time>2016-05-20T11:16:45Z</time>
      </trkpt>
      <trkpt lat="43.65632" lon="3.80732">
        <ele>139.5</ele>
        <time>2016-05-20T11:16:46Z</time>
      </trkpt>
      <trkpt lat="43.65624" lon="3.80737">
        <ele>138.2</ele>
        <time>2016-05-20T11:16:47Z</time>
      </trkpt>
      <trkpt lat="43.65616" lon="3.80743">
        <ele>137.3</ele>
        <time>2016-05-20T11:16:48Z</time>
      </trkpt>
      <trkpt lat="43.65609" lon="3.80749">
        <ele>136.7</ele>
        <time>2016-05-20T11:16:49Z</time>
      </trkpt>
      <trkpt lat="43.65603" lon="3.80756">
        <ele>136.4</ele>
        <time>2016-05-20T11:16:50Z</time>
      </trkpt>
      <trkpt lat="43.65596" lon="3.80762">
        <ele>136.1</ele>
        <time>2016-05-20T11:16:51Z</time>
      </trkpt>
      <trkpt lat="43.6559" lon="3.80769">
        <ele>135.6</ele>
        <time>2016-05-20T11:16:52Z</time>
      </trkpt>
      <trkpt lat="43.65584" lon="3.80776">
        <ele>134.7</ele>
        <time>2016-05-20T11:16:53Z</time>
      </trkpt>
      <trkpt lat="43.65577" lon="3.80783">
        <ele>133.7</ele>
        <time>2016-05-20T11:16:54Z</time>
      </trkpt>
      <trkpt lat="43.6557" lon="3.80786">
        <ele>133</ele>
        <time>2016-05-20T11:16:55Z</time>
      </trkpt>
      <trkpt lat="43.65556" lon="3.80785">
        <ele>133</ele>
        <time>2016-05-20T11:16:57Z</time>
      </trkpt>
      <trkpt lat="43.65548" lon="3.80783">
        <ele>132.2</ele>
        <time>2016-05-20T11:16:58Z</time>
      </trkpt>
      <trkpt lat="43.65537" lon="3.80778">
        <ele>132.2</ele>
        <time>2016-05-20T11:17:00Z</time>
      </trkpt>
      <trkpt lat="43.65527" lon="3.80774">
        <ele>133</ele>
        <time>2016-05-20T11:17:02Z</time>
      </trkpt>
      <trkpt lat="43.65517" lon="3.80772">
        <ele>133.5</ele>
        <time>2016-05-20T11:17:04Z</time>
      </trkpt>
      <trkpt lat="43.65506" lon="3.80772">
        <ele>133.9</ele>
        <time>2016-05-20T11:17:06Z</time>
      </trkpt>
      <trkpt lat="43.65495" lon="3.8077">
        <ele>134.4</ele>
        <time>2016-05-20T11:17:08Z</time>
      </trkpt>
      <trkpt lat="43.65486" lon="3.80764">
        <ele>134.6</ele>
        <time>2016-05-20T11:17:09Z</time>
      </trkpt>
      <trkpt lat="43.65473" lon="3.80757">
        <ele>134.1</ele>
        <time>2016-05-20T11:17:11Z</time>
      </trkpt>
      <trkpt lat="43.65465" lon="3.80755">
        <ele>133.5</ele>
        <time>2016-05-20T11:17:12Z</time>
      </trkpt>
      <trkpt lat="43.65451" lon="3.80754">
        <ele>133.4</ele>
        <time>2016-05-20T11:17:14Z</time>
      </trkpt>
      <trkpt lat="43.65439" lon="3.80754">
        <ele>133.8</ele>
        <time>2016-05-20T11:17:16Z</time>
      </trkpt>
      <trkpt lat="43.65427" lon="3.80754">
        <ele>133</ele>
        <time>2016-05-20T11:17:18Z</time>
      </trkpt>
      <trkpt lat="43.65416" lon="3.80752">
        <ele>132.5</ele>
        <time>2016-05-20T11:17:20Z</time>
      </trkpt>
      <trkpt lat="43.65405" lon="3.80748">
        <ele>132.6</ele>
        <time>2016-05-20T11:17:22Z</time>
      </trkpt>
      <trkpt lat="43.65395" lon="3.80745">
        <ele>131.8</ele>
        <time>2016-05-20T11:17:24Z</time>
      </trkpt>
      <trkpt lat="43.65383" lon="3.80741">
        <ele>131.7</ele>
        <time>2016-05-20T11:17:26Z</time>
      </trkpt>
      <trkpt lat="43.6537" lon="3.80738">
        <ele>131.3</ele>
        <time>2016-05-20T11:17:28Z</time>
      </trkpt>
      <trkpt lat="43.65357" lon="3.80735">
        <ele>132.5</ele>
        <time>2016-05-20T11:17:30Z</time>
      </trkpt>
      <trkpt lat="43.65346" lon="3.80737">
        <ele>133.3</ele>
        <time>2016-05-20T11:17:32Z</time>
      </trkpt>
      <trkpt lat="43.65339" lon="3.80751">
        <ele>132.5</ele>
        <time>2016-05-20T11:17:34Z</time>
      </trkpt>
      <trkpt lat="43.65333" lon="3.80766">
        <ele>129.8</ele>
        <time>2016-05-20T11:17:36Z</time>
      </trkpt>
      <trkpt lat="43.65329" lon="3.80774">
        <ele>129.1</ele>
        <time>2016-05-20T11:17:37Z</time>
      </trkpt>
      <trkpt lat="43.65325" lon="3.80783">
        <ele>128.8</ele>
        <time>2016-05-20T11:17:38Z</time>
      </trkpt>
      <trkpt lat="43.65321" lon="3.80791">
        <ele>128.5</ele>
        <time>2016-05-20T11:17:39Z</time>
      </trkpt>
      <trkpt lat="43.65317" lon="3.80801">
        <ele>128</ele>
        <time>2016-05-20T11:17:40Z</time>
      </trkpt>
      <trkpt lat="43.65309" lon="3.80814">
        <ele>126.8</ele>
        <time>2016-05-20T11:17:42Z</time>
      </trkpt>
      <trkpt lat="43.65303" lon="3.80828">
        <ele>125.5</ele>
        <time>2016-05-20T11:17:44Z</time>
      </trkpt>
      <trkpt lat="43.65297" lon="3.80842">
        <ele>123.8</ele>
        <time>2016-05-20T11:17:46Z</time>
      </trkpt>
      <trkpt lat="43.6529" lon="3.80857">
        <ele>122.9</ele>
        <time>2016-05-20T11:17:48Z</time>
      </trkpt>
      <trkpt lat="43.65283" lon="3.80872">
        <ele>121.3</ele>
        <time>2016-05-20T11:17:50Z</time>
      </trkpt>
      <trkpt lat="43.65276" lon="3.80885">
        <ele>120.6</ele>
        <time>2016-05-20T11:17:52Z</time>
      </trkpt>
      <trkpt lat="43.65269" lon="3.80901">
        <ele>120.1</ele>
        <time>2016-05-20T11:17:54Z</time>
      </trkpt>
      <trkpt lat="43.65262" lon="3.80915">
        <ele>120.4</ele>
        <time>2016-05-20T11:17:56Z</time>
      </trkpt>
      <trkpt lat="43.65257" lon="3.80926">
        <ele>121.3</ele>
        <time>2016-05-20T11:17:58Z</time>
      </trkpt>
      <trkpt lat="43.65252" lon="3.80935">
        <ele>121.4</ele>
        <time>2016-05-20T11:18:00Z</time>
      </trkpt>
      <trkpt lat="43.65248" lon="3.80946">
        <ele>121.5</ele>
        <time>2016-05-20T11:18:03Z</time>
      </trkpt>
      <trkpt lat="43.65246" lon="3.80956">
        <ele>121.5</ele>
        <time>2016-05-20T11:18:05Z</time>
      </trkpt>
      <trkpt lat="43.6524" lon="3.80971">
        <ele>120.4</ele>
        <time>2016-05-20T11:18:08Z</time>
      </trkpt>
      <trkpt lat="43.65236" lon="3.8098">
        <ele>119.8</ele>
        <time>2016-05-20T11:18:10Z</time>
      </trkpt>
      <trkpt lat="43.65232" lon="3.80989">
        <ele>119.5</ele>
        <time>2016-05-20T11:18:12Z</time>
      </trkpt>
      <trkpt lat="43.65227" lon="3.80999">
        <ele>119</ele>
        <time>2016-05-20T11:18:14Z</time>
      </trkpt>
      <trkpt lat="43.65221" lon="3.8101">
        <ele>117.8</ele>
        <time>2016-05-20T11:18:16Z</time>
      </trkpt>
      <trkpt lat="43.65214" lon="3.81022">
        <ele>117</ele>
        <time>2016-05-20T11:18:18Z</time>
      </trkpt>
      <trkpt lat="43.65209" lon="3.81032">
        <ele>115.8</ele>
        <time>2016-05-20T11:18:20Z</time>
      </trkpt>
      <trkpt lat="43.65202" lon="3.81043">
        <ele>115.1</ele>
        <time>2016-05-20T11:18:22Z</time>
      </trkpt>
      <trkpt lat="43.65197" lon="3.8105">
        <ele>114.7</ele>
        <time>2016-05-20T11:18:24Z</time>
      </trkpt>
      <trkpt lat="43.65192" lon="3.81059">
        <ele>116.2</ele>
        <time>2016-05-20T11:18:26Z</time>
      </trkpt>
      <trkpt lat="43.65186" lon="3.81068">
        <ele>116.4</ele>
        <time>2016-05-20T11:18:28Z</time>
      </trkpt>
      <trkpt lat="43.65181" lon="3.81077">
        <ele>116.5</ele>
        <time>2016-05-20T11:18:30Z</time>
      </trkpt>
      <trkpt lat="43.65176" lon="3.81087">
        <ele>116.8</ele>
        <time>2016-05-20T11:18:32Z</time>
      </trkpt>
      <trkpt lat="43.65171" lon="3.811">
        <ele>116.7</ele>
        <time>2016-05-20T11:18:35Z</time>
      </trkpt>
      <trkpt lat="43.65167" lon="3.81112">
        <ele>116.8</ele>
        <time>2016-05-20T11:18:38Z</time>
      </trkpt>
      <trkpt lat="43.65168" lon="3.81123">
        <ele>116.9</ele>
        <time>2016-05-20T11:18:41Z</time>
      </trkpt>
      <trkpt lat="43.65172" lon="3.81137">
        <ele>117.1</ele>
        <time>2016-05-20T11:18:45Z</time>
      </trkpt>
      <trkpt lat="43.65177" lon="3.81146">
        <ele>117.2</ele>
        <time>2016-05-20T11:18:47Z</time>
      </trkpt>
      <trkpt lat="43.65184" lon="3.81157">
        <ele>117.5</ele>
        <time>2016-05-20T11:18:51Z</time>
      </trkpt>
      <trkpt lat="43.6519" lon="3.81162">
        <ele>117.9</ele>
        <time>2016-05-20T11:18:54Z</time>
      </trkpt>
      <trkpt lat="43.65198" lon="3.8117">
        <ele>118.3</ele>
        <time>2016-05-20T11:18:57Z</time>
      </trkpt>
      <trkpt lat="43.65206" lon="3.81177">
        <ele>118.8</ele>
        <time>2016-05-20T11:19:00Z</time>
      </trkpt>
      <trkpt lat="43.65214" lon="3.81185">
        <ele>119.1</ele>
        <time>2016-05-20T11:19:03Z</time>
      </trkpt>
      <trkpt lat="43.65222" lon="3.81191">
        <ele>122</ele>
        <time>2016-05-20T11:19:05Z</time>
      </trkpt>
      <trkpt lat="43.65228" lon="3.81202">
        <ele>122.2</ele>
        <time>2016-05-20T11:19:08Z</time>
      </trkpt>
      <trkpt lat="43.65232" lon="3.81217">
        <ele>121.2</ele>
        <time>2016-05-20T11:19:11Z</time>
      </trkpt>
      <trkpt lat="43.65233" lon="3.81236">
        <ele>119.5</ele>
        <time>2016-05-20T11:19:13Z</time>
      </trkpt>
      <trkpt lat="43.65235" lon="3.81253">
        <ele>117.9</ele>
        <time>2016-05-20T11:19:15Z</time>
      </trkpt>
      <trkpt lat="43.65237" lon="3.81269">
        <ele>115.8</ele>
        <time>2016-05-20T11:19:17Z</time>
      </trkpt>
      <trkpt lat="43.6524" lon="3.81284">
        <ele>115.3</ele>
        <time>2016-05-20T11:19:19Z</time>
      </trkpt>
      <trkpt lat="43.65242" lon="3.81295">
        <ele>115.4</ele>
        <time>2016-05-20T11:19:21Z</time>
      </trkpt>
      <trkpt lat="43.65245" lon="3.81305">
        <ele>115.4</ele>
        <time>2016-05-20T11:19:24Z</time>
      </trkpt>
      <trkpt lat="43.65253" lon="3.81306">
        <ele>115.3</ele>
        <time>2016-05-20T11:19:28Z</time>
      </trkpt>
      <trkpt lat="43.65259" lon="3.81318">
        <ele>115.2</ele>
        <time>2016-05-20T11:19:31Z</time>
      </trkpt>
      <trkpt lat="43.65262" lon="3.81328">
        <ele>115.2</ele>
        <time>2016-05-20T11:19:33Z</time>
      </trkpt>
      <trkpt lat="43.65265" lon="3.81338">
        <ele>115.2</ele>
        <time>2016-05-20T11:19:35Z</time>
      </trkpt>
      <trkpt lat="43.65266" lon="3.81349">
        <ele>115.3</ele>
        <time>2016-05-20T11:19:38Z</time>
      </trkpt>
      <trkpt lat="43.65266" lon="3.81361">
        <ele>115.2</ele>
        <time>2016-05-20T11:19:40Z</time>
      </trkpt>
      <trkpt lat="43.65269" lon="3.81374">
        <ele>115.1</ele>
        <time>2016-05-20T11:19:43Z</time>
      </trkpt>
      <trkpt lat="43.6527" lon="3.81385">
        <ele>114.9</ele>
        <time>2016-05-20T11:19:46Z</time>
      </trkpt>
      <trkpt lat="43.65272" lon="3.81395">
        <ele>115.2</ele>
        <time>2016-05-20T11:19:49Z</time>
      </trkpt>
      <trkpt lat="43.65273" lon="3.81405">
        <ele>115.5</ele>
        <time>2016-05-20T11:19:52Z</time>
      </trkpt>
      <trkpt lat="43.65274" lon="3.81416">
        <ele>115.8</ele>
        <time>2016-05-20T11:19:55Z</time>
      </trkpt>
      <trkpt lat="43.65275" lon="3.81428">
        <ele>116</ele>
        <time>2016-05-20T11:19:57Z</time>
      </trkpt>
      <trkpt lat="43.65275" lon="3.81439">
        <ele>116.2</ele>
        <time>2016-05-20T11:19:59Z</time>
      </trkpt>
      <trkpt lat="43.65275" lon="3.8145">
        <ele>116.5</ele>
        <time>2016-05-20T11:20:01Z</time>
      </trkpt>
      <trkpt lat="43.65277" lon="3.8146">
        <ele>116.7</ele>
        <time>2016-05-20T11:20:03Z</time>
      </trkpt>
      <trkpt lat="43.65281" lon="3.81473">
        <ele>118.5</ele>
        <time>2016-05-20T11:20:06Z</time>
      </trkpt>
      <trkpt lat="43.65285" lon="3.81484">
        <ele>118.6</ele>
        <time>2016-05-20T11:20:09Z</time>
      </trkpt>
      <trkpt lat="43.65289" lon="3.81494">
        <ele>118.6</ele>
        <time>2016-05-20T11:20:11Z</time>
      </trkpt>
      <trkpt lat="43.65291" lon="3.81504">
        <ele>118.6</ele>
        <time>2016-05-20T11:20:13Z</time>
      </trkpt>
      <trkpt lat="43.65294" lon="3.81514">
        <ele>118.6</ele>
        <time>2016-05-20T11:20:15Z</time>
      </trkpt>
      <trkpt lat="43.65297" lon="3.81524">
        <ele>120.1</ele>
        <time>2016-05-20T11:20:17Z</time>
      </trkpt>
      <trkpt lat="43.653" lon="3.81534">
        <ele>120.5</ele>
        <time>2016-05-20T11:20:19Z</time>
      </trkpt>
      <trkpt lat="43.65304" lon="3.81544">
        <ele>119.3</ele>
        <time>2016-05-20T11:20:21Z</time>
      </trkpt>
      <trkpt lat="43.65306" lon="3.81555">
        <ele>118</ele>
        <time>2016-05-20T11:20:23Z</time>
      </trkpt>
      <trkpt lat="43.65308" lon="3.81566">
        <ele>118.7</ele>
        <time>2016-05-20T11:20:25Z</time>
      </trkpt>
      <trkpt lat="43.6531" lon="3.81576">
        <ele>118.8</ele>
        <time>2016-05-20T11:20:27Z</time>
      </trkpt>
      <trkpt lat="43.6531" lon="3.8159">
        <ele>119</ele>
        <time>2016-05-20T11:20:30Z</time>
      </trkpt>
      <trkpt lat="43.65311" lon="3.81602">
        <ele>119.2</ele>
        <time>2016-05-20T11:20:33Z</time>
      </trkpt>
      <trkpt lat="43.65314" lon="3.81614">
        <ele>120</ele>
        <time>2016-05-20T11:20:35Z</time>
      </trkpt>
      <trkpt lat="43.65317" lon="3.81624">
        <ele>120.2</ele>
        <time>2016-05-20T11:20:37Z</time>
      </trkpt>
      <trkpt lat="43.6532" lon="3.81635">
        <ele>120.3</ele>
        <time>2016-05-20T11:20:39Z</time>
      </trkpt>
      <trkpt lat="43.65323" lon="3.81645">
        <ele>120.6</ele>
        <time>2016-05-20T11:20:41Z</time>
      </trkpt>
      <trkpt lat="43.65326" lon="3.81656">
        <ele>121.9</ele>
        <time>2016-05-20T11:20:43Z</time>
      </trkpt>
      <trkpt lat="43.6533" lon="3.81667">
        <ele>123.4</ele>
        <time>2016-05-20T11:20:45Z</time>
      </trkpt>
      <trkpt lat="43.65334" lon="3.81677">
        <ele>125.1</ele>
        <time>2016-05-20T11:20:47Z</time>
      </trkpt>
      <trkpt lat="43.65338" lon="3.81688">
        <ele>126</ele>
        <time>2016-05-20T11:20:49Z</time>
      </trkpt>
      <trkpt lat="43.65343" lon="3.81701">
        <ele>126.4</ele>
        <time>2016-05-20T11:20:51Z</time>
      </trkpt>
      <trkpt lat="43.65347" lon="3.81711">
        <ele>126.4</ele>
        <time>2016-05-20T11:20:53Z</time>
      </trkpt>
      <trkpt lat="43.65352" lon="3.81725">
        <ele>126.5</ele>
        <time>2016-05-20T11:20:55Z</time>
      </trkpt>
      <trkpt lat="43.65358" lon="3.8174">
        <ele>126.7</ele>
        <time>2016-05-20T11:20:57Z</time>
      </trkpt>
      <trkpt lat="43.65362" lon="3.81753">
        <ele>127.1</ele>
        <time>2016-05-20T11:20:59Z</time>
      </trkpt>
      <trkpt lat="43.65368" lon="3.81762">
        <ele>127.3</ele>
        <time>2016-05-20T11:21:02Z</time>
      </trkpt>
      <trkpt lat="43.65375" lon="3.81771">
        <ele>129</ele>
        <time>2016-05-20T11:21:05Z</time>
      </trkpt>
      <trkpt lat="43.6538" lon="3.8178">
        <ele>130.2</ele>
        <time>2016-05-20T11:21:07Z</time>
      </trkpt>
      <trkpt lat="43.65386" lon="3.81788">
        <ele>130.4</ele>
        <time>2016-05-20T11:21:09Z</time>
      </trkpt>
      <trkpt lat="43.65392" lon="3.81806">
        <ele>130.2</ele>
        <time>2016-05-20T11:21:11Z</time>
      </trkpt>
      <trkpt lat="43.65394" lon="3.81815">
        <ele>129.8</ele>
        <time>2016-05-20T11:21:12Z</time>
      </trkpt>
      <trkpt lat="43.65398" lon="3.81832">
        <ele>128.4</ele>
        <time>2016-05-20T11:21:14Z</time>
      </trkpt>
      <trkpt lat="43.65402" lon="3.81842">
        <ele>128.5</ele>
        <time>2016-05-20T11:21:15Z</time>
      </trkpt>
      <trkpt lat="43.65404" lon="3.81852">
        <ele>128.5</ele>
        <time>2016-05-20T11:21:16Z</time>
      </trkpt>
      <trkpt lat="43.65404" lon="3.81868">
        <ele>127.8</ele>
        <time>2016-05-20T11:21:18Z</time>
      </trkpt>
      <trkpt lat="43.65406" lon="3.81882">
        <ele>127.2</ele>
        <time>2016-05-20T11:21:20Z</time>
      </trkpt>
      <trkpt lat="43.65411" lon="3.81895">
        <ele>126.9</ele>
        <time>2016-05-20T11:21:22Z</time>
      </trkpt>
      <trkpt lat="43.65413" lon="3.81911">
        <ele>126</ele>
        <time>2016-05-20T11:21:25Z</time>
      </trkpt>
      <trkpt lat="43.65415" lon="3.81922">
        <ele>125</ele>
        <time>2016-05-20T11:21:27Z</time>
      </trkpt>
      <trkpt lat="43.6542" lon="3.81934">
        <ele>124.8</ele>
        <time>2016-05-20T11:21:29Z</time>
      </trkpt>
      <trkpt lat="43.65424" lon="3.81944">
        <ele>123.9</ele>
        <time>2016-05-20T11:21:31Z</time>
      </trkpt>
      <trkpt lat="43.65428" lon="3.81954">
        <ele>123.9</ele>
        <time>2016-05-20T11:21:33Z</time>
      </trkpt>
      <trkpt lat="43.65429" lon="3.81966">
        <ele>124</ele>
        <time>2016-05-20T11:21:35Z</time>
      </trkpt>
      <trkpt lat="43.65423" lon="3.81977">
        <ele>124</ele>
        <time>2016-05-20T11:21:38Z</time>
      </trkpt>
      <trkpt lat="43.65415" lon="3.81981">
        <ele>124.1</ele>
        <time>2016-05-20T11:21:42Z</time>
      </trkpt>
      <trkpt lat="43.6541" lon="3.81989">
        <ele>124.8</ele>
        <time>2016-05-20T11:21:44Z</time>
      </trkpt>
      <trkpt lat="43.65405" lon="3.82">
        <ele>124.9</ele>
        <time>2016-05-20T11:21:47Z</time>
      </trkpt>
      <trkpt lat="43.654" lon="3.82009">
        <ele>125.1</ele>
        <time>2016-05-20T11:21:50Z</time>
      </trkpt>
      <trkpt lat="43.65395" lon="3.82016">
        <ele>125.3</ele>
        <time>2016-05-20T11:21:52Z</time>
      </trkpt>
      <trkpt lat="43.65391" lon="3.82028">
        <ele>125.5</ele>
        <time>2016-05-20T11:21:55Z</time>
      </trkpt>
      <trkpt lat="43.65388" lon="3.82039">
        <ele>125.8</ele>
        <time>2016-05-20T11:21:57Z</time>
      </trkpt>
      <trkpt lat="43.65391" lon="3.82048">
        <ele>126.3</ele>
        <time>2016-05-20T11:22:00Z</time>
      </trkpt>
      <trkpt lat="43.65394" lon="3.82058">
        <ele>126.7</ele>
        <time>2016-05-20T11:22:03Z</time>
      </trkpt>
      <trkpt lat="43.65401" lon="3.82069">
        <ele>126.8</ele>
        <time>2016-05-20T11:22:06Z</time>
      </trkpt>
      <trkpt lat="43.65407" lon="3.8208">
        <ele>127.6</ele>
        <time>2016-05-20T11:22:08Z</time>
      </trkpt>
      <trkpt lat="43.65414" lon="3.8209">
        <ele>127.4</ele>
        <time>2016-05-20T11:22:10Z</time>
      </trkpt>
      <trkpt lat="43.65414" lon="3.82106">
        <ele>127</ele>
        <time>2016-05-20T11:22:12Z</time>
      </trkpt>
      <trkpt lat="43.6541" lon="3.82121">
        <ele>126.2</ele>
        <time>2016-05-20T11:22:14Z</time>
      </trkpt>
      <trkpt lat="43.65409" lon="3.82137">
        <ele>127</ele>
        <time>2016-05-20T11:22:16Z</time>
      </trkpt>
      <trkpt lat="43.65407" lon="3.82148">
        <ele>128.3</ele>
        <time>2016-05-20T11:22:18Z</time>
      </trkpt>
      <trkpt lat="43.65405" lon="3.82162">
        <ele>129.8</ele>
        <time>2016-05-20T11:22:20Z</time>
      </trkpt>
      <trkpt lat="43.65402" lon="3.82177">
        <ele>130.7</ele>
        <time>2016-05-20T11:22:22Z</time>
      </trkpt>
      <trkpt lat="43.65399" lon="3.8219">
        <ele>131.2</ele>
        <time>2016-05-20T11:22:24Z</time>
      </trkpt>
      <trkpt lat="43.65392" lon="3.822">
        <ele>130.9</ele>
        <time>2016-05-20T11:22:26Z</time>
      </trkpt>
      <trkpt lat="43.65383" lon="3.82207">
        <ele>130.8</ele>
        <time>2016-05-20T11:22:28Z</time>
      </trkpt>
      <trkpt lat="43.65375" lon="3.82211">
        <ele>131</ele>
        <time>2016-05-20T11:22:30Z</time>
      </trkpt>
      <trkpt lat="43.65368" lon="3.82222">
        <ele>131.1</ele>
        <time>2016-05-20T11:22:33Z</time>
      </trkpt>
      <trkpt lat="43.65363" lon="3.82231">
        <ele>131.1</ele>
        <time>2016-05-20T11:22:36Z</time>
      </trkpt>
      <trkpt lat="43.65361" lon="3.82243">
        <ele>131.4</ele>
        <time>2016-05-20T11:22:40Z</time>
      </trkpt>
      <trkpt lat="43.6536" lon="3.82256">
        <ele>131.6</ele>
        <time>2016-05-20T11:22:43Z</time>
      </trkpt>
      <trkpt lat="43.65358" lon="3.82269">
        <ele>131.7</ele>
        <time>2016-05-20T11:22:46Z</time>
      </trkpt>
      <trkpt lat="43.65357" lon="3.82282">
        <ele>131.6</ele>
        <time>2016-05-20T11:22:49Z</time>
      </trkpt>
      <trkpt lat="43.65356" lon="3.82296">
        <ele>131.8</ele>
        <time>2016-05-20T11:22:52Z</time>
      </trkpt>
      <trkpt lat="43.65356" lon="3.82309">
        <ele>131.9</ele>
        <time>2016-05-20T11:22:55Z</time>
      </trkpt>
      <trkpt lat="43.65352" lon="3.8232">
        <ele>131.9</ele>
        <time>2016-05-20T11:22:58Z</time>
      </trkpt>
      <trkpt lat="43.65351" lon="3.82331">
        <ele>131.9</ele>
        <time>2016-05-20T11:23:01Z</time>
      </trkpt>
      <trkpt lat="43.65349" lon="3.82345">
        <ele>131.9</ele>
        <time>2016-05-20T11:23:04Z</time>
      </trkpt>
      <trkpt lat="43.65347" lon="3.82354">
        <ele>131.8</ele>
        <time>2016-05-20T11:23:06Z</time>
      </trkpt>
      <trkpt lat="43.65345" lon="3.82365">
        <ele>131.6</ele>
        <time>2016-05-20T11:23:09Z</time>
      </trkpt>
      <trkpt lat="43.65343" lon="3.82377">
        <ele>131.5</ele>
        <time>2016-05-20T11:23:12Z</time>
      </trkpt>
      <trkpt lat="43.65342" lon="3.82388">
        <ele>131.5</ele>
        <time>2016-05-20T11:23:15Z</time>
      </trkpt>
      <trkpt lat="43.65341" lon="3.82401">
        <ele>131.6</ele>
        <time>2016-05-20T11:23:19Z</time>
      </trkpt>
      <trkpt lat="43.6534" lon="3.82414">
        <ele>131.8</ele>
        <time>2016-05-20T11:23:22Z</time>
      </trkpt>
      <trkpt lat="43.65341" lon="3.82426">
        <ele>132.2</ele>
        <time>2016-05-20T11:23:25Z</time>
      </trkpt>
      <trkpt lat="43.6534" lon="3.82438">
        <ele>132.6</ele>
        <time>2016-05-20T11:23:28Z</time>
      </trkpt>
      <trkpt lat="43.65337" lon="3.82447">
        <ele>132.8</ele>
        <time>2016-05-20T11:23:30Z</time>
      </trkpt>
      <trkpt lat="43.65334" lon="3.82457">
        <ele>133.4</ele>
        <time>2016-05-20T11:23:34Z</time>
      </trkpt>
      <trkpt lat="43.65329" lon="3.82468">
        <ele>134</ele>
        <time>2016-05-20T11:23:38Z</time>
      </trkpt>
      <trkpt lat="43.65327" lon="3.82479">
        <ele>134.6</ele>
        <time>2016-05-20T11:23:42Z</time>
      </trkpt>
      <trkpt lat="43.65326" lon="3.82489">
        <ele>135</ele>
        <time>2016-05-20T11:23:45Z</time>
      </trkpt>
      <trkpt lat="43.65325" lon="3.825">
        <ele>135.8</ele>
        <time>2016-05-20T11:23:49Z</time>
      </trkpt>
      <trkpt lat="43.65323" lon="3.82511">
        <ele>137</ele>
        <time>2016-05-20T11:23:53Z</time>
      </trkpt>
      <trkpt lat="43.65323" lon="3.82521">
        <ele>138.3</ele>
        <time>2016-05-20T11:23:57Z</time>
      </trkpt>
      <trkpt lat="43.65325" lon="3.82533">
        <ele>139.3</ele>
        <time>2016-05-20T11:24:03Z</time>
      </trkpt>
      <trkpt lat="43.65326" lon="3.82544">
        <ele>140.5</ele>
        <time>2016-05-20T11:24:10Z</time>
      </trkpt>
      <trkpt lat="43.65329" lon="3.82555">
        <ele>141.5</ele>
        <time>2016-05-20T11:24:16Z</time>
      </trkpt>
      <trkpt lat="43.65327" lon="3.82566">
        <ele>142.1</ele>
        <time>2016-05-20T11:24:20Z</time>
      </trkpt>
      <trkpt lat="43.6532" lon="3.82566">
        <ele>143.3</ele>
        <time>2016-05-20T11:24:27Z</time>
      </trkpt>
      <trkpt lat="43.65309" lon="3.82566">
        <ele>144.3</ele>
        <time>2016-05-20T11:24:33Z</time>
      </trkpt>
      <trkpt lat="43.65302" lon="3.82567">
        <ele>145.6</ele>
        <time>2016-05-20T11:24:39Z</time>
      </trkpt>
      <trkpt lat="43.65294" lon="3.82568">
        <ele>146.8</ele>
        <time>2016-05-20T11:24:46Z</time>
      </trkpt>
      <trkpt lat="43.65287" lon="3.82567">
        <ele>147.9</ele>
        <time>2016-05-20T11:24:53Z</time>
      </trkpt>
      <trkpt lat="43.65278" lon="3.82568">
        <ele>148.7</ele>
        <time>2016-05-20T11:24:58Z</time>
      </trkpt>
      <trkpt lat="43.6527" lon="3.82569">
        <ele>150.2</ele>
        <time>2016-05-20T11:25:04Z</time>
      </trkpt>
      <trkpt lat="43.65262" lon="3.82566">
        <ele>151.5</ele>
        <time>2016-05-20T11:25:09Z</time>
      </trkpt>
      <trkpt lat="43.65254" lon="3.82568">
        <ele>152.9</ele>
        <time>2016-05-20T11:25:14Z</time>
      </trkpt>
      <trkpt lat="43.65247" lon="3.82575">
        <ele>153.9</ele>
        <time>2016-05-20T11:25:18Z</time>
      </trkpt>
      <trkpt lat="43.65244" lon="3.82579">
        <ele>156.2</ele>
        <time>2016-05-20T11:25:25Z</time>
      </trkpt>
      <trkpt lat="43.6524" lon="3.82591">
        <ele>156.8</ele>
        <time>2016-05-20T11:25:27Z</time>
      </trkpt>
      <trkpt lat="43.65234" lon="3.826">
        <ele>157.7</ele>
        <time>2016-05-20T11:25:31Z</time>
      </trkpt>
      <trkpt lat="43.65226" lon="3.82598">
        <ele>159</ele>
        <time>2016-05-20T11:25:37Z</time>
      </trkpt>
      <trkpt lat="43.65219" lon="3.82594">
        <ele>160</ele>
        <time>2016-05-20T11:25:42Z</time>
      </trkpt>
      <trkpt lat="43.65213" lon="3.82587">
        <ele>161.1</ele>
        <time>2016-05-20T11:25:49Z</time>
      </trkpt>
      <trkpt lat="43.65204" lon="3.8258">
        <ele>161.6</ele>
        <time>2016-05-20T11:25:53Z</time>
      </trkpt>
      <trkpt lat="43.65198" lon="3.82574">
        <ele>162.1</ele>
        <time>2016-05-20T11:25:57Z</time>
      </trkpt>
      <trkpt lat="43.65193" lon="3.82566">
        <ele>162.1</ele>
        <time>2016-05-20T11:26:01Z</time>
      </trkpt>
      <trkpt lat="43.65187" lon="3.82557">
        <ele>162.1</ele>
        <time>2016-05-20T11:26:05Z</time>
      </trkpt>
      <trkpt lat="43.6518" lon="3.82549">
        <ele>163</ele>
        <time>2016-05-20T11:26:11Z</time>
      </trkpt>
      <trkpt lat="43.65178" lon="3.82542">
        <ele>164.2</ele>
        <time>2016-05-20T11:26:18Z</time>
      </trkpt>
      <trkpt lat="43.65171" lon="3.82532">
        <ele>164.4</ele>
        <time>2016-05-20T11:27:04Z</time>
      </trkpt>
      <trkpt lat="43.65164" lon="3.82525">
        <ele>164.8</ele>
        <time>2016-05-20T11:27:07Z</time>
      </trkpt>
      <trkpt lat="43.65159" lon="3.82515">
        <ele>165.3</ele>
        <time>2016-05-20T11:27:11Z</time>
      </trkpt>
      <trkpt lat="43.65153" lon="3.82505">
        <ele>165.4</ele>
        <time>2016-05-20T11:27:16Z</time>
      </trkpt>
      <trkpt lat="43.65148" lon="3.82496">
        <ele>165</ele>
        <time>2016-05-20T11:27:21Z</time>
      </trkpt>
      <trkpt lat="43.65146" lon="3.82495">
        <ele>164.7</ele>
        <time>2016-05-20T11:27:28Z</time>
      </trkpt>
      <trkpt lat="43.65141" lon="3.82504">
        <ele>164.6</ele>
        <time>2016-05-20T11:27:34Z</time>
      </trkpt>
      <trkpt lat="43.65135" lon="3.82512">
        <ele>164.8</ele>
        <time>2016-05-20T11:27:38Z</time>
      </trkpt>
      <trkpt lat="43.65129" lon="3.8252">
        <ele>165.2</ele>
        <time>2016-05-20T11:27:42Z</time>
      </trkpt>
      <trkpt lat="43.65122" lon="3.82529">
        <ele>165.5</ele>
        <time>2016-05-20T11:27:46Z</time>
      </trkpt>
      <trkpt lat="43.65116" lon="3.82536">
        <ele>165.8</ele>
        <time>2016-05-20T11:27:49Z</time>
      </trkpt>
      <trkpt lat="43.65109" lon="3.82545">
        <ele>166</ele>
        <time>2016-05-20T11:27:52Z</time>
      </trkpt>
      <trkpt lat="43.65102" lon="3.82556">
        <ele>166.3</ele>
        <time>2016-05-20T11:27:55Z</time>
      </trkpt>
      <trkpt lat="43.65098" lon="3.82567">
        <ele>166.6</ele>
        <time>2016-05-20T11:27:58Z</time>
      </trkpt>
      <trkpt lat="43.65091" lon="3.82576">
        <ele>166.8</ele>
        <time>2016-05-20T11:28:01Z</time>
      </trkpt>
      <trkpt lat="43.6508" lon="3.82581">
        <ele>167</ele>
        <time>2016-05-20T11:28:04Z</time>
      </trkpt>
      <trkpt lat="43.65073" lon="3.82584">
        <ele>168.6</ele>
        <time>2016-05-20T11:28:06Z</time>
      </trkpt>
      <trkpt lat="43.65065" lon="3.82586">
        <ele>168.7</ele>
        <time>2016-05-20T11:28:08Z</time>
      </trkpt>
      <trkpt lat="43.65056" lon="3.82587">
        <ele>168.1</ele>
        <time>2016-05-20T11:28:10Z</time>
      </trkpt>
      <trkpt lat="43.65046" lon="3.82588">
        <ele>168.6</ele>
        <time>2016-05-20T11:28:12Z</time>
      </trkpt>
      <trkpt lat="43.65035" lon="3.82589">
        <ele>168.4</ele>
        <time>2016-05-20T11:28:14Z</time>
      </trkpt>
      <trkpt lat="43.65024" lon="3.8259">
        <ele>169.1</ele>
        <time>2016-05-20T11:28:16Z</time>
      </trkpt>
      <trkpt lat="43.65014" lon="3.82592">
        <ele>168.4</ele>
        <time>2016-05-20T11:28:18Z</time>
      </trkpt>
      <trkpt lat="43.65002" lon="3.82593">
        <ele>167.5</ele>
        <time>2016-05-20T11:28:20Z</time>
      </trkpt>
      <trkpt lat="43.6499" lon="3.82594">
        <ele>165.9</ele>
        <time>2016-05-20T11:28:22Z</time>
      </trkpt>
      <trkpt lat="43.64979" lon="3.82595">
        <ele>165.7</ele>
        <time>2016-05-20T11:28:24Z</time>
      </trkpt>
      <trkpt lat="43.64969" lon="3.82597">
        <ele>166.4</ele>
        <time>2016-05-20T11:28:26Z</time>
      </trkpt>
      <trkpt lat="43.64956" lon="3.82597">
        <ele>165.4</ele>
        <time>2016-05-20T11:28:28Z</time>
      </trkpt>
      <trkpt lat="43.64943" lon="3.82595">
        <ele>165.2</ele>
        <time>2016-05-20T11:28:30Z</time>
      </trkpt>
      <trkpt lat="43.6493" lon="3.82596">
        <ele>164.4</ele>
        <time>2016-05-20T11:28:32Z</time>
      </trkpt>
      <trkpt lat="43.64919" lon="3.82598">
        <ele>163.5</ele>
        <time>2016-05-20T11:28:34Z</time>
      </trkpt>
      <trkpt lat="43.64908" lon="3.82599">
        <ele>163</ele>
        <time>2016-05-20T11:28:36Z</time>
      </trkpt>
      <trkpt lat="43.64895" lon="3.826">
        <ele>162.5</ele>
        <time>2016-05-20T11:28:38Z</time>
      </trkpt>
      <trkpt lat="43.64881" lon="3.82599">
        <ele>161.9</ele>
        <time>2016-05-20T11:28:40Z</time>
      </trkpt>
      <trkpt lat="43.64868" lon="3.82599">
        <ele>161.6</ele>
        <time>2016-05-20T11:28:42Z</time>
      </trkpt>
      <trkpt lat="43.64856" lon="3.82596">
        <ele>161</ele>
        <time>2016-05-20T11:28:44Z</time>
      </trkpt>
      <trkpt lat="43.64845" lon="3.82594">
        <ele>161.6</ele>
        <time>2016-05-20T11:28:46Z</time>
      </trkpt>
      <trkpt lat="43.64835" lon="3.82597">
        <ele>160.7</ele>
        <time>2016-05-20T11:28:48Z</time>
      </trkpt>
      <trkpt lat="43.64824" lon="3.826">
        <ele>160.1</ele>
        <time>2016-05-20T11:28:50Z</time>
      </trkpt>
      <trkpt lat="43.64812" lon="3.82602">
        <ele>159.5</ele>
        <time>2016-05-20T11:28:52Z</time>
      </trkpt>
      <trkpt lat="43.64801" lon="3.82603">
        <ele>158.8</ele>
        <time>2016-05-20T11:28:54Z</time>
      </trkpt>
      <trkpt lat="43.64792" lon="3.82609">
        <ele>158.2</ele>
        <time>2016-05-20T11:28:56Z</time>
      </trkpt>
      <trkpt lat="43.64782" lon="3.82616">
        <ele>157.9</ele>
        <time>2016-05-20T11:28:58Z</time>
      </trkpt>
      <trkpt lat="43.64771" lon="3.82621">
        <ele>158.1</ele>
        <time>2016-05-20T11:29:00Z</time>
      </trkpt>
      <trkpt lat="43.64761" lon="3.82623">
        <ele>159.1</ele>
        <time>2016-05-20T11:29:02Z</time>
      </trkpt>
      <trkpt lat="43.64749" lon="3.82626">
        <ele>159</ele>
        <time>2016-05-20T11:29:04Z</time>
      </trkpt>
      <trkpt lat="43.64739" lon="3.8263">
        <ele>158.9</ele>
        <time>2016-05-20T11:29:06Z</time>
      </trkpt>
      <trkpt lat="43.64727" lon="3.82635">
        <ele>159.4</ele>
        <time>2016-05-20T11:29:08Z</time>
      </trkpt>
      <trkpt lat="43.64714" lon="3.82639">
        <ele>159.5</ele>
        <time>2016-05-20T11:29:10Z</time>
      </trkpt>
      <trkpt lat="43.64703" lon="3.82642">
        <ele>159.2</ele>
        <time>2016-05-20T11:29:12Z</time>
      </trkpt>
      <trkpt lat="43.64692" lon="3.8265">
        <ele>159.6</ele>
        <time>2016-05-20T11:29:14Z</time>
      </trkpt>
      <trkpt lat="43.64681" lon="3.82658">
        <ele>158.9</ele>
        <time>2016-05-20T11:29:16Z</time>
      </trkpt>
      <trkpt lat="43.6467" lon="3.82665">
        <ele>158.6</ele>
        <time>2016-05-20T11:29:18Z</time>
      </trkpt>
      <trkpt lat="43.64658" lon="3.82671">
        <ele>158.5</ele>
        <time>2016-05-20T11:29:20Z</time>
      </trkpt>
      <trkpt lat="43.64648" lon="3.82674">
        <ele>159.7</ele>
        <time>2016-05-20T11:29:22Z</time>
      </trkpt>
      <trkpt lat="43.64639" lon="3.82679">
        <ele>159.7</ele>
        <time>2016-05-20T11:29:24Z</time>
      </trkpt>
      <trkpt lat="43.64629" lon="3.82684">
        <ele>159.2</ele>
        <time>2016-05-20T11:29:26Z</time>
      </trkpt>
      <trkpt lat="43.6462" lon="3.82686">
        <ele>159.2</ele>
        <time>2016-05-20T11:29:29Z</time>
      </trkpt>
      <trkpt lat="43.64611" lon="3.82689">
        <ele>159</ele>
        <time>2016-05-20T11:29:32Z</time>
      </trkpt>
      <trkpt lat="43.64602" lon="3.82687">
        <ele>158.8</ele>
        <time>2016-05-20T11:29:36Z</time>
      </trkpt>
      <trkpt lat="43.64594" lon="3.82694">
        <ele>158.7</ele>
        <time>2016-05-20T11:29:40Z</time>
      </trkpt>
      <trkpt lat="43.64586" lon="3.82701">
        <ele>158.4</ele>
        <time>2016-05-20T11:29:43Z</time>
      </trkpt>
      <trkpt lat="43.64578" lon="3.82703">
        <ele>158</ele>
        <time>2016-05-20T11:29:47Z</time>
      </trkpt>
      <trkpt lat="43.64575" lon="3.82694">
        <ele>157.7</ele>
        <time>2016-05-20T11:29:51Z</time>
      </trkpt>
      <trkpt lat="43.64567" lon="3.82694">
        <ele>157.3</ele>
        <time>2016-05-20T11:29:55Z</time>
      </trkpt>
      <trkpt lat="43.64561" lon="3.827">
        <ele>157.1</ele>
        <time>2016-05-20T11:29:58Z</time>
      </trkpt>
      <trkpt lat="43.64552" lon="3.82708">
        <ele>156.9</ele>
        <time>2016-05-20T11:30:01Z</time>
      </trkpt>
      <trkpt lat="43.64544" lon="3.82714">
        <ele>156.5</ele>
        <time>2016-05-20T11:30:04Z</time>
      </trkpt>
      <trkpt lat="43.64537" lon="3.82719">
        <ele>154.6</ele>
        <time>2016-05-20T11:30:06Z</time>
      </trkpt>
      <trkpt lat="43.64531" lon="3.82724">
        <ele>154.7</ele>
        <time>2016-05-20T11:30:08Z</time>
      </trkpt>
      <trkpt lat="43.64522" lon="3.82731">
        <ele>154.4</ele>
        <time>2016-05-20T11:30:10Z</time>
      </trkpt>
      <trkpt lat="43.64514" lon="3.82734">
        <ele>152.4</ele>
        <time>2016-05-20T11:30:12Z</time>
      </trkpt>
      <trkpt lat="43.64507" lon="3.82734">
        <ele>151.5</ele>
        <time>2016-05-20T11:30:14Z</time>
      </trkpt>
      <trkpt lat="43.64495" lon="3.82733">
        <ele>151.6</ele>
        <time>2016-05-20T11:30:17Z</time>
      </trkpt>
      <trkpt lat="43.64483" lon="3.82735">
        <ele>150.7</ele>
        <time>2016-05-20T11:30:19Z</time>
      </trkpt>
      <trkpt lat="43.64471" lon="3.82735">
        <ele>150.5</ele>
        <time>2016-05-20T11:30:21Z</time>
      </trkpt>
      <trkpt lat="43.64458" lon="3.82734">
        <ele>150.3</ele>
        <time>2016-05-20T11:30:23Z</time>
      </trkpt>
      <trkpt lat="43.64451" lon="3.82734">
        <ele>150.6</ele>
        <time>2016-05-20T11:30:24Z</time>
      </trkpt>
      <trkpt lat="43.64437" lon="3.82733">
        <ele>149.6</ele>
        <time>2016-05-20T11:30:26Z</time>
      </trkpt>
      <trkpt lat="43.64426" lon="3.82733">
        <ele>150.6</ele>
        <time>2016-05-20T11:30:28Z</time>
      </trkpt>
      <trkpt lat="43.64414" lon="3.82732">
        <ele>150.2</ele>
        <time>2016-05-20T11:30:30Z</time>
      </trkpt>
      <trkpt lat="43.64403" lon="3.82731">
        <ele>149.7</ele>
        <time>2016-05-20T11:30:32Z</time>
      </trkpt>
      <trkpt lat="43.64396" lon="3.8273">
        <ele>149.6</ele>
        <time>2016-05-20T11:30:33Z</time>
      </trkpt>
      <trkpt lat="43.64383" lon="3.82729">
        <ele>149</ele>
        <time>2016-05-20T11:30:35Z</time>
      </trkpt>
      <trkpt lat="43.64372" lon="3.82731">
        <ele>148.7</ele>
        <time>2016-05-20T11:30:39Z</time>
      </trkpt>
      <trkpt lat="43.64361" lon="3.8273">
        <ele>148.2</ele>
        <time>2016-05-20T11:30:41Z</time>
      </trkpt>
      <trkpt lat="43.64349" lon="3.82725">
        <ele>147.1</ele>
        <time>2016-05-20T11:30:43Z</time>
      </trkpt>
      <trkpt lat="43.64341" lon="3.82722">
        <ele>146.8</ele>
        <time>2016-05-20T11:30:45Z</time>
      </trkpt>
      <trkpt lat="43.64337" lon="3.82713">
        <ele>146.6</ele>
        <time>2016-05-20T11:30:48Z</time>
      </trkpt>
      <trkpt lat="43.64329" lon="3.82708">
        <ele>146.4</ele>
        <time>2016-05-20T11:30:53Z</time>
      </trkpt>
      <trkpt lat="43.6432" lon="3.82702">
        <ele>145.4</ele>
        <time>2016-05-20T11:30:56Z</time>
      </trkpt>
      <trkpt lat="43.64309" lon="3.82694">
        <ele>144.5</ele>
        <time>2016-05-20T11:30:58Z</time>
      </trkpt>
      <trkpt lat="43.64303" lon="3.82689">
        <ele>143.9</ele>
        <time>2016-05-20T11:30:59Z</time>
      </trkpt>
      <trkpt lat="43.64296" lon="3.82684">
        <ele>143.2</ele>
        <time>2016-05-20T11:31:00Z</time>
      </trkpt>
      <trkpt lat="43.64289" lon="3.82679">
        <ele>142.2</ele>
        <time>2016-05-20T11:31:01Z</time>
      </trkpt>
      <trkpt lat="43.64281" lon="3.82677">
        <ele>141.6</ele>
        <time>2016-05-20T11:31:02Z</time>
      </trkpt>
      <trkpt lat="43.64271" lon="3.82675">
        <ele>140.9</ele>
        <time>2016-05-20T11:31:03Z</time>
      </trkpt>
      <trkpt lat="43.64262" lon="3.82673">
        <ele>140.1</ele>
        <time>2016-05-20T11:31:04Z</time>
      </trkpt>
      <trkpt lat="43.64254" lon="3.82671">
        <ele>139.7</ele>
        <time>2016-05-20T11:31:05Z</time>
      </trkpt>
      <trkpt lat="43.64245" lon="3.8267">
        <ele>138.5</ele>
        <time>2016-05-20T11:31:06Z</time>
      </trkpt>
      <trkpt lat="43.64236" lon="3.82667">
        <ele>137.1</ele>
        <time>2016-05-20T11:31:07Z</time>
      </trkpt>
      <trkpt lat="43.64225" lon="3.82664">
        <ele>136.1</ele>
        <time>2016-05-20T11:31:08Z</time>
      </trkpt>
      <trkpt lat="43.64217" lon="3.8266">
        <ele>135.5</ele>
        <time>2016-05-20T11:31:09Z</time>
      </trkpt>
      <trkpt lat="43.64205" lon="3.82655">
        <ele>134.5</ele>
        <time>2016-05-20T11:31:11Z</time>
      </trkpt>
      <trkpt lat="43.64195" lon="3.8265">
        <ele>134.4</ele>
        <time>2016-05-20T11:31:13Z</time>
      </trkpt>
      <trkpt lat="43.64187" lon="3.82648">
        <ele>134.5</ele>
        <time>2016-05-20T11:31:16Z</time>
      </trkpt>
      <trkpt lat="43.64176" lon="3.8265">
        <ele>136.5</ele>
        <time>2016-05-20T11:31:19Z</time>
      </trkpt>
      <trkpt lat="43.64168" lon="3.82651">
        <ele>137.6</ele>
        <time>2016-05-20T11:31:21Z</time>
      </trkpt>
      <trkpt lat="43.64159" lon="3.8266">
        <ele>137.5</ele>
        <time>2016-05-20T11:31:23Z</time>
      </trkpt>
      <trkpt lat="43.6415" lon="3.82671">
        <ele>136.4</ele>
        <time>2016-05-20T11:31:25Z</time>
      </trkpt>
      <trkpt lat="43.6414" lon="3.82682">
        <ele>136</ele>
        <time>2016-05-20T11:31:27Z</time>
      </trkpt>
      <trkpt lat="43.64132" lon="3.82691">
        <ele>135.3</ele>
        <time>2016-05-20T11:31:29Z</time>
      </trkpt>
      <trkpt lat="43.64124" lon="3.82702">
        <ele>133.8</ele>
        <time>2016-05-20T11:31:31Z</time>
      </trkpt>
      <trkpt lat="43.64114" lon="3.82712">
        <ele>133.8</ele>
        <time>2016-05-20T11:31:33Z</time>
      </trkpt>
      <trkpt lat="43.64104" lon="3.8272">
        <ele>132.9</ele>
        <time>2016-05-20T11:31:35Z</time>
      </trkpt>
      <trkpt lat="43.64094" lon="3.82729">
        <ele>132.4</ele>
        <time>2016-05-20T11:31:37Z</time>
      </trkpt>
      <trkpt lat="43.64082" lon="3.8274">
        <ele>131.8</ele>
        <time>2016-05-20T11:31:39Z</time>
      </trkpt>
      <trkpt lat="43.64071" lon="3.82749">
        <ele>130.9</ele>
        <time>2016-05-20T11:31:41Z</time>
      </trkpt>
      <trkpt lat="43.6406" lon="3.82759">
        <ele>130.2</ele>
        <time>2016-05-20T11:31:43Z</time>
      </trkpt>
      <trkpt lat="43.64049" lon="3.82767">
        <ele>129.4</ele>
        <time>2016-05-20T11:31:45Z</time>
      </trkpt>
      <trkpt lat="43.6404" lon="3.82775">
        <ele>128.7</ele>
        <time>2016-05-20T11:31:47Z</time>
      </trkpt>
      <trkpt lat="43.6403" lon="3.82781">
        <ele>127.9</ele>
        <time>2016-05-20T11:31:49Z</time>
      </trkpt>
      <trkpt lat="43.64019" lon="3.82786">
        <ele>127.3</ele>
        <time>2016-05-20T11:31:51Z</time>
      </trkpt>
      <trkpt lat="43.64008" lon="3.82791">
        <ele>127.2</ele>
        <time>2016-05-20T11:31:53Z</time>
      </trkpt>
      <trkpt lat="43.63995" lon="3.82793">
        <ele>126.8</ele>
        <time>2016-05-20T11:31:55Z</time>
      </trkpt>
      <trkpt lat="43.63982" lon="3.82794">
        <ele>124.4</ele>
        <time>2016-05-20T11:31:57Z</time>
      </trkpt>
      <trkpt lat="43.63974" lon="3.82796">
        <ele>123.8</ele>
        <time>2016-05-20T11:31:59Z</time>
      </trkpt>
      <trkpt lat="43.63969" lon="3.82803">
        <ele>123.8</ele>
        <time>2016-05-20T11:32:03Z</time>
      </trkpt>
      <trkpt lat="43.63962" lon="3.82809">
        <ele>123.8</ele>
        <time>2016-05-20T11:32:05Z</time>
      </trkpt>
      <trkpt lat="43.63956" lon="3.82815">
        <ele>124</ele>
        <time>2016-05-20T11:32:07Z</time>
      </trkpt>
      <trkpt lat="43.63948" lon="3.82818">
        <ele>125.2</ele>
        <time>2016-05-20T11:32:09Z</time>
      </trkpt>
      <trkpt lat="43.6394" lon="3.82822">
        <ele>125.6</ele>
        <time>2016-05-20T11:32:11Z</time>
      </trkpt>
      <trkpt lat="43.63931" lon="3.82828">
        <ele>125.9</ele>
        <time>2016-05-20T11:32:13Z</time>
      </trkpt>
      <trkpt lat="43.63923" lon="3.82828">
        <ele>126.9</ele>
        <time>2016-05-20T11:32:15Z</time>
      </trkpt>
      <trkpt lat="43.63915" lon="3.82822">
        <ele>127.9</ele>
        <time>2016-05-20T11:32:17Z</time>
      </trkpt>
      <trkpt lat="43.63909" lon="3.82818">
        <ele>128</ele>
        <time>2016-05-20T11:32:19Z</time>
      </trkpt>
      <trkpt lat="43.63901" lon="3.82815">
        <ele>127.9</ele>
        <time>2016-05-20T11:32:21Z</time>
      </trkpt>
      <trkpt lat="43.63891" lon="3.82813">
        <ele>128</ele>
        <time>2016-05-20T11:32:23Z</time>
      </trkpt>
      <trkpt lat="43.63885" lon="3.82803">
        <ele>128.8</ele>
        <time>2016-05-20T11:32:25Z</time>
      </trkpt>
      <trkpt lat="43.6388" lon="3.82791">
        <ele>130.7</ele>
        <time>2016-05-20T11:32:27Z</time>
      </trkpt>
      <trkpt lat="43.63871" lon="3.8279">
        <ele>129.9</ele>
        <time>2016-05-20T11:32:30Z</time>
      </trkpt>
      <trkpt lat="43.63865" lon="3.82796">
        <ele>128.4</ele>
        <time>2016-05-20T11:32:32Z</time>
      </trkpt>
      <trkpt lat="43.63856" lon="3.82803">
        <ele>127.7</ele>
        <time>2016-05-20T11:32:34Z</time>
      </trkpt>
      <trkpt lat="43.63845" lon="3.82804">
        <ele>126.8</ele>
        <time>2016-05-20T11:32:36Z</time>
      </trkpt>
      <trkpt lat="43.63832" lon="3.82804">
        <ele>126</ele>
        <time>2016-05-20T11:32:38Z</time>
      </trkpt>
      <trkpt lat="43.63821" lon="3.82806">
        <ele>126.7</ele>
        <time>2016-05-20T11:32:40Z</time>
      </trkpt>
      <trkpt lat="43.63806" lon="3.8281">
        <ele>126.1</ele>
        <time>2016-05-20T11:32:42Z</time>
      </trkpt>
      <trkpt lat="43.63794" lon="3.82814">
        <ele>126.5</ele>
        <time>2016-05-20T11:32:44Z</time>
      </trkpt>
      <trkpt lat="43.63785" lon="3.82818">
        <ele>125.3</ele>
        <time>2016-05-20T11:32:46Z</time>
      </trkpt>
      <trkpt lat="43.63777" lon="3.82822">
        <ele>125.2</ele>
        <time>2016-05-20T11:32:48Z</time>
      </trkpt>
      <trkpt lat="43.63777" lon="3.82833">
        <ele>124.1</ele>
        <time>2016-05-20T11:32:50Z</time>
      </trkpt>
      <trkpt lat="43.63782" lon="3.82843">
        <ele>123.7</ele>
        <time>2016-05-20T11:32:52Z</time>
      </trkpt>
      <trkpt lat="43.63777" lon="3.82854">
        <ele>122.9</ele>
        <time>2016-05-20T11:32:54Z</time>
      </trkpt>
      <trkpt lat="43.63769" lon="3.82853">
        <ele>122.6</ele>
        <time>2016-05-20T11:32:57Z</time>
      </trkpt>
    </trkseg>
  </trk>
</gpx>